Darstellungsparameter: Aktuell verwendete Einstellungen:
Skalierung der Graphiken ... ?
xyx+y,   Skalierungsfaktor:      Skalierung: Modus: x, Faktor: 1
Darstellungszeitraum ... ?
Vom - - bis: - -   Zeitraum: 23.11.2018 - 22.05.2019
Min/Max/Avg-Anzeige ... ?
Zeige MMA aktuell
Zeige MMA Monat
Zeige MMA alles
Zeige --A aktuell
Zeige --A Monat
Zeige --A alles
Keine MMA-Anzeige
MMA:
Minimum Maximum Average (ber die Originaldaten)
MMA-Basis: 23.02.2003 - 16.08.2019
Quicknavigation für Darstellung... ?
Tage:      1T, 2T, 3T, 5T -1T -2T -3T -5T +1T +2T +3T +5T
Wochen: 1W, 2W, 3W -1W -2W -3W +1W +2W +3W
Monate: 1M, 3M, 6M -1M -3M -6M +1M +3M +6M
Jahre:    1J, 3J, 5J, 10J -1J -3J -5J -10J +1J +3J +5J +10J
Nutze für die Darstellung ... ?
Originaldaten oder Mittelwerte auf ...
Stundenbasis Tagesbasis Wochenbasis
Monatsbasis Jahresbasis      Datenbasis: Original-Daten
Darstellen als:
Statistik (Auto) Statistik J:M      Darstellung:
Zur Graphik,    zurück zur Übersicht aller Sensoren.
 
Tabellarische Datenbersicht: ?
 
Sensor: Nr:Datum:Temp:Feuchte:Taupunkt:
Aussen-T/F 1 23-11-2018 00:00:00 -1.1 C 94 % -1.94 C
2 23-11-2018 00:05:00 -1.2 C 94 % -2.04 C
3 23-11-2018 00:10:00 -1.2 C 94 % -2.04 C
4 23-11-2018 00:15:00 -1.2 C 94 % -2.04 C
5 23-11-2018 00:20:00 -1.2 C 94 % -2.04 C
6 23-11-2018 00:25:00 -1.3 C 94 % -2.14 C
7 23-11-2018 00:30:00 -1.3 C 94 % -2.14 C
8 23-11-2018 00:35:00 -1.4 C 94 % -2.24 C
9 23-11-2018 00:40:00 -1.4 C 94 % -2.24 C
10 23-11-2018 00:45:00 -1.4 C 95 % -2.1 C
11 23-11-2018 00:50:00 -1.4 C 95 % -2.1 C
12 23-11-2018 00:55:00 -1.4 C 94 % -2.24 C
13 23-11-2018 01:00:00 -1.5 C 94 % -2.34 C
14 23-11-2018 01:05:00 -1.5 C 94 % -2.34 C
15 23-11-2018 01:10:00 -1.6 C 95 % -2.29 C
16 23-11-2018 01:15:00 -1.6 C 95 % -2.29 C
17 23-11-2018 01:20:00 -1.7 C 95 % -2.39 C
18 23-11-2018 01:25:00 -1.7 C 94 % -2.54 C
19 23-11-2018 01:30:00 -1.7 C 94 % -2.54 C
20 23-11-2018 01:35:00 -1.8 C 94 % -2.64 C
21 23-11-2018 01:40:00 -1.8 C 94 % -2.64 C
22 23-11-2018 01:45:00 -1.8 C 94 % -2.64 C
23 23-11-2018 01:50:00 -1.8 C 95 % -2.49 C
24 23-11-2018 01:55:00 -1.8 C 95 % -2.49 C
25 23-11-2018 02:00:00 -1.7 C 95 % -2.39 C
Sensor: Nr:Datum:Temp:Feuchte:Taupunkt:
Aussen-T/F 26 23-11-2018 02:05:00 -1.7 C 95 % -2.39 C
27 23-11-2018 02:10:00 -1.7 C 95 % -2.39 C
28 23-11-2018 02:15:00 -1.8 C 95 % -2.49 C
29 23-11-2018 02:20:00 -1.8 C 95 % -2.49 C
30 23-11-2018 02:25:00 -1.9 C 95 % -2.59 C
31 23-11-2018 02:30:00 -1.9 C 95 % -2.59 C
32 23-11-2018 02:35:00 -1.8 C 95 % -2.49 C
33 23-11-2018 02:40:00 -1.8 C 95 % -2.49 C
34 23-11-2018 02:45:00 -1.9 C 95 % -2.59 C
35 23-11-2018 02:50:00 -2 C 95 % -2.69 C
36 23-11-2018 02:55:00 -2.1 C 95 % -2.79 C
37 23-11-2018 03:00:00 -2.1 C 95 % -2.79 C
38 23-11-2018 03:05:00 -2.1 C 95 % -2.79 C
39 23-11-2018 03:10:00 -2.1 C 95 % -2.79 C
40 23-11-2018 03:15:00 -2.2 C 95 % -2.89 C
41 23-11-2018 03:20:00 -2.2 C 95 % -2.89 C
42 23-11-2018 03:25:00 -2.2 C 95 % -2.89 C
43 23-11-2018 03:30:00 -2.2 C 95 % -2.89 C
44 23-11-2018 03:35:00 -2.1 C 95 % -2.79 C
45 23-11-2018 03:40:00 -1.9 C 95 % -2.59 C
46 23-11-2018 03:45:00 -1.9 C 95 % -2.59 C
47 23-11-2018 03:50:00 -2 C 95 % -2.69 C
48 23-11-2018 03:55:00 -2.1 C 95 % -2.79 C
49 23-11-2018 04:00:00 -1.9 C 95 % -2.59 C
50 23-11-2018 04:05:00 -1.9 C 95 % -2.59 C
Sensor: Nr:Datum:Temp:Feuchte:Taupunkt:
Aussen-T/F 51 23-11-2018 04:10:00 -1.9 C 95 % -2.59 C
52 23-11-2018 04:15:00 -1.9 C 95 % -2.59 C
53 23-11-2018 04:20:00 -2 C 95 % -2.69 C
54 23-11-2018 04:25:00 -2.1 C 95 % -2.79 C
55 23-11-2018 04:30:00 -2.1 C 95 % -2.79 C
56 23-11-2018 04:35:00 -2.2 C 95 % -2.89 C
57 23-11-2018 04:40:00 -2.3 C 95 % -2.99 C
58 23-11-2018 04:45:00 -2.3 C 95 % -2.99 C
59 23-11-2018 04:50:00 -2.3 C 95 % -2.99 C
60 23-11-2018 04:55:00 -2.4 C 95 % -3.09 C
61 23-11-2018 05:00:00 -2.4 C 95 % -3.09 C
62 23-11-2018 05:05:00 -2.4 C 95 % -3.09 C
63 23-11-2018 05:10:00 -2.3 C 95 % -2.99 C
64 23-11-2018 05:15:00 -2.2 C 95 % -2.89 C
65 23-11-2018 05:20:00 -2.2 C 95 % -2.89 C
66 23-11-2018 05:25:00 -2.1 C 95 % -2.79 C
67 23-11-2018 05:30:00 -2.2 C 95 % -2.89 C
68 23-11-2018 05:35:00 -2.3 C 95 % -2.99 C
69 23-11-2018 05:40:00 -2.3 C 95 % -2.99 C
70 23-11-2018 05:45:00 -2.4 C 95 % -3.09 C
71 23-11-2018 05:50:00 -2.6 C 95 % -3.29 C
72 23-11-2018 05:55:00 -2.6 C 95 % -3.29 C
73 23-11-2018 06:00:00 -2.5 C 95 % -3.19 C
74 23-11-2018 06:05:00 -2.4 C 95 % -3.09 C
75 23-11-2018 06:10:00 -2.3 C 95 % -2.99 C
Sensor: Nr:Datum:Temp:Feuchte:Taupunkt:
Aussen-T/F 76 23-11-2018 06:15:00 -2.2 C 96 % -2.75 C
77 23-11-2018 06:20:00 -2.1 C 96 % -2.65 C
78 23-11-2018 06:25:00 -2 C 96 % -2.55 C
79 23-11-2018 06:30:00 -2 C 95 % -2.69 C
80 23-11-2018 06:35:00 -2 C 95 % -2.69 C
81 23-11-2018 06:40:00 -2.1 C 95 % -2.79 C
82 23-11-2018 06:45:00 -2.1 C 95 % -2.79 C
83 23-11-2018 06:50:00 -2.2 C 95 % -2.89 C
84 23-11-2018 06:55:00 -2.2 C 95 % -2.89 C
85 23-11-2018 07:00:00 -2.2 C 95 % -2.89 C
86 23-11-2018 07:05:00 -2.1 C 95 % -2.79 C
87 23-11-2018 07:10:00 -2.1 C 95 % -2.79 C
88 23-11-2018 07:15:00 -2 C 96 % -2.55 C
89 23-11-2018 07:20:00 -2 C 96 % -2.55 C
90 23-11-2018 07:25:00 -2 C 95 % -2.69 C
91 23-11-2018 07:30:00 -2.1 C 95 % -2.79 C
92 23-11-2018 07:35:00 -2.2 C 95 % -2.89 C
93 23-11-2018 07:40:00 -2.3 C 95 % -2.99 C
94 23-11-2018 07:45:00 -2.4 C 95 % -3.09 C
95 23-11-2018 07:50:00 -2.5 C 95 % -3.19 C
96 23-11-2018 07:55:00 -2.6 C 95 % -3.29 C
97 23-11-2018 08:00:00 -2.7 C 95 % -3.39 C
98 23-11-2018 08:05:00 -2.8 C 95 % -3.49 C
99 23-11-2018 08:10:00 -2.8 C 95 % -3.49 C
100 23-11-2018 08:15:00 -2.7 C 95 % -3.39 C
Sensor: Nr:Datum:Temp:Feuchte:Taupunkt:
Aussen-T/F 101 23-11-2018 08:20:00 -2.8 C 95 % -3.49 C
102 23-11-2018 08:25:00 -2.8 C 95 % -3.49 C
103 23-11-2018 08:30:00 -2.8 C 95 % -3.49 C
104 23-11-2018 08:35:00 -2.9 C 95 % -3.59 C
105 23-11-2018 08:40:00 -2.9 C 95 % -3.59 C
106 23-11-2018 08:45:00 -2.9 C 95 % -3.59 C
107 23-11-2018 08:50:00 -2.8 C 95 % -3.49 C
108 23-11-2018 08:55:00 -2.7 C 95 % -3.39 C
109 23-11-2018 09:00:00 -2.6 C 95 % -3.29 C
110 23-11-2018 09:05:00 -2.5 C 96 % -3.05 C
111 23-11-2018 09:10:00 -2.5 C 96 % -3.05 C
112 23-11-2018 09:15:00 -2.4 C 96 % -2.95 C
113 23-11-2018 09:20:00 -2.3 C 96 % -2.85 C
114 23-11-2018 09:25:00 -2.3 C 96 % -2.85 C
115 23-11-2018 09:30:00 -2.2 C 96 % -2.75 C
116 23-11-2018 09:35:00 -2.2 C 96 % -2.75 C
117 23-11-2018 09:40:00 -2.2 C 96 % -2.75 C
118 23-11-2018 09:45:00 -2.2 C 96 % -2.75 C
119 23-11-2018 09:50:00 -2.2 C 96 % -2.75 C
120 23-11-2018 09:55:00 -2.2 C 96 % -2.75 C
121 23-11-2018 10:00:00 -2.2 C 96 % -2.75 C
122 23-11-2018 10:05:00 -2.2 C 96 % -2.75 C
123 23-11-2018 10:10:00 -2.2 C 96 % -2.75 C
124 23-11-2018 10:15:00 -2.2 C 96 % -2.75 C
125 23-11-2018 10:20:00 -2.1 C 96 % -2.65 C
Sensor: Nr:Datum:Temp:Feuchte:Taupunkt:
Aussen-T/F 126 23-11-2018 10:25:00 -2.1 C 96 % -2.65 C
127 23-11-2018 10:30:00 -2 C 96 % -2.55 C
128 23-11-2018 10:35:00 -1.9 C 96 % -2.45 C
129 23-11-2018 10:40:00 -1.8 C 96 % -2.35 C
130 23-11-2018 10:45:00 -1.8 C 96 % -2.35 C
131 23-11-2018 10:50:00 -1.7 C 96 % -2.25 C
132 23-11-2018 10:55:00 -1.6 C 96 % -2.15 C
133 23-11-2018 11:00:00 -1.6 C 96 % -2.15 C
134 23-11-2018 11:05:00 -1.4 C 96 % -1.95 C
135 23-11-2018 11:10:00 -1.4 C 96 % -1.95 C
136 23-11-2018 11:15:00 -1.3 C 96 % -1.85 C
137 23-11-2018 11:20:00 -1.2 C 96 % -1.75 C
138 23-11-2018 11:25:00 -1.1 C 96 % -1.66 C
139 23-11-2018 11:30:00 -1 C 96 % -1.56 C
140 23-11-2018 11:35:00 -0.9 C 96 % -1.46 C
141 23-11-2018 11:40:00 -0.8 C 96 % -1.36 C
142 23-11-2018 11:45:00 -0.7 C 96 % -1.26 C
143 23-11-2018 11:50:00 -0.6 C 96 % -1.16 C
144 23-11-2018 11:55:00 -0.5 C 96 % -1.06 C
145 23-11-2018 12:00:00 -0.3 C 96 % -0.86 C
146 23-11-2018 12:05:00 -0.2 C 96 % -0.76 C
147 23-11-2018 12:10:00 -0.1 C 97 % -0.52 C
148 23-11-2018 12:15:00 0.1 C 97 % -0.32 C
149 23-11-2018 12:20:00 0.2 C 96 % -0.36 C
150 23-11-2018 12:25:00 0.4 C 97 % -0.02 C
Sensor: Nr:Datum:Temp:Feuchte:Taupunkt:
Aussen-T/F 151 23-11-2018 12:30:00 0.6 C 97 % 0.18 C
152 23-11-2018 12:35:00 0.8 C 97 % 0.38 C
153 23-11-2018 12:40:00 1.1 C 97 % 0.68 C
154 23-11-2018 12:45:00 1.3 C 97 % 0.88 C
155 23-11-2018 12:50:00 1.4 C 97 % 0.98 C
156 23-11-2018 12:55:00 1.6 C 97 % 1.18 C
157 23-11-2018 13:00:00 1.7 C 97 % 1.28 C
158 23-11-2018 13:05:00 1.8 C 97 % 1.38 C
159 23-11-2018 13:10:00 1.9 C 97 % 1.48 C
160 23-11-2018 13:15:00 2 C 97 % 1.58 C
161 23-11-2018 13:20:00 2.1 C 97 % 1.67 C
162 23-11-2018 13:25:00 2.1 C 97 % 1.67 C
163 23-11-2018 13:30:00 2.3 C 97 % 1.87 C
164 23-11-2018 13:35:00 2.3 C 97 % 1.87 C
165 23-11-2018 13:40:00 2.4 C 97 % 1.97 C
166 23-11-2018 13:45:00 2.6 C 97 % 2.17 C
167 23-11-2018 13:50:00 2.6 C 97 % 2.17 C
168 23-11-2018 13:55:00 2.7 C 97 % 2.27 C
169 23-11-2018 14:00:00 2.8 C 97 % 2.37 C
170 23-11-2018 14:05:00 2.8 C 97 % 2.37 C
171 23-11-2018 14:10:00 2.9 C 97 % 2.47 C
172 23-11-2018 14:15:00 2.9 C 96 % 2.33 C
173 23-11-2018 14:20:00 3 C 96 % 2.43 C
174 23-11-2018 14:25:00 3.1 C 97 % 2.67 C
175 23-11-2018 14:30:00 3.2 C 96 % 2.63 C
Sensor: Nr:Datum:Temp:Feuchte:Taupunkt:
Aussen-T/F 176 23-11-2018 14:35:00 3.2 C 96 % 2.63 C
177 23-11-2018 14:40:00 3.3 C 96 % 2.72 C
178 23-11-2018 14:45:00 3.4 C 96 % 2.82 C
179 23-11-2018 14:50:00 3.4 C 96 % 2.82 C
180 23-11-2018 14:55:00 3.5 C 96 % 2.92 C
181 23-11-2018 15:00:00 3.5 C 96 % 2.92 C
182 23-11-2018 15:05:00 3.4 C 96 % 2.82 C
183 23-11-2018 15:10:00 3.4 C 96 % 2.82 C
184 23-11-2018 15:15:00 3.4 C 96 % 2.82 C
185 23-11-2018 15:20:00 3.4 C 95 % 2.68 C
186 23-11-2018 15:25:00 3.4 C 96 % 2.82 C
187 23-11-2018 15:30:00 3.4 C 96 % 2.82 C
188 23-11-2018 15:35:00 3.4 C 96 % 2.82 C
189 23-11-2018 15:40:00 3.4 C 96 % 2.82 C
190 23-11-2018 15:45:00 3.4 C 95 % 2.68 C
191 23-11-2018 15:50:00 3.4 C 95 % 2.68 C
192 23-11-2018 15:55:00 3.4 C 95 % 2.68 C
193 23-11-2018 16:00:00 3.4 C 95 % 2.68 C
194 23-11-2018 16:05:00 3.3 C 95 % 2.58 C
195 23-11-2018 16:10:00 3.3 C 95 % 2.58 C
196 23-11-2018 16:15:00 3.2 C 95 % 2.48 C
197 23-11-2018 16:20:00 3.2 C 95 % 2.48 C
198 23-11-2018 16:25:00 3.1 C 95 % 2.38 C
199 23-11-2018 16:30:00 3.1 C 95 % 2.38 C
200 23-11-2018 16:35:00 3 C 95 % 2.28 C
Sensor: Nr:Datum:Temp:Feuchte:Taupunkt:
Aussen-T/F 201 23-11-2018 16:40:00 2.9 C 95 % 2.18 C
202 23-11-2018 16:45:00 2.9 C 95 % 2.18 C
203 23-11-2018 16:50:00 2.9 C 95 % 2.18 C
204 23-11-2018 16:55:00 2.8 C 95 % 2.08 C
205 23-11-2018 17:00:00 2.8 C 95 % 2.08 C
206 23-11-2018 17:05:00 2.8 C 95 % 2.08 C
207 23-11-2018 17:10:00 2.8 C 95 % 2.08 C
208 23-11-2018 17:15:00 2.8 C 95 % 2.08 C
209 23-11-2018 17:20:00 2.8 C 95 % 2.08 C
210 23-11-2018 17:25:00 2.8 C 95 % 2.08 C
211 23-11-2018 17:30:00 2.8 C 95 % 2.08 C
212 23-11-2018 17:35:00 2.8 C 95 % 2.08 C
213 23-11-2018 17:40:00 2.7 C 95 % 1.98 C
214 23-11-2018 17:45:00 2.7 C 95 % 1.98 C
215 23-11-2018 17:50:00 2.6 C 95 % 1.88 C
216 23-11-2018 17:55:00 2.6 C 95 % 1.88 C
217 23-11-2018 18:00:00 2.6 C 95 % 1.88 C
218 23-11-2018 18:05:00 2.5 C 95 % 1.78 C
219 23-11-2018 18:10:00 2.6 C 95 % 1.88 C
220 23-11-2018 18:15:00 2.5 C 95 % 1.78 C
221 23-11-2018 18:20:00 2.4 C 95 % 1.68 C
222 23-11-2018 18:25:00 2.4 C 95 % 1.68 C
223 23-11-2018 18:30:00 2.4 C 95 % 1.68 C
224 23-11-2018 18:35:00 2.4 C 95 % 1.68 C
225 23-11-2018 18:40:00 2.4 C 95 % 1.68 C
Sensor: Nr:Datum:Temp:Feuchte:Taupunkt:
Aussen-T/F 226 23-11-2018 18:45:00 2.4 C 95 % 1.68 C
227 23-11-2018 18:50:00 2.4 C 95 % 1.68 C
228 23-11-2018 18:55:00 2.4 C 95 % 1.68 C
229 23-11-2018 19:00:00 2.4 C 95 % 1.68 C
230 23-11-2018 19:05:00 2.3 C 95 % 1.58 C
231 23-11-2018 19:10:00 2.3 C 95 % 1.58 C
232 23-11-2018 19:15:00 2.3 C 95 % 1.58 C
233 23-11-2018 19:20:00 2.3 C 95 % 1.58 C
234 23-11-2018 19:25:00 2.3 C 95 % 1.58 C
235 23-11-2018 19:30:00 2.3 C 95 % 1.58 C
236 23-11-2018 19:35:00 2.3 C 95 % 1.58 C
237 23-11-2018 19:40:00 2.2 C 95 % 1.48 C
238 23-11-2018 19:45:00 2.2 C 95 % 1.48 C
239 23-11-2018 19:50:00 2.1 C 95 % 1.38 C
240 23-11-2018 19:55:00 2.1 C 95 % 1.38 C
241 23-11-2018 20:00:00 2 C 95 % 1.29 C
242 23-11-2018 20:05:00 1.9 C 95 % 1.19 C
243 23-11-2018 20:10:00 1.9 C 95 % 1.19 C
244 23-11-2018 20:15:00 1.9 C 95 % 1.19 C
245 23-11-2018 20:20:00 1.8 C 95 % 1.09 C
246 23-11-2018 20:25:00 1.8 C 95 % 1.09 C
247 23-11-2018 20:30:00 1.8 C 95 % 1.09 C
248 23-11-2018 20:35:00 1.8 C 95 % 1.09 C
249 23-11-2018 20:40:00 1.8 C 95 % 1.09 C
250 23-11-2018 20:45:00 1.8 C 95 % 1.09 C
Sensor: Nr:Datum:Temp:Feuchte:Taupunkt:
Aussen-T/F 251 23-11-2018 20:50:00 1.7 C 95 % 0.99 C
252 23-11-2018 20:55:00 1.7 C 95 % 0.99 C
253 23-11-2018 21:00:00 1.7 C 95 % 0.99 C
254 23-11-2018 21:05:00 1.6 C 95 % 0.89 C
255 23-11-2018 21:10:00 1.6 C 95 % 0.89 C
256 23-11-2018 21:15:00 1.6 C 95 % 0.89 C
257 23-11-2018 21:20:00 1.6 C 95 % 0.89 C
258 23-11-2018 21:25:00 1.5 C 95 % 0.79 C
259 23-11-2018 21:30:00 1.5 C 95 % 0.79 C
260 23-11-2018 21:35:00 1.4 C 95 % 0.69 C
261 23-11-2018 21:40:00 1.4 C 95 % 0.69 C
262 23-11-2018 21:45:00 1.4 C 95 % 0.69 C
263 23-11-2018 21:50:00 1.3 C 95 % 0.59 C
264 23-11-2018 21:55:00 1.3 C 95 % 0.59 C
265 23-11-2018 22:00:00 1.3 C 95 % 0.59 C
266 23-11-2018 22:05:00 1.3 C 95 % 0.59 C
267 23-11-2018 22:10:00 1.3 C 95 % 0.59 C
268 23-11-2018 22:15:00 1.2 C 95 % 0.49 C
269 23-11-2018 22:20:00 1.2 C 95 % 0.49 C
270 23-11-2018 22:25:00 1.3 C 95 % 0.59 C
271 23-11-2018 22:30:00 1.3 C 95 % 0.59 C
272 23-11-2018 22:35:00 1.4 C 96 % 0.83 C
273 23-11-2018 22:40:00 1.4 C 96 % 0.83 C
274 23-11-2018 22:45:00 1.5 C 96 % 0.93 C
275 23-11-2018 22:50:00 1.6 C 96 % 1.03 C
Sensor: Nr:Datum:Temp:Feuchte:Taupunkt:
Aussen-T/F 276 23-11-2018 22:55:00 1.6 C 96 % 1.03 C
277 23-11-2018 23:00:00 1.6 C 96 % 1.03 C
278 23-11-2018 23:05:00 1.7 C 96 % 1.13 C
279 23-11-2018 23:10:00 1.7 C 96 % 1.13 C
280 23-11-2018 23:15:00 1.8 C 96 % 1.23 C
281 23-11-2018 23:20:00 1.8 C 96 % 1.23 C
282 23-11-2018 23:25:00 1.9 C 96 % 1.33 C
283 23-11-2018 23:30:00 2 C 96 % 1.43 C
284 23-11-2018 23:35:00 2.1 C 96 % 1.53 C
285 23-11-2018 23:40:00 2.1 C 96 % 1.53 C
286 23-11-2018 23:45:00 2.2 C 96 % 1.63 C
287 23-11-2018 23:50:00 2.2 C 96 % 1.63 C
288 23-11-2018 23:55:00 2.2 C 96 % 1.63 C
289 24-11-2018 00:00:00 2.2 C 96 % 1.63 C
290 24-11-2018 00:05:00 2.2 C 96 % 1.63 C
291 24-11-2018 00:10:00 2.2 C 96 % 1.63 C
292 24-11-2018 00:15:00 2.2 C 96 % 1.63 C
293 24-11-2018 00:20:00 2.2 C 96 % 1.63 C
294 24-11-2018 00:25:00 2.2 C 96 % 1.63 C
295 24-11-2018 00:30:00 2.2 C 96 % 1.63 C
296 24-11-2018 00:35:00 2.3 C 96 % 1.73 C
297 24-11-2018 00:40:00 2.3 C 96 % 1.73 C
298 24-11-2018 00:45:00 2.3 C 96 % 1.73 C
299 24-11-2018 00:50:00 2.3 C 96 % 1.73 C
300 24-11-2018 00:55:00 2.3 C 96 % 1.73 C
Sensor: Nr:Datum:Temp:Feuchte:Taupunkt:
Aussen-T/F 301 24-11-2018 01:00:00 2.3 C 96 % 1.73 C
302 24-11-2018 01:05:00 2.3 C 96 % 1.73 C
303 24-11-2018 01:10:00 2.3 C 96 % 1.73 C
304 24-11-2018 01:15:00 2.4 C 96 % 1.83 C
305 24-11-2018 01:20:00 2.4 C 96 % 1.83 C
306 24-11-2018 01:25:00 2.4 C 96 % 1.83 C
307 24-11-2018 01:30:00 2.4 C 96 % 1.83 C
308 24-11-2018 01:35:00 2.4 C 96 % 1.83 C
309 24-11-2018 01:40:00 2.4 C 96 % 1.83 C
310 24-11-2018 01:45:00 2.4 C 96 % 1.83 C
311 24-11-2018 01:50:00 2.4 C 96 % 1.83 C
312 24-11-2018 01:55:00 2.4 C 96 % 1.83 C
313 24-11-2018 02:00:00 2.4 C 96 % 1.83 C
314 24-11-2018 02:05:00 2.4 C 96 % 1.83 C
315 24-11-2018 02:10:00 2.4 C 96 % 1.83 C
316 24-11-2018 02:15:00 2.5 C 96 % 1.93 C
317 24-11-2018 02:20:00 2.4 C 96 % 1.83 C
318 24-11-2018 02:25:00 2.5 C 96 % 1.93 C
319 24-11-2018 02:30:00 2.5 C 96 % 1.93 C
320 24-11-2018 02:35:00 2.5 C 96 % 1.93 C
321 24-11-2018 02:40:00 2.5 C 96 % 1.93 C
322 24-11-2018 02:45:00 2.5 C 96 % 1.93 C
323 24-11-2018 02:50:00 2.5 C 96 % 1.93 C
324 24-11-2018 02:55:00 2.5 C 96 % 1.93 C
325 24-11-2018 03:00:00 2.5 C 96 % 1.93 C
Sensor: Nr:Datum:Temp:Feuchte:Taupunkt:
Aussen-T/F 326 24-11-2018 03:05:00 2.5 C 96 % 1.93 C
327 24-11-2018 03:10:00 2.5 C 96 % 1.93 C
328 24-11-2018 03:15:00 2.5 C 96 % 1.93 C
329 24-11-2018 03:20:00 2.5 C 96 % 1.93 C
330 24-11-2018 03:25:00 2.5 C 96 % 1.93 C
331 24-11-2018 03:30:00 2.5 C 96 % 1.93 C
332 24-11-2018 03:35:00 2.6 C 96 % 2.03 C
333 24-11-2018 03:40:00 2.6 C 96 % 2.03 C
334 24-11-2018 03:45:00 2.6 C 96 % 2.03 C
335 24-11-2018 03:50:00 2.6 C 96 % 2.03 C
336 24-11-2018 03:55:00 2.6 C 96 % 2.03 C
337 24-11-2018 04:00:00 2.6 C 96 % 2.03 C
338 24-11-2018 04:05:00 2.6 C 96 % 2.03 C
339 24-11-2018 04:10:00 2.6 C 96 % 2.03 C
340 24-11-2018 04:15:00 2.6 C 96 % 2.03 C
341 24-11-2018 04:20:00 2.6 C 96 % 2.03 C
342 24-11-2018 04:25:00 2.7 C 96 % 2.13 C
343 24-11-2018 04:30:00 2.7 C 96 % 2.13 C
344 24-11-2018 04:35:00 2.7 C 96 % 2.13 C
345 24-11-2018 04:40:00 2.7 C 96 % 2.13 C
346 24-11-2018 04:45:00 2.7 C 96 % 2.13 C
347 24-11-2018 04:50:00 2.7 C 96 % 2.13 C
348 24-11-2018 04:55:00 2.7 C 96 % 2.13 C
349 24-11-2018 05:00:00 2.7 C 96 % 2.13 C
350 24-11-2018 05:05:00 2.7 C 96 % 2.13 C
Sensor: Nr:Datum:Temp:Feuchte:Taupunkt:
Aussen-T/F 351 24-11-2018 05:10:00 2.7 C 96 % 2.13 C
352 24-11-2018 05:15:00 2.7 C 96 % 2.13 C
353 24-11-2018 05:20:00 2.7 C 96 % 2.13 C
354 24-11-2018 05:25:00 2.7 C 96 % 2.13 C
355 24-11-2018 05:30:00 2.8 C 96 % 2.23 C
356 24-11-2018 05:35:00 2.8 C 96 % 2.23 C
357 24-11-2018 05:40:00 2.8 C 96 % 2.23 C
358 24-11-2018 05:45:00 2.8 C 96 % 2.23 C
359 24-11-2018 05:50:00 2.8 C 96 % 2.23 C
360 24-11-2018 05:55:00 2.9 C 96 % 2.33 C
361 24-11-2018 06:00:00 2.9 C 96 % 2.33 C
362 24-11-2018 06:05:00 2.9 C 96 % 2.33 C
363 24-11-2018 06:10:00 2.9 C 96 % 2.33 C
364 24-11-2018 06:15:00 2.9 C 96 % 2.33 C
365 24-11-2018 06:20:00 2.9 C 96 % 2.33 C
366 24-11-2018 06:25:00 3 C 96 % 2.43 C
367 24-11-2018 06:30:00 3 C 96 % 2.43 C
368 24-11-2018 06:35:00 3 C 96 % 2.43 C
369 24-11-2018 06:40:00 3.1 C 96 % 2.53 C
370 24-11-2018 06:45:00 3.1 C 96 % 2.53 C
371 24-11-2018 06:50:00 3.1 C 96 % 2.53 C
372 24-11-2018 06:55:00 3.1 C 96 % 2.53 C
373 24-11-2018 07:00:00 3.1 C 96 % 2.53 C
374 24-11-2018 07:05:00 3.1 C 96 % 2.53 C
375 24-11-2018 07:10:00 3.1 C 96 % 2.53 C
Sensor: Nr:Datum:Temp:Feuchte:Taupunkt:
Aussen-T/F 376 24-11-2018 07:15:00 3.1 C 96 % 2.53 C
377 24-11-2018 07:20:00 3.1 C 96 % 2.53 C
378 24-11-2018 07:25:00 3.1 C 96 % 2.53 C
379 24-11-2018 07:30:00 3.1 C 96 % 2.53 C
380 24-11-2018 07:35:00 3.1 C 96 % 2.53 C
381 24-11-2018 07:40:00 3.1 C 96 % 2.53 C
382 24-11-2018 07:45:00 3.1 C 96 % 2.53 C
383 24-11-2018 07:50:00 3.1 C 96 % 2.53 C
384 24-11-2018 07:55:00 3.1 C 96 % 2.53 C
385 24-11-2018 08:00:00 3.1 C 96 % 2.53 C
386 24-11-2018 08:05:00 3.1 C 96 % 2.53 C
387 24-11-2018 08:10:00 3.1 C 96 % 2.53 C
388 24-11-2018 08:15:00 3.1 C 96 % 2.53 C
389 24-11-2018 08:20:00 3.1 C 96 % 2.53 C
390 24-11-2018 08:25:00 3.1 C 96 % 2.53 C
391 24-11-2018 08:30:00 3.1 C 96 % 2.53 C
392 24-11-2018 08:35:00 3.1 C 96 % 2.53 C
393 24-11-2018 08:40:00 3.1 C 96 % 2.53 C
394 24-11-2018 08:45:00 3.2 C 96 % 2.63 C
395 24-11-2018 08:50:00 3.2 C 96 % 2.63 C
396 24-11-2018 08:55:00 3.2 C 96 % 2.63 C
397 24-11-2018 09:00:00 3.3 C 96 % 2.72 C
398 24-11-2018 09:05:00 3.3 C 96 % 2.72 C
399 24-11-2018 09:10:00 3.4 C 96 % 2.82 C
400 24-11-2018 09:15:00 3.4 C 96 % 2.82 C
Sensor: Nr:Datum:Temp:Feuchte:Taupunkt:
Aussen-T/F 401 24-11-2018 09:20:00 3.4 C 96 % 2.82 C
402 24-11-2018 09:25:00 3.5 C 96 % 2.92 C
403 24-11-2018 09:30:00 3.6 C 96 % 3.02 C
404 24-11-2018 09:35:00 3.6 C 96 % 3.02 C
405 24-11-2018 09:40:00 3.6 C 96 % 3.02 C
406 24-11-2018 09:45:00 3.7 C 96 % 3.12 C
407 24-11-2018 09:50:00 3.7 C 96 % 3.12 C
408 24-11-2018 09:55:00 3.7 C 96 % 3.12 C
409 24-11-2018 10:00:00 3.8 C 96 % 3.22 C
410 24-11-2018 10:05:00 3.8 C 97 % 3.37 C
411 24-11-2018 10:10:00 4 C 96 % 3.42 C
412 24-11-2018 10:15:00 4.1 C 97 % 3.67 C
413 24-11-2018 10:20:00 4.1 C 97 % 3.67 C
414 24-11-2018 10:25:00 4.2 C 97 % 3.77 C
415 24-11-2018 10:30:00 4.3 C 97 % 3.87 C
416 24-11-2018 10:35:00 4.3 C 97 % 3.87 C
417 24-11-2018 10:40:00 4.4 C 97 % 3.97 C
418 24-11-2018 10:45:00 4.4 C 97 % 3.97 C
419 24-11-2018 10:50:00 4.5 C 97 % 4.07 C
420 24-11-2018 10:55:00 4.6 C 97 % 4.17 C
421 24-11-2018 11:00:00 4.7 C 97 % 4.27 C
422 24-11-2018 11:05:00 4.7 C 97 % 4.27 C
423 24-11-2018 11:10:00 4.7 C 97 % 4.27 C
424 24-11-2018 11:15:00 4.8 C 97 % 4.37 C
425 24-11-2018 11:20:00 4.9 C 97 % 4.46 C
Sensor: Nr:Datum:Temp:Feuchte:Taupunkt:
Aussen-T/F 426 24-11-2018 11:25:00 5 C 97 % 4.56 C
427 24-11-2018 11:30:00 5.1 C 97 % 4.66 C
428 24-11-2018 11:35:00 5.1 C 97 % 4.66 C
429 24-11-2018 11:40:00 5.2 C 97 % 4.76 C
430 24-11-2018 11:45:00 5.3 C 97 % 4.86 C
431 24-11-2018 11:50:00 5.3 C 97 % 4.86 C
432 24-11-2018 11:55:00 5.3 C 97 % 4.86 C
433 24-11-2018 12:00:00 5.4 C 97 % 4.96 C
434 24-11-2018 12:05:00 5.4 C 97 % 4.96 C
435 24-11-2018 12:10:00 5.6 C 97 % 5.16 C
436 24-11-2018 12:15:00 5.7 C 97 % 5.26 C
437 24-11-2018 12:20:00 5.7 C 97 % 5.26 C
438 24-11-2018 12:25:00 5.8 C 97 % 5.36 C
439 24-11-2018 12:30:00 5.9 C 97 % 5.46 C
440 24-11-2018 12:35:00 5.9 C 97 % 5.46 C
441 24-11-2018 12:40:00 6 C 97 % 5.56 C
442 24-11-2018 12:45:00 6 C 97 % 5.56 C
443 24-11-2018 12:50:00 6 C 97 % 5.56 C
444 24-11-2018 12:55:00 6 C 97 % 5.56 C
445 24-11-2018 13:00:00 6 C 97 % 5.56 C
446 24-11-2018 13:05:00 6.1 C 97 % 5.66 C
447 24-11-2018 13:10:00 6.1 C 97 % 5.66 C
448 24-11-2018 13:15:00 6.1 C 97 % 5.66 C
449 24-11-2018 13:20:00 6.2 C 97 % 5.76 C
450 24-11-2018 13:25:00 6.3 C 97 % 5.86 C
Sensor: Nr:Datum:Temp:Feuchte:Taupunkt:
Aussen-T/F 451 24-11-2018 13:30:00 6.4 C 97 % 5.96 C
452 24-11-2018 13:35:00 6.6 C 97 % 6.16 C
453 24-11-2018 13:40:00 6.6 C 97 % 6.16 C
454 24-11-2018 13:45:00 6.7 C 97 % 6.26 C
455 24-11-2018 13:50:00 6.7 C 97 % 6.26 C
456 24-11-2018 13:55:00 6.8 C 97 % 6.36 C
457 24-11-2018 14:00:00 6.8 C 96 % 6.21 C
458 24-11-2018 14:05:00 6.8 C 96 % 6.21 C
459 24-11-2018 14:10:00 6.9 C 96 % 6.31 C
460 24-11-2018 14:15:00 6.9 C 97 % 6.46 C
461 24-11-2018 14:20:00 7 C 97 % 6.56 C
462 24-11-2018 14:25:00 7.1 C 97 % 6.66 C
463 24-11-2018 14:30:00 7.1 C 97 % 6.66 C
464 24-11-2018 14:35:00 7.1 C 97 % 6.66 C
465 24-11-2018 14:40:00 7.2 C 96 % 6.61 C
466 24-11-2018 14:45:00 7.2 C 96 % 6.61 C
467 24-11-2018 14:50:00 7.2 C 96 % 6.61 C
468 24-11-2018 14:55:00 7.3 C 96 % 6.71 C
469 24-11-2018 15:00:00 7.3 C 96 % 6.71 C
470 24-11-2018 15:05:00 7.3 C 97 % 6.86 C
471 24-11-2018 15:10:00 7.3 C 97 % 6.86 C
472 24-11-2018 15:15:00 7.4 C 97 % 6.96 C
473 24-11-2018 15:20:00 7.4 C 97 % 6.96 C
474 24-11-2018 15:25:00 7.4 C 97 % 6.96 C
475 24-11-2018 15:30:00 7.4 C 97 % 6.96 C
Sensor: Nr:Datum:Temp:Feuchte:Taupunkt:
Aussen-T/F 476 24-11-2018 15:35:00 7.4 C 97 % 6.96 C
477 24-11-2018 15:40:00 7.5 C 97 % 7.06 C
478 24-11-2018 15:45:00 7.4 C 97 % 6.96 C
479 24-11-2018 15:50:00 7.4 C 96 % 6.8 C
480 24-11-2018 15:55:00 7.4 C 96 % 6.8 C
481 24-11-2018 16:00:00 7.4 C 96 % 6.8 C
482 24-11-2018 16:05:00 7.4 C 96 % 6.8 C
483 24-11-2018 16:10:00 7.3 C 96 % 6.71 C
484 24-11-2018 16:15:00 7.3 C 96 % 6.71 C
485 24-11-2018 16:20:00 7.3 C 96 % 6.71 C
486 24-11-2018 16:25:00 7.2 C 96 % 6.61 C
487 24-11-2018 16:30:00 7.2 C 96 % 6.61 C
488 24-11-2018 16:35:00 7.2 C 96 % 6.61 C
489 24-11-2018 16:40:00 7.2 C 96 % 6.61 C
490 24-11-2018 16:45:00 7.3 C 96 % 6.71 C
491 24-11-2018 16:50:00 7.2 C 96 % 6.61 C
492 24-11-2018 16:55:00 7.2 C 96 % 6.61 C
493 24-11-2018 17:00:00 7.2 C 96 % 6.61 C
494 24-11-2018 17:05:00 7.2 C 96 % 6.61 C
495 24-11-2018 17:10:00 7.2 C 96 % 6.61 C
496 24-11-2018 17:15:00 7.2 C 96 % 6.61 C
497 24-11-2018 17:20:00 7.2 C 96 % 6.61 C
498 24-11-2018 17:25:00 7.2 C 96 % 6.61 C
499 24-11-2018 17:30:00 7.2 C 96 % 6.61 C
500 24-11-2018 17:35:00 7.2 C 96 % 6.61 C
Sensor: Nr:Datum:Temp:Feuchte:Taupunkt:
Aussen-T/F 501 24-11-2018 17:40:00 7.2 C 96 % 6.61 C
502 24-11-2018 17:45:00 7.2 C 96 % 6.61 C
503 24-11-2018 17:50:00 7.2 C 96 % 6.61 C
504 24-11-2018 17:55:00 7.2 C 96 % 6.61 C
505 24-11-2018 18:00:00 7.2 C 96 % 6.61 C
506 24-11-2018 18:05:00 7.2 C 96 % 6.61 C
507 24-11-2018 18:10:00 7.1 C 96 % 6.51 C
508 24-11-2018 18:15:00 7.2 C 96 % 6.61 C
509 24-11-2018 18:20:00 7.2 C 96 % 6.61 C
510 24-11-2018 18:25:00 7.1 C 96 % 6.51 C
511 24-11-2018 18:30:00 7.1 C 96 % 6.51 C
512 24-11-2018 18:35:00 6.9 C 96 % 6.31 C
513 24-11-2018 18:40:00 6.8 C 96 % 6.21 C
514 24-11-2018 18:45:00 6.7 C 96 % 6.11 C
515 24-11-2018 18:50:00 6.5 C 96 % 5.91 C
516 24-11-2018 18:55:00 6.4 C 95 % 5.66 C
517 24-11-2018 19:00:00 6.2 C 96 % 5.61 C
518 24-11-2018 19:05:00 6.1 C 95 % 5.36 C
519 24-11-2018 19:10:00 5.9 C 95 % 5.16 C
520 24-11-2018 19:15:00 5.8 C 96 % 5.21 C
521 24-11-2018 19:20:00 5.8 C 96 % 5.21 C
522 24-11-2018 19:25:00 5.9 C 96 % 5.31 C
523 24-11-2018 19:30:00 5.9 C 96 % 5.31 C
524 24-11-2018 19:35:00 5.9 C 96 % 5.31 C
525 24-11-2018 19:40:00 5.8 C 96 % 5.21 C
Sensor: Nr:Datum:Temp:Feuchte:Taupunkt:
Aussen-T/F 526 24-11-2018 19:45:00 5.8 C 96 % 5.21 C
527 24-11-2018 19:50:00 5.9 C 96 % 5.31 C
528 24-11-2018 19:55:00 5.9 C 96 % 5.31 C
529 24-11-2018 20:00:00 6 C 96 % 5.41 C
530 24-11-2018 20:05:00 6.1 C 97 % 5.66 C
531 24-11-2018 20:10:00 6.1 C 97 % 5.66 C
532 24-11-2018 20:15:00 6.1 C 97 % 5.66 C
533 24-11-2018 20:20:00 6.2 C 96 % 5.61 C
534 24-11-2018 20:25:00 6.2 C 96 % 5.61 C
535 24-11-2018 20:30:00 6.2 C 97 % 5.76 C
536 24-11-2018 20:35:00 6.1 C 96 % 5.51 C
537 24-11-2018 20:40:00 6.1 C 96 % 5.51 C
538 24-11-2018 20:45:00 6.1 C 96 % 5.51 C
539 24-11-2018 20:50:00 6.1 C 96 % 5.51 C
540 24-11-2018 20:55:00 6 C 96 % 5.41 C
541 24-11-2018 21:00:00 6.1 C 97 % 5.66 C
542 24-11-2018 21:05:00 6.1 C 97 % 5.66 C
543 24-11-2018 21:10:00 6.1 C 97 % 5.66 C
544 24-11-2018 21:15:00 6.1 C 97 % 5.66 C
545 24-11-2018 21:20:00 6.1 C 97 % 5.66 C
546 24-11-2018 21:25:00 6.1 C 97 % 5.66 C
547 24-11-2018 21:30:00 6.2 C 97 % 5.76 C
548 24-11-2018 21:35:00 6.2 C 97 % 5.76 C
549 24-11-2018 21:40:00 6.1 C 97 % 5.66 C
550 24-11-2018 21:45:00 6 C 96 % 5.41 C
Sensor: Nr:Datum:Temp:Feuchte:Taupunkt:
Aussen-T/F 551 24-11-2018 21:50:00 5.8 C 96 % 5.21 C
552 24-11-2018 21:55:00 5.7 C 96 % 5.11 C
553 24-11-2018 22:00:00 5.7 C 96 % 5.11 C
554 24-11-2018 22:05:00 5.6 C 96 % 5.01 C
555 24-11-2018 22:10:00 5.5 C 96 % 4.91 C
556 24-11-2018 22:15:00 5.5 C 96 % 4.91 C
557 24-11-2018 22:20:00 5.5 C 96 % 4.91 C
558 24-11-2018 22:25:00 5.6 C 96 % 5.01 C
559 24-11-2018 22:30:00 5.6 C 96 % 5.01 C
560 24-11-2018 22:35:00 5.4 C 96 % 4.81 C
561 24-11-2018 22:40:00 5.3 C 96 % 4.72 C
562 24-11-2018 22:45:00 5.2 C 96 % 4.62 C
563 24-11-2018 22:50:00 5.2 C 96 % 4.62 C
564 24-11-2018 22:55:00 5.3 C 96 % 4.72 C
565 24-11-2018 23:00:00 5.3 C 96 % 4.72 C
566 24-11-2018 23:05:00 5.2 C 96 % 4.62 C
567 24-11-2018 23:10:00 5.2 C 96 % 4.62 C
568 24-11-2018 23:15:00 5.2 C 96 % 4.62 C
569 24-11-2018 23:20:00 5.2 C 96 % 4.62 C
570 24-11-2018 23:25:00 5.3 C 97 % 4.86 C
571 24-11-2018 23:30:00 5.4 C 97 % 4.96 C
572 24-11-2018 23:35:00 5.6 C 97 % 5.16 C
573 24-11-2018 23:40:00 5.6 C 97 % 5.16 C
574 24-11-2018 23:45:00 5.7 C 97 % 5.26 C
575 24-11-2018 23:50:00 5.7 C 97 % 5.26 C
Sensor: Nr:Datum:Temp:Feuchte:Taupunkt:
Aussen-T/F 576 24-11-2018 23:55:00 5.7 C 97 % 5.26 C
577 25-11-2018 00:00:00 5.8 C 97 % 5.36 C
578 25-11-2018 00:05:00 5.8 C 97 % 5.36 C
579 25-11-2018 00:10:00 5.8 C 97 % 5.36 C
580 25-11-2018 00:15:00 5.8 C 97 % 5.36 C
581 25-11-2018 00:20:00 5.8 C 97 % 5.36 C
582 25-11-2018 00:25:00 5.8 C 97 % 5.36 C
583 25-11-2018 00:30:00 5.8 C 97 % 5.36 C
584 25-11-2018 00:35:00 5.8 C 97 % 5.36 C
585 25-11-2018 00:40:00 5.8 C 97 % 5.36 C
586 25-11-2018 00:45:00 5.8 C 97 % 5.36 C
587 25-11-2018 00:50:00 5.9 C 97 % 5.46 C
588 25-11-2018 00:55:00 5.9 C 97 % 5.46 C
589 25-11-2018 01:00:00 5.8 C 97 % 5.36 C
590 25-11-2018 01:05:00 5.8 C 97 % 5.36 C
591 25-11-2018 01:10:00 5.8 C 97 % 5.36 C
592 25-11-2018 01:15:00 5.7 C 97 % 5.26 C
593 25-11-2018 01:20:00 5.7 C 97 % 5.26 C
594 25-11-2018 01:25:00 5.7 C 97 % 5.26 C
595 25-11-2018 01:30:00 5.7 C 97 % 5.26 C
596 25-11-2018 01:35:00 5.7 C 97 % 5.26 C
597 25-11-2018 01:40:00 5.7 C 97 % 5.26 C
598 25-11-2018 01:45:00 5.8 C 97 % 5.36 C
599 25-11-2018 01:50:00 5.8 C 97 % 5.36 C
600 25-11-2018 01:55:00 5.9 C 97 % 5.46 C
Sensor: Nr:Datum:Temp:Feuchte:Taupunkt:
Aussen-T/F 601 25-11-2018 02:00:00 6 C 97 % 5.56 C
602 25-11-2018 02:05:00 6 C 97 % 5.56 C
603 25-11-2018 02:10:00 6 C 97 % 5.56 C
604 25-11-2018 02:15:00 5.9 C 97 % 5.46 C
605 25-11-2018 02:20:00 5.9 C 97 % 5.46 C
606 25-11-2018 02:25:00 5.8 C 97 % 5.36 C
607 25-11-2018 02:30:00 5.8 C 97 % 5.36 C
608 25-11-2018 02:35:00 5.7 C 97 % 5.26 C
609 25-11-2018 02:40:00 5.7 C 97 % 5.26 C
610 25-11-2018 02:45:00 5.6 C 97 % 5.16 C
611 25-11-2018 02:50:00 5.6 C 97 % 5.16 C
612 25-11-2018 02:55:00 5.6 C 97 % 5.16 C
613 25-11-2018 03:00:00 5.6 C 97 % 5.16 C
614 25-11-2018 03:05:00 5.7 C 97 % 5.26 C
615 25-11-2018 03:10:00 5.7 C 97 % 5.26 C
616 25-11-2018 03:15:00 5.7 C 97 % 5.26 C
617 25-11-2018 03:20:00 5.8 C 97 % 5.36 C
618 25-11-2018 03:25:00 5.8 C 97 % 5.36 C
619 25-11-2018 03:30:00 5.8 C 97 % 5.36 C
620 25-11-2018 03:35:00 5.8 C 97 % 5.36 C
621 25-11-2018 03:40:00 5.8 C 97 % 5.36 C
622 25-11-2018 03:45:00 5.8 C 97 % 5.36 C
623 25-11-2018 03:50:00 5.8 C 97 % 5.36 C
624 25-11-2018 03:55:00 5.8 C 97 % 5.36 C
625 25-11-2018 04:00:00 5.8 C 97 % 5.36 C
Sensor: Nr:Datum:Temp:Feuchte:Taupunkt:
Aussen-T/F 626 25-11-2018 04:05:00 5.8 C 97 % 5.36 C
627 25-11-2018 04:10:00 5.6 C 97 % 5.16 C
628 25-11-2018 04:15:00 5.5 C 97 % 5.06 C
629 25-11-2018 04:20:00 5.3 C 97 % 4.86 C
630 25-11-2018 04:25:00 5.2 C 96 % 4.62 C
631 25-11-2018 04:30:00 5.1 C 97 % 4.66 C
632 25-11-2018 04:35:00 5.1 C 97 % 4.66 C
633 25-11-2018 04:40:00 5.1 C 97 % 4.66 C
634 25-11-2018 04:45:00 5 C 97 % 4.56 C
635 25-11-2018 04:50:00 4.9 C 97 % 4.46 C
636 25-11-2018 04:55:00 4.8 C 97 % 4.37 C
637 25-11-2018 05:00:00 4.7 C 97 % 4.27 C
638 25-11-2018 05:05:00 4.6 C 96 % 4.02 C
639 25-11-2018 05:10:00 4.5 C 97 % 4.07 C
640 25-11-2018 05:15:00 4.6 C 97 % 4.17 C
641 25-11-2018 05:20:00 4.7 C 97 % 4.27 C
642 25-11-2018 05:25:00 4.6 C 97 % 4.17 C
643 25-11-2018 05:30:00 4.5 C 97 % 4.07 C
644 25-11-2018 05:35:00 4.4 C 97 % 3.97 C
645 25-11-2018 05:40:00 4.3 C 96 % 3.72 C
646 25-11-2018 05:45:00 4.2 C 97 % 3.77 C
647 25-11-2018 05:50:00 4.3 C 97 % 3.87 C
648 25-11-2018 05:55:00 4.4 C 97 % 3.97 C
649 25-11-2018 06:00:00 4.6 C 97 % 4.17 C
650 25-11-2018 06:05:00 4.6 C 97 % 4.17 C
Sensor: Nr:Datum:Temp:Feuchte:Taupunkt:
Aussen-T/F 651 25-11-2018 06:10:00 4.7 C 97 % 4.27 C
652 25-11-2018 06:15:00 4.7 C 97 % 4.27 C
653 25-11-2018 06:20:00 4.7 C 97 % 4.27 C
654 25-11-2018 06:25:00 4.7 C 97 % 4.27 C
655 25-11-2018 06:30:00 4.7 C 97 % 4.27 C
656 25-11-2018 06:35:00 4.7 C 97 % 4.27 C
657 25-11-2018 06:40:00 4.7 C 97 % 4.27 C
658 25-11-2018 06:45:00 4.7 C 97 % 4.27 C
659 25-11-2018 06:50:00 4.5 C 97 % 4.07 C
660 25-11-2018 06:55:00 4.3 C 97 % 3.87 C
661 25-11-2018 07:00:00 4.2 C 97 % 3.77 C
662 25-11-2018 07:05:00 3.9 C 96 % 3.32 C
663 25-11-2018 07:10:00 3.8 C 96 % 3.22 C
664 25-11-2018 07:15:00 3.7 C 96 % 3.12 C
665 25-11-2018 07:20:00 3.4 C 96 % 2.82 C
666 25-11-2018 07:25:00 3.3 C 96 % 2.72 C
667 25-11-2018 07:30:00 3.3 C 96 % 2.72 C
668 25-11-2018 07:35:00 3.3 C 96 % 2.72 C
669 25-11-2018 07:40:00 3.3 C 97 % 2.87 C
670 25-11-2018 07:45:00 3.2 C 97 % 2.77 C
671 25-11-2018 07:50:00 3.2 C 97 % 2.77 C
672 25-11-2018 07:55:00 3.2 C 97 % 2.77 C
673 25-11-2018 08:00:00 3.2 C 97 % 2.77 C
674 25-11-2018 08:05:00 3.3 C 97 % 2.87 C
675 25-11-2018 08:10:00 3.3 C 97 % 2.87 C
Sensor: Nr:Datum:Temp:Feuchte:Taupunkt:
Aussen-T/F 676 25-11-2018 08:15:00 3.4 C 97 % 2.97 C
677 25-11-2018 08:20:00 3.4 C 97 % 2.97 C
678 25-11-2018 08:25:00 3.4 C 97 % 2.97 C
679 25-11-2018 08:30:00 3.6 C 97 % 3.17 C
680 25-11-2018 08:35:00 3.7 C 97 % 3.27 C
681 25-11-2018 08:40:00 3.9 C 97 % 3.47 C
682 25-11-2018 08:45:00 4 C 97 % 3.57 C
683 25-11-2018 08:50:00 4 C 97 % 3.57 C
684 25-11-2018 08:55:00 4.1 C 97 % 3.67 C
685 25-11-2018 09:00:00 4.1 C 97 % 3.67 C
686 25-11-2018 09:05:00 4.1 C 97 % 3.67 C
687 25-11-2018 09:10:00 4.2 C 97 % 3.77 C
688 25-11-2018 09:15:00 4.3 C 97 % 3.87 C
689 25-11-2018 09:20:00 4.3 C 97 % 3.87 C
690 25-11-2018 09:25:00 4.4 C 97 % 3.97 C
691 25-11-2018 09:30:00 4.5 C 97 % 4.07 C
692 25-11-2018 09:35:00 4.6 C 97 % 4.17 C
693 25-11-2018 09:40:00 4.7 C 97 % 4.27 C
694 25-11-2018 09:45:00 4.8 C 97 % 4.37 C
695 25-11-2018 09:50:00 4.8 C 97 % 4.37 C
696 25-11-2018 09:55:00 4.9 C 97 % 4.46 C
697 25-11-2018 10:00:00 4.9 C 98 % 4.61 C
698 25-11-2018 10:05:00 4.9 C 97 % 4.46 C
699 25-11-2018 10:10:00 4.9 C 97 % 4.46 C
700 25-11-2018 10:15:00 4.9 C 97 % 4.46 C
Sensor: Nr:Datum:Temp:Feuchte:Taupunkt:
Aussen-T/F 701 25-11-2018 10:20:00 5 C 97 % 4.56 C
702 25-11-2018 10:25:00 5.1 C 97 % 4.66 C
703 25-11-2018 10:30:00 5.2 C 97 % 4.76 C
704 25-11-2018 10:35:00 5.3 C 98 % 5.01 C
705 25-11-2018 10:40:00 5.4 C 97 % 4.96 C
706 25-11-2018 10:45:00 5.5 C 97 % 5.06 C
707 25-11-2018 10:50:00 5.6 C 97 % 5.16 C
708 25-11-2018 10:55:00 5.7 C 98 % 5.41 C
709 25-11-2018 11:00:00 5.8 C 98 % 5.51 C
710 25-11-2018 11:05:00 5.9 C 97 % 5.46 C
711 25-11-2018 11:10:00 6 C 98 % 5.71 C
712 25-11-2018 11:15:00 6.1 C 98 % 5.81 C
713 25-11-2018 11:20:00 6.2 C 97 % 5.76 C
714 25-11-2018 11:25:00 6.3 C 98 % 6.01 C
715 25-11-2018 11:30:00 6.3 C 98 % 6.01 C
716 25-11-2018 11:35:00 6.3 C 98 % 6.01 C
717 25-11-2018 11:40:00 6.4 C 97 % 5.96 C
718 25-11-2018 11:45:00 6.4 C 97 % 5.96 C
719 25-11-2018 11:50:00 6.4 C 97 % 5.96 C
720 25-11-2018 11:55:00 6.4 C 97 % 5.96 C
721 25-11-2018 12:00:00 6.4 C 97 % 5.96 C
722 25-11-2018 12:05:00 6.4 C 97 % 5.96 C
723 25-11-2018 12:10:00 6.4 C 97 % 5.96 C
724 25-11-2018 12:15:00 6.4 C 97 % 5.96 C
725 25-11-2018 12:20:00 6.4 C 97 % 5.96 C
Sensor: Nr:Datum:Temp:Feuchte:Taupunkt:
Aussen-T/F 726 25-11-2018 12:25:00 6.5 C 97 % 6.06 C
727 25-11-2018 12:30:00 6.5 C 97 % 6.06 C
728 25-11-2018 12:35:00 6.5 C 97 % 6.06 C
729 25-11-2018 12:40:00 6.5 C 97 % 6.06 C
730 25-11-2018 12:45:00 6.6 C 97 % 6.16 C
731 25-11-2018 12:50:00 6.6 C 97 % 6.16 C
732 25-11-2018 12:55:00 6.7 C 97 % 6.26 C
733 25-11-2018 13:00:00 6.8 C 97 % 6.36 C
734 25-11-2018 13:05:00 6.8 C 97 % 6.36 C
735 25-11-2018 13:10:00 6.9 C 97 % 6.46 C
736 25-11-2018 13:15:00 7 C 96 % 6.41 C
737 25-11-2018 13:20:00 7.1 C 97 % 6.66 C
738 25-11-2018 13:25:00 7.1 C 97 % 6.66 C
739 25-11-2018 13:30:00 7.2 C 96 % 6.61 C
740 25-11-2018 13:35:00 7.3 C 96 % 6.71 C
741 25-11-2018 13:40:00 7.3 C 96 % 6.71 C
742 25-11-2018 13:45:00 7.4 C 96 % 6.8 C
743 25-11-2018 13:50:00 7.4 C 96 % 6.8 C
744 25-11-2018 13:55:00 7.4 C 95 % 6.65 C
745 25-11-2018 14:00:00 7.5 C 95 % 6.75 C
746 25-11-2018 14:05:00 7.6 C 95 % 6.85 C
747 25-11-2018 14:10:00 7.6 C 94 % 6.7 C
748 25-11-2018 14:15:00 7.6 C 94 % 6.7 C
749 25-11-2018 14:20:00 7.7 C 94 % 6.8 C
750 25-11-2018 14:25:00 7.7 C 94 % 6.8 C
Sensor: Nr:Datum:Temp:Feuchte:Taupunkt:
Aussen-T/F 751 25-11-2018 14:30:00 7.7 C 93 % 6.64 C
752 25-11-2018 14:35:00 7.8 C 93 % 6.74 C
753 25-11-2018 14:40:00 7.8 C 93 % 6.74 C
754 25-11-2018 14:45:00 7.8 C 92 % 6.58 C
755 25-11-2018 14:50:00 7.8 C 92 % 6.58 C
756 25-11-2018 14:55:00 7.9 C 92 % 6.68 C
757 25-11-2018 15:00:00 7.9 C 92 % 6.68 C
758 25-11-2018 15:05:00 7.9 C 92 % 6.68 C
759 25-11-2018 15:10:00 7.9 C 92 % 6.68 C
760 25-11-2018 15:15:00 7.9 C 92 % 6.68 C
761 25-11-2018 15:20:00 7.9 C 92 % 6.68 C
762 25-11-2018 15:25:00 7.9 C 92 % 6.68 C
763 25-11-2018 15:30:00 7.9 C 92 % 6.68 C
764 25-11-2018 15:35:00 7.9 C 92 % 6.68 C
765 25-11-2018 15:40:00 7.9 C 93 % 6.84 C
766 25-11-2018 15:45:00 7.8 C 93 % 6.74 C
767 25-11-2018 15:50:00 7.8 C 93 % 6.74 C
768 25-11-2018 15:55:00 7.8 C 93 % 6.74 C
769 25-11-2018 16:00:00 7.8 C 93 % 6.74 C
770 25-11-2018 16:05:00 7.8 C 93 % 6.74 C
771 25-11-2018 16:10:00 7.8 C 93 % 6.74 C
772 25-11-2018 16:15:00 7.7 C 93 % 6.64 C
773 25-11-2018 16:20:00 7.7 C 93 % 6.64 C
774 25-11-2018 16:25:00 7.7 C 93 % 6.64 C
775 25-11-2018 16:30:00 7.6 C 93 % 6.54 C
Sensor: Nr:Datum:Temp:Feuchte:Taupunkt:
Aussen-T/F 776 25-11-2018 16:35:00 7.6 C 93 % 6.54 C
777 25-11-2018 16:40:00 7.6 C 93 % 6.54 C
778 25-11-2018 16:45:00 7.5 C 93 % 6.44 C
779 25-11-2018 16:50:00 7.4 C 94 % 6.5 C
780 25-11-2018 16:55:00 7.4 C 94 % 6.5 C
781 25-11-2018 17:00:00 7.4 C 94 % 6.5 C
782 25-11-2018 17:05:00 7.4 C 94 % 6.5 C
783 25-11-2018 17:10:00 7.4 C 94 % 6.5 C
784 25-11-2018 17:15:00 7.3 C 94 % 6.4 C
785 25-11-2018 17:20:00 7.3 C 94 % 6.4 C
786 25-11-2018 17:25:00 7.3 C 94 % 6.4 C
787 25-11-2018 17:30:00 7.3 C 94 % 6.4 C
788 25-11-2018 17:35:00 7.2 C 94 % 6.3 C
789 25-11-2018 17:40:00 7.2 C 94 % 6.3 C
790 25-11-2018 17:45:00 7.2 C 94 % 6.3 C
791 25-11-2018 17:50:00 7.2 C 94 % 6.3 C
792 25-11-2018 17:55:00 7.2 C 94 % 6.3 C
793 25-11-2018 18:00:00 7.2 C 94 % 6.3 C
794 25-11-2018 18:05:00 7.1 C 94 % 6.2 C
795 25-11-2018 18:10:00 7 C 94 % 6.1 C
796 25-11-2018 18:15:00 6.9 C 94 % 6 C
797 25-11-2018 18:20:00 6.8 C 94 % 5.9 C
798 25-11-2018 18:25:00 6.8 C 94 % 5.9 C
799 25-11-2018 18:30:00 6.8 C 94 % 5.9 C
800 25-11-2018 18:35:00 6.8 C 94 % 5.9 C
Sensor: Nr:Datum:Temp:Feuchte:Taupunkt:
Aussen-T/F 801 25-11-2018 18:40:00 6.8 C 94 % 5.9 C
802 25-11-2018 18:45:00 6.8 C 94 % 5.9 C
803 25-11-2018 18:50:00 6.7 C 94 % 5.8 C
804 25-11-2018 18:55:00 6.7 C 94 % 5.8 C
805 25-11-2018 19:00:00 6.7 C 94 % 5.8 C
806 25-11-2018 19:05:00 6.7 C 95 % 5.96 C
807 25-11-2018 19:10:00 6.7 C 95 % 5.96 C
808 25-11-2018 19:15:00 6.7 C 95 % 5.96 C
809 25-11-2018 19:20:00 6.7 C 95 % 5.96 C
810 25-11-2018 19:25:00 6.7 C 95 % 5.96 C
811 25-11-2018 19:30:00 6.7 C 95 % 5.96 C
812 25-11-2018 19:35:00 6.7 C 95 % 5.96 C
813 25-11-2018 19:40:00 6.7 C 95 % 5.96 C
814 25-11-2018 19:45:00 6.7 C 95 % 5.96 C
815 25-11-2018 19:50:00 6.7 C 95 % 5.96 C
816 25-11-2018 19:55:00 6.7 C 95 % 5.96 C
817 25-11-2018 20:00:00 6.6 C 95 % 5.86 C
818 25-11-2018 20:05:00 6.6 C 95 % 5.86 C
819 25-11-2018 20:10:00 6.6 C 95 % 5.86 C
820 25-11-2018 20:15:00 6.6 C 95 % 5.86 C
821 25-11-2018 20:20:00 6.5 C 95 % 5.76 C
822 25-11-2018 20:25:00 6.5 C 95 % 5.76 C
823 25-11-2018 20:30:00 6.5 C 95 % 5.76 C
824 25-11-2018 20:35:00 6.5 C 95 % 5.76 C
825 25-11-2018 20:40:00 6.5 C 95 % 5.76 C
Sensor: Nr:Datum:Temp:Feuchte:Taupunkt:
Aussen-T/F 826 25-11-2018 20:45:00 6.5 C 95 % 5.76 C
827 25-11-2018 20:50:00 6.5 C 95 % 5.76 C
828 25-11-2018 20:55:00 6.5 C 95 % 5.76 C
829 25-11-2018 21:00:00 6.4 C 95 % 5.66 C
830 25-11-2018 21:05:00 6.4 C 95 % 5.66 C
831 25-11-2018 21:10:00 6.4 C 95 % 5.66 C
832 25-11-2018 21:15:00 6.4 C 95 % 5.66 C
833 25-11-2018 21:20:00 6.4 C 95 % 5.66 C
834 25-11-2018 21:25:00 6.4 C 95 % 5.66 C
835 25-11-2018 21:30:00 6.4 C 95 % 5.66 C
836 25-11-2018 21:35:00 6.4 C 95 % 5.66 C
837 25-11-2018 21:40:00 6.4 C 95 % 5.66 C
838 25-11-2018 21:45:00 6.4 C 96 % 5.81 C
839 25-11-2018 21:50:00 6.5 C 96 % 5.91 C
840 25-11-2018 21:55:00 6.4 C 96 % 5.81 C
841 25-11-2018 22:00:00 6.4 C 96 % 5.81 C
842 25-11-2018 22:05:00 6.4 C 96 % 5.81 C
843 25-11-2018 22:10:00 6.4 C 96 % 5.81 C
844 25-11-2018 22:15:00 6.3 C 96 % 5.71 C
845 25-11-2018 22:20:00 6.3 C 95 % 5.56 C
846 25-11-2018 22:25:00 6.3 C 95 % 5.56 C
847 25-11-2018 22:30:00 6.3 C 95 % 5.56 C
848 25-11-2018 22:35:00 6.2 C 96 % 5.61 C
849 25-11-2018 22:40:00 6.2 C 96 % 5.61 C
850 25-11-2018 22:45:00 6.2 C 96 % 5.61 C
Sensor: Nr:Datum:Temp:Feuchte:Taupunkt:
Aussen-T/F 851 25-11-2018 22:50:00 6.2 C 96 % 5.61 C
852 25-11-2018 22:55:00 6.2 C 96 % 5.61 C
853 25-11-2018 23:00:00 6.2 C 96 % 5.61 C
854 25-11-2018 23:05:00 6.2 C 96 % 5.61 C
855 25-11-2018 23:10:00 6.2 C 96 % 5.61 C
856 25-11-2018 23:15:00 6.2 C 96 % 5.61 C
857 25-11-2018 23:20:00 6.2 C 96 % 5.61 C
858 25-11-2018 23:25:00 6.3 C 96 % 5.71 C
859 25-11-2018 23:30:00 6.3 C 96 % 5.71 C
860 25-11-2018 23:35:00 6.3 C 96 % 5.71 C
861 25-11-2018 23:40:00 6.4 C 96 % 5.81 C
862 25-11-2018 23:45:00 6.4 C 96 % 5.81 C
863 25-11-2018 23:50:00 6.4 C 96 % 5.81 C
864 25-11-2018 23:55:00 6.4 C 96 % 5.81 C
865 26-11-2018 00:00:00 6.4 C 96 % 5.81 C
866 26-11-2018 00:05:00 6.4 C 96 % 5.81 C
867 26-11-2018 00:10:00 6.4 C 96 % 5.81 C
868 26-11-2018 00:15:00 6.3 C 96 % 5.71 C
869 26-11-2018 00:20:00 6.3 C 96 % 5.71 C
870 26-11-2018 00:25:00 6.3 C 96 % 5.71 C
871 26-11-2018 00:30:00 6.3 C 96 % 5.71 C
872 26-11-2018 00:35:00 6.3 C 96 % 5.71 C
873 26-11-2018 00:40:00 6.3 C 96 % 5.71 C
874 26-11-2018 00:45:00 6.4 C 96 % 5.81 C
875 26-11-2018 00:50:00 6.4 C 96 % 5.81 C
Sensor: Nr:Datum:Temp:Feuchte:Taupunkt:
Aussen-T/F 876 26-11-2018 00:55:00 6.4 C 96 % 5.81 C
877 26-11-2018 01:00:00 6.4 C 96 % 5.81 C
878 26-11-2018 01:05:00 6.4 C 96 % 5.81 C
879 26-11-2018 01:10:00 6.4 C 96 % 5.81 C
880 26-11-2018 01:15:00 6.4 C 96 % 5.81 C
881 26-11-2018 01:20:00 6.5 C 96 % 5.91 C
882 26-11-2018 01:25:00 6.5 C 96 % 5.91 C
883 26-11-2018 01:30:00 6.5 C 96 % 5.91 C
884 26-11-2018 01:35:00 6.4 C 96 % 5.81 C
885 26-11-2018 01:40:00 6.4 C 96 % 5.81 C
886 26-11-2018 01:45:00 6.4 C 96 % 5.81 C
887 26-11-2018 01:50:00 6.4 C 96 % 5.81 C
888 26-11-2018 01:55:00 6.4 C 96 % 5.81 C
889 26-11-2018 02:00:00 6.4 C 96 % 5.81 C
890 26-11-2018 02:05:00 6.4 C 96 % 5.81 C
891 26-11-2018 02:10:00 6.4 C 96 % 5.81 C
892 26-11-2018 02:15:00 6.4 C 96 % 5.81 C
893 26-11-2018 02:20:00 6.4 C 96 % 5.81 C
894 26-11-2018 02:25:00 6.4 C 96 % 5.81 C
895 26-11-2018 02:30:00 6.4 C 96 % 5.81 C
896 26-11-2018 02:35:00 6.4 C 96 % 5.81 C
897 26-11-2018 02:40:00 6.4 C 96 % 5.81 C
898 26-11-2018 02:45:00 6.4 C 95 % 5.66 C
899 26-11-2018 02:50:00 6.4 C 95 % 5.66 C
900 26-11-2018 02:55:00 6.4 C 95 % 5.66 C
Sensor: Nr:Datum:Temp:Feuchte:Taupunkt:
Aussen-T/F 901 26-11-2018 03:00:00 6.4 C 96 % 5.81 C
902 26-11-2018 03:05:00 6.4 C 95 % 5.66 C
903 26-11-2018 03:10:00 6.4 C 95 % 5.66 C
904 26-11-2018 03:15:00 6.4 C 95 % 5.66 C
905 26-11-2018 03:20:00 6.4 C 95 % 5.66 C
906 26-11-2018 03:25:00 6.4 C 95 % 5.66 C
907 26-11-2018 03:30:00 6.4 C 95 % 5.66 C
908 26-11-2018 03:35:00 6.4 C 95 % 5.66 C
909 26-11-2018 03:40:00 6.4 C 94 % 5.51 C
910 26-11-2018 03:45:00 6.4 C 94 % 5.51 C
911 26-11-2018 03:50:00 6.4 C 94 % 5.51 C
912 26-11-2018 03:55:00 6.4 C 94 % 5.51 C
913 26-11-2018 04:00:00 6.4 C 94 % 5.51 C
914 26-11-2018 04:05:00 6.4 C 94 % 5.51 C
915 26-11-2018 04:10:00 6.4 C 94 % 5.51 C
916 26-11-2018 04:15:00 6.4 C 94 % 5.51 C
917 26-11-2018 04:20:00 6.4 C 94 % 5.51 C
918 26-11-2018 04:25:00 6.4 C 94 % 5.51 C
919 26-11-2018 04:30:00 6.4 C 93 % 5.35 C
920 26-11-2018 04:35:00 6.4 C 93 % 5.35 C
921 26-11-2018 04:40:00 6.4 C 93 % 5.35 C
922 26-11-2018 04:45:00 6.5 C 93 % 5.45 C
923 26-11-2018 04:50:00 6.4 C 93 % 5.35 C
924 26-11-2018 04:55:00 6.4 C 93 % 5.35 C
925 26-11-2018 05:00:00 6.5 C 93 % 5.45 C
Sensor: Nr:Datum:Temp:Feuchte:Taupunkt:
Aussen-T/F 926 26-11-2018 05:05:00 6.4 C 93 % 5.35 C
927 26-11-2018 05:10:00 6.4 C 93 % 5.35 C
928 26-11-2018 05:15:00 6.4 C 93 % 5.35 C
929 26-11-2018 05:20:00 6.4 C 93 % 5.35 C
930 26-11-2018 05:25:00 6.4 C 93 % 5.35 C
931 26-11-2018 05:30:00 6.4 C 93 % 5.35 C
932 26-11-2018 05:35:00 6.4 C 93 % 5.35 C
933 26-11-2018 05:40:00 6.4 C 93 % 5.35 C
934 26-11-2018 05:45:00 6.3 C 92 % 5.1 C
935 26-11-2018 05:50:00 6.3 C 93 % 5.25 C
936 26-11-2018 05:55:00 6.3 C 93 % 5.25 C
937 26-11-2018 06:00:00 6.3 C 93 % 5.25 C
938 26-11-2018 06:05:00 6.3 C 92 % 5.1 C
939 26-11-2018 06:10:00 6.3 C 92 % 5.1 C
940 26-11-2018 06:15:00 6.3 C 92 % 5.1 C
941 26-11-2018 06:20:00 6.3 C 92 % 5.1 C
942 26-11-2018 06:25:00 6.3 C 92 % 5.1 C
943 26-11-2018 06:30:00 6.3 C 92 % 5.1 C
944 26-11-2018 06:35:00 6.2 C 92 % 5 C
945 26-11-2018 06:40:00 6.2 C 92 % 5 C
946 26-11-2018 06:45:00 6.2 C 92 % 5 C
947 26-11-2018 06:50:00 6.1 C 92 % 4.9 C
948 26-11-2018 06:55:00 6.1 C 92 % 4.9 C
949 26-11-2018 07:00:00 6.1 C 92 % 4.9 C
950 26-11-2018 07:05:00 6 C 92 % 4.8 C
Sensor: Nr:Datum:Temp:Feuchte:Taupunkt:
Aussen-T/F 951 26-11-2018 07:10:00 6 C 92 % 4.8 C
952 26-11-2018 07:15:00 6 C 92 % 4.8 C
953 26-11-2018 07:20:00 5.9 C 92 % 4.7 C
954 26-11-2018 07:25:00 5.9 C 92 % 4.7 C
955 26-11-2018 07:30:00 5.9 C 92 % 4.7 C
956 26-11-2018 07:35:00 5.9 C 93 % 4.86 C
957 26-11-2018 07:40:00 5.8 C 92 % 4.6 C
958 26-11-2018 07:45:00 5.8 C 93 % 4.76 C
959 26-11-2018 07:50:00 5.8 C 93 % 4.76 C
960 26-11-2018 07:55:00 5.8 C 93 % 4.76 C
961 26-11-2018 08:00:00 5.8 C 93 % 4.76 C
962 26-11-2018 08:05:00 5.8 C 93 % 4.76 C
963 26-11-2018 08:10:00 5.9 C 93 % 4.86 C
964 26-11-2018 08:15:00 5.9 C 93 % 4.86 C
965 26-11-2018 08:20:00 5.9 C 93 % 4.86 C
966 26-11-2018 08:25:00 5.9 C 93 % 4.86 C
967 26-11-2018 08:30:00 5.9 C 93 % 4.86 C
968 26-11-2018 08:35:00 5.8 C 93 % 4.76 C
969 26-11-2018 08:40:00 5.8 C 93 % 4.76 C
970 26-11-2018 08:45:00 5.9 C 93 % 4.86 C
971 26-11-2018 08:50:00 5.9 C 94 % 5.01 C
972 26-11-2018 08:55:00 5.9 C 94 % 5.01 C
973 26-11-2018 09:00:00 5.9 C 94 % 5.01 C
974 26-11-2018 09:05:00 6 C 94 % 5.11 C
975 26-11-2018 09:10:00 6.1 C 93 % 5.06 C
Sensor: Nr:Datum:Temp:Feuchte:Taupunkt:
Aussen-T/F 976 26-11-2018 09:15:00 6.1 C 93 % 5.06 C
977 26-11-2018 09:20:00 6.2 C 93 % 5.15 C
978 26-11-2018 09:25:00 6.2 C 93 % 5.15 C
979 26-11-2018 09:30:00 6.3 C 92 % 5.1 C
980 26-11-2018 09:35:00 6.4 C 92 % 5.2 C
981 26-11-2018 09:40:00 6.4 C 92 % 5.2 C
982 26-11-2018 09:45:00 6.5 C 92 % 5.3 C
983 26-11-2018 09:50:00 6.6 C 92 % 5.4 C
984 26-11-2018 09:55:00 6.6 C 92 % 5.4 C
985 26-11-2018 10:00:00 6.7 C 92 % 5.49 C
986 26-11-2018 10:05:00 6.7 C 91 % 5.34 C
987 26-11-2018 10:10:00 6.7 C 91 % 5.34 C
988 26-11-2018 10:15:00 6.7 C 91 % 5.34 C
989 26-11-2018 10:20:00 6.7 C 91 % 5.34 C
990 26-11-2018 10:25:00 6.8 C 91 % 5.44 C
991 26-11-2018 10:30:00 6.8 C 90 % 5.28 C
992 26-11-2018 10:35:00 6.9 C 89 % 5.22 C
993 26-11-2018 10:40:00 7 C 89 % 5.31 C
994 26-11-2018 10:45:00 7.1 C 89 % 5.41 C
995 26-11-2018 10:50:00 7.2 C 88 % 5.35 C
996 26-11-2018 10:55:00 7.3 C 88 % 5.45 C
997 26-11-2018 11:00:00 7.3 C 87 % 5.28 C
998 26-11-2018 11:05:00 7.4 C 86 % 5.22 C
999 26-11-2018 11:10:00 7.4 C 86 % 5.22 C
1000 26-11-2018 11:15:00 7.5 C 85 % 5.15 C
Sensor: Nr:Datum:Temp:Feuchte:Taupunkt:
Aussen-T/F 1001 26-11-2018 11:20:00 7.6 C 85 % 5.24 C
1002 26-11-2018 11:25:00 7.6 C 85 % 5.24 C
1003 26-11-2018 11:30:00 7.6 C 84 % 5.07 C
1004 26-11-2018 11:35:00 7.6 C 85 % 5.24 C
1005 26-11-2018 11:40:00 7.7 C 84 % 5.17 C
1006 26-11-2018 11:45:00 7.7 C 84 % 5.17 C
1007 26-11-2018 11:50:00 7.7 C 83 % 5 C
1008 26-11-2018 11:55:00 7.7 C 83 % 5 C
1009 26-11-2018 12:00:00 7.8 C 82 % 4.92 C
1010 26-11-2018 12:05:00 7.8 C 83 % 5.1 C
1011 26-11-2018 12:10:00 7.9 C 82 % 5.02 C
1012 26-11-2018 12:15:00 7.9 C 82 % 5.02 C
1013 26-11-2018 12:20:00 7.9 C 81 % 4.85 C
1014 26-11-2018 12:25:00 7.9 C 81 % 4.85 C
1015 26-11-2018 12:30:00 8 C 80 % 4.77 C
1016 26-11-2018 12:35:00 8 C 80 % 4.77 C
1017 26-11-2018 12:40:00 8.1 C 80 % 4.86 C
1018 26-11-2018 12:45:00 8.1 C 80 % 4.86 C
1019 26-11-2018 12:50:00 8.1 C 80 % 4.86 C
1020 26-11-2018 12:55:00 8.1 C 79 % 4.68 C
1021 26-11-2018 13:00:00 8.1 C 79 % 4.68 C
1022 26-11-2018 13:05:00 8.1 C 79 % 4.68 C
1023 26-11-2018 13:10:00 8.1 C 79 % 4.68 C
1024 26-11-2018 13:15:00 8.1 C 79 % 4.68 C
1025 26-11-2018 13:20:00 8.1 C 79 % 4.68 C
Sensor: Nr:Datum:Temp:Feuchte:Taupunkt:
Aussen-T/F 1026 26-11-2018 13:25:00 8.1 C 79 % 4.68 C
1027 26-11-2018 13:30:00 8.1 C 79 % 4.68 C
1028 26-11-2018 13:35:00 8 C 79 % 4.59 C
1029 26-11-2018 13:40:00 8 C 79 % 4.59 C
1030 26-11-2018 13:45:00 7.9 C 80 % 4.67 C
1031 26-11-2018 13:50:00 7.9 C 79 % 4.49 C
1032 26-11-2018 13:55:00 7.9 C 80 % 4.67 C
1033 26-11-2018 14:00:00 7.9 C 79 % 4.49 C
1034 26-11-2018 14:05:00 7.9 C 82 % 5.02 C
1035 26-11-2018 14:10:00 7.9 C 81 % 4.85 C
1036 26-11-2018 14:15:00 7.9 C 81 % 4.85 C
1037 26-11-2018 14:20:00 7.9 C 82 % 5.02 C
1038 26-11-2018 14:25:00 7.9 C 81 % 4.85 C
1039 26-11-2018 14:30:00 7.9 C 82 % 5.02 C
1040 26-11-2018 14:35:00 7.9 C 83 % 5.2 C
1041 26-11-2018 14:40:00 7.8 C 82 % 4.92 C
1042 26-11-2018 14:45:00 7.8 C 81 % 4.75 C
1043 26-11-2018 14:50:00 7.8 C 80 % 4.57 C
1044 26-11-2018 14:55:00 7.8 C 79 % 4.39 C
1045 26-11-2018 15:00:00 7.8 C 79 % 4.39 C
1046 26-11-2018 15:05:00 7.9 C 78 % 4.31 C
1047 26-11-2018 15:10:00 7.9 C 79 % 4.49 C
1048 26-11-2018 15:15:00 7.9 C 79 % 4.49 C
1049 26-11-2018 15:20:00 7.9 C 78 % 4.31 C
1050 26-11-2018 15:25:00 7.9 C 78 % 4.31 C
Sensor: Nr:Datum:Temp:Feuchte:Taupunkt:
Aussen-T/F 1051 26-11-2018 15:30:00 7.9 C 78 % 4.31 C
1052 26-11-2018 15:35:00 7.9 C 78 % 4.31 C
1053 26-11-2018 15:40:00 7.9 C 78 % 4.31 C
1054 26-11-2018 15:45:00 7.8 C 78 % 4.21 C
1055 26-11-2018 15:50:00 7.8 C 78 % 4.21 C
1056 26-11-2018 15:55:00 7.8 C 79 % 4.39 C
1057 26-11-2018 16:00:00 7.7 C 79 % 4.3 C
1058 26-11-2018 16:05:00 7.7 C 79 % 4.3 C
1059 26-11-2018 16:10:00 7.7 C 80 % 4.47 C
1060 26-11-2018 16:15:00 7.6 C 81 % 4.55 C
1061 26-11-2018 16:20:00 7.5 C 80 % 4.28 C
1062 26-11-2018 16:25:00 7.4 C 81 % 4.36 C
1063 26-11-2018 16:30:00 7.3 C 82 % 4.44 C
1064 26-11-2018 16:35:00 7.3 C 82 % 4.44 C
1065 26-11-2018 16:40:00 7.3 C 82 % 4.44 C
1066 26-11-2018 16:45:00 7.2 C 82 % 4.34 C
1067 26-11-2018 16:50:00 7.1 C 81 % 4.07 C
1068 26-11-2018 16:55:00 7.1 C 82 % 4.24 C
1069 26-11-2018 17:00:00 7.1 C 81 % 4.07 C
1070 26-11-2018 17:05:00 7.1 C 81 % 4.07 C
1071 26-11-2018 17:10:00 7.1 C 82 % 4.24 C
1072 26-11-2018 17:15:00 7 C 82 % 4.14 C
1073 26-11-2018 17:20:00 6.9 C 83 % 4.22 C
1074 26-11-2018 17:25:00 6.9 C 82 % 4.05 C
1075 26-11-2018 17:30:00 6.9 C 82 % 4.05 C
Sensor: Nr:Datum:Temp:Feuchte:Taupunkt:
Aussen-T/F 1076 26-11-2018 17:35:00 6.8 C 82 % 3.95 C
1077 26-11-2018 17:40:00 6.8 C 83 % 4.12 C
1078 26-11-2018 17:45:00 6.8 C 84 % 4.29 C
1079 26-11-2018 17:50:00 6.7 C 84 % 4.19 C
1080 26-11-2018 17:55:00 6.7 C 85 % 4.36 C
1081 26-11-2018 18:00:00 6.6 C 85 % 4.26 C
1082 26-11-2018 18:05:00 6.5 C 85 % 4.17 C
1083 26-11-2018 18:10:00 6.4 C 86 % 4.23 C
1084 26-11-2018 18:15:00 6.3 C 86 % 4.14 C
1085 26-11-2018 18:20:00 6.3 C 86 % 4.14 C
1086 26-11-2018 18:25:00 6.3 C 86 % 4.14 C
1087 26-11-2018 18:30:00 6.2 C 86 % 4.04 C
1088 26-11-2018 18:35:00 6.2 C 87 % 4.2 C
1089 26-11-2018 18:40:00 6.2 C 87 % 4.2 C
1090 26-11-2018 18:45:00 6.2 C 88 % 4.36 C
1091 26-11-2018 18:50:00 6.2 C 87 % 4.2 C
1092 26-11-2018 18:55:00 6.2 C 87 % 4.2 C
1093 26-11-2018 19:00:00 6.1 C 87 % 4.1 C
1094 26-11-2018 19:05:00 6.1 C 87 % 4.1 C
1095 26-11-2018 19:10:00 6.2 C 87 % 4.2 C
1096 26-11-2018 19:15:00 6.2 C 87 % 4.2 C
1097 26-11-2018 19:20:00 6.2 C 87 % 4.2 C
1098 26-11-2018 19:25:00 6.2 C 87 % 4.2 C
1099 26-11-2018 19:30:00 6.2 C 86 % 4.04 C
1100 26-11-2018 19:35:00 6.2 C 86 % 4.04 C
Sensor: Nr:Datum:Temp:Feuchte:Taupunkt:
Aussen-T/F 1101 26-11-2018 19:40:00 6.3 C 86 % 4.14 C
1102 26-11-2018 19:45:00 6.3 C 86 % 4.14 C
1103 26-11-2018 19:50:00 6.3 C 86 % 4.14 C
1104 26-11-2018 19:55:00 6.3 C 86 % 4.14 C
1105 26-11-2018 20:00:00 6.2 C 86 % 4.04 C
1106 26-11-2018 20:05:00 6.2 C 86 % 4.04 C
1107 26-11-2018 20:10:00 6.2 C 86 % 4.04 C
1108 26-11-2018 20:15:00 6.2 C 86 % 4.04 C
1109 26-11-2018 20:20:00 6.1 C 86 % 3.94 C
1110 26-11-2018 20:25:00 6.1 C 86 % 3.94 C
1111 26-11-2018 20:30:00 6.1 C 87 % 4.1 C
1112 26-11-2018 20:35:00 6.1 C 87 % 4.1 C
1113 26-11-2018 20:40:00 6.1 C 87 % 4.1 C
1114 26-11-2018 20:45:00 6.1 C 87 % 4.1 C
1115 26-11-2018 20:50:00 6.1 C 87 % 4.1 C
1116 26-11-2018 20:55:00 6.1 C 87 % 4.1 C
1117 26-11-2018 21:00:00 6.1 C 87 % 4.1 C
1118 26-11-2018 21:05:00 6.1 C 87 % 4.1 C
1119 26-11-2018 21:10:00 6.1 C 87 % 4.1 C
1120 26-11-2018 21:15:00 6 C 86 % 3.84 C
1121 26-11-2018 21:20:00 6 C 86 % 3.84 C
1122 26-11-2018 21:25:00 6 C 86 % 3.84 C
1123 26-11-2018 21:30:00 6 C 85 % 3.67 C
1124 26-11-2018 21:35:00 6 C 86 % 3.84 C
1125 26-11-2018 21:40:00 6.1 C 86 % 3.94 C
Sensor: Nr:Datum:Temp:Feuchte:Taupunkt:
Aussen-T/F 1126 26-11-2018 21:45:00 6 C 86 % 3.84 C
1127 26-11-2018 21:50:00 6 C 86 % 3.84 C
1128 26-11-2018 21:55:00 6 C 86 % 3.84 C
1129 26-11-2018 22:00:00 5.9 C 85 % 3.58 C
1130 26-11-2018 22:05:00 6 C 85 % 3.67 C
1131 26-11-2018 22:10:00 6 C 84 % 3.51 C
1132 26-11-2018 22:15:00 6.1 C 84 % 3.61 C
1133 26-11-2018 22:20:00 6.1 C 83 % 3.44 C
1134 26-11-2018 22:25:00 6.2 C 83 % 3.53 C
1135 26-11-2018 22:30:00 6.2 C 83 % 3.53 C
1136 26-11-2018 22:35:00 6.1 C 83 % 3.44 C
1137 26-11-2018 22:40:00 6.2 C 83 % 3.53 C
1138 26-11-2018 22:45:00 6.1 C 83 % 3.44 C
1139 26-11-2018 22:50:00 6.1 C 84 % 3.61 C
1140 26-11-2018 22:55:00 6.1 C 83 % 3.44 C
1141 26-11-2018 23:00:00 6 C 84 % 3.51 C
1142 26-11-2018 23:05:00 6 C 84 % 3.51 C
1143 26-11-2018 23:10:00 5.9 C 84 % 3.41 C
1144 26-11-2018 23:15:00 5.9 C 84 % 3.41 C
1145 26-11-2018 23:20:00 5.8 C 84 % 3.31 C
1146 26-11-2018 23:25:00 5.8 C 84 % 3.31 C
1147 26-11-2018 23:30:00 5.8 C 84 % 3.31 C
1148 26-11-2018 23:35:00 5.8 C 83 % 3.14 C
1149 26-11-2018 23:40:00 5.8 C 83 % 3.14 C
1150 26-11-2018 23:45:00 5.7 C 83 % 3.04 C
Sensor: Nr:Datum:Temp:Feuchte:Taupunkt:
Aussen-T/F 1151 26-11-2018 23:50:00 5.7 C 83 % 3.04 C
1152 26-11-2018 23:55:00 5.7 C 83 % 3.04 C
1153 27-11-2018 00:00:00 5.7 C 84 % 3.21 C
1154 27-11-2018 00:05:00 5.6 C 82 % 2.78 C
1155 27-11-2018 00:10:00 5.6 C 83 % 2.95 C
1156 27-11-2018 00:15:00 5.6 C 83 % 2.95 C
1157 27-11-2018 00:20:00 5.6 C 83 % 2.95 C
1158 27-11-2018 00:25:00 5.6 C 82 % 2.78 C
1159 27-11-2018 00:30:00 5.6 C 82 % 2.78 C
1160 27-11-2018 00:35:00 5.5 C 83 % 2.85 C
1161 27-11-2018 00:40:00 5.5 C 83 % 2.85 C
1162 27-11-2018 00:45:00 5.5 C 84 % 3.02 C
1163 27-11-2018 00:50:00 5.5 C 83 % 2.85 C
1164 27-11-2018 00:55:00 5.4 C 83 % 2.75 C
1165 27-11-2018 01:00:00 5.4 C 84 % 2.92 C
1166 27-11-2018 01:05:00 5.4 C 84 % 2.92 C
1167 27-11-2018 01:10:00 5.4 C 84 % 2.92 C
1168 27-11-2018 01:15:00 5.4 C 84 % 2.92 C
1169 27-11-2018 01:20:00 5.4 C 84 % 2.92 C
1170 27-11-2018 01:25:00 5.3 C 84 % 2.82 C
1171 27-11-2018 01:30:00 5.3 C 84 % 2.82 C
1172 27-11-2018 01:35:00 5.3 C 84 % 2.82 C
1173 27-11-2018 01:40:00 5.3 C 84 % 2.82 C
1174 27-11-2018 01:45:00 5.2 C 84 % 2.72 C
1175 27-11-2018 01:50:00 5.2 C 85 % 2.89 C
Sensor: Nr:Datum:Temp:Feuchte:Taupunkt:
Aussen-T/F 1176 27-11-2018 01:55:00 5.2 C 85 % 2.89 C
1177 27-11-2018 02:00:00 5.2 C 85 % 2.89 C
1178 27-11-2018 02:05:00 5.1 C 85 % 2.79 C
1179 27-11-2018 02:10:00 5.1 C 85 % 2.79 C
1180 27-11-2018 02:15:00 5 C 85 % 2.69 C
1181 27-11-2018 02:20:00 4.9 C 85 % 2.6 C
1182 27-11-2018 02:25:00 4.9 C 85 % 2.6 C
1183 27-11-2018 02:30:00 4.9 C 85 % 2.6 C
1184 27-11-2018 02:35:00 4.8 C 85 % 2.5 C
1185 27-11-2018 02:40:00 4.8 C 85 % 2.5 C
1186 27-11-2018 02:45:00 4.7 C 86 % 2.56 C
1187 27-11-2018 02:50:00 4.7 C 86 % 2.56 C
1188 27-11-2018 02:55:00 4.7 C 86 % 2.56 C
1189 27-11-2018 03:00:00 4.6 C 86 % 2.47 C
1190 27-11-2018 03:05:00 4.6 C 87 % 2.63 C
1191 27-11-2018 03:10:00 4.6 C 87 % 2.63 C
1192 27-11-2018 03:15:00 4.6 C 87 % 2.63 C
1193 27-11-2018 03:20:00 4.5 C 87 % 2.53 C
1194 27-11-2018 03:25:00 4.5 C 87 % 2.53 C
1195 27-11-2018 03:30:00 4.5 C 87 % 2.53 C
1196 27-11-2018 03:35:00 4.4 C 87 % 2.43 C
1197 27-11-2018 03:40:00 4.4 C 87 % 2.43 C
1198 27-11-2018 03:45:00 4.4 C 87 % 2.43 C
1199 27-11-2018 03:50:00 4.4 C 87 % 2.43 C
1200 27-11-2018 03:55:00 4.4 C 87 % 2.43 C
Sensor: Nr:Datum:Temp:Feuchte:Taupunkt:
Aussen-T/F 1201 27-11-2018 04:00:00 4.4 C 87 % 2.43 C
1202 27-11-2018 04:05:00 4.4 C 87 % 2.43 C
1203 27-11-2018 04:10:00 4.4 C 87 % 2.43 C
1204 27-11-2018 04:15:00 4.4 C 87 % 2.43 C
1205 27-11-2018 04:20:00 4.4 C 87 % 2.43 C
1206 27-11-2018 04:25:00 4.3 C 87 % 2.33 C
1207 27-11-2018 04:30:00 4.3 C 87 % 2.33 C
1208 27-11-2018 04:35:00 4.3 C 87 % 2.33 C
1209 27-11-2018 04:40:00 4.3 C 87 % 2.33 C
1210 27-11-2018 04:45:00 4.3 C 87 % 2.33 C
1211 27-11-2018 04:50:00 4.3 C 87 % 2.33 C
1212 27-11-2018 04:55:00 4.3 C 87 % 2.33 C
1213 27-11-2018 05:00:00 4.2 C 87 % 2.23 C
1214 27-11-2018 05:05:00 4.2 C 87 % 2.23 C
1215 27-11-2018 05:10:00 4.2 C 87 % 2.23 C
1216 27-11-2018 05:15:00 4.2 C 87 % 2.23 C
1217 27-11-2018 05:20:00 4.2 C 87 % 2.23 C
1218 27-11-2018 05:25:00 4.1 C 87 % 2.14 C
1219 27-11-2018 05:30:00 4.1 C 87 % 2.14 C
1220 27-11-2018 05:35:00 3.9 C 87 % 1.94 C
1221 27-11-2018 05:40:00 3.8 C 87 % 1.84 C
1222 27-11-2018 05:45:00 3.8 C 87 % 1.84 C
1223 27-11-2018 05:50:00 3.7 C 87 % 1.74 C
1224 27-11-2018 05:55:00 3.6 C 87 % 1.64 C
1225 27-11-2018 06:00:00 3.5 C 87 % 1.55 C
Sensor: Nr:Datum:Temp:Feuchte:Taupunkt:
Aussen-T/F 1226 27-11-2018 06:05:00 3.4 C 87 % 1.45 C
1227 27-11-2018 06:10:00 3.4 C 88 % 1.61 C
1228 27-11-2018 06:15:00 3.4 C 88 % 1.61 C
1229 27-11-2018 06:20:00 3.4 C 88 % 1.61 C
1230 27-11-2018 06:25:00 3.3 C 88 % 1.51 C
1231 27-11-2018 06:30:00 3.3 C 88 % 1.51 C
1232 27-11-2018 06:35:00 3.3 C 88 % 1.51 C
1233 27-11-2018 06:40:00 3.3 C 88 % 1.51 C
1234 27-11-2018 06:45:00 3.3 C 88 % 1.51 C
1235 27-11-2018 06:50:00 3.2 C 88 % 1.41 C
1236 27-11-2018 06:55:00 3.2 C 89 % 1.57 C
1237 27-11-2018 07:00:00 3.2 C 89 % 1.57 C
1238 27-11-2018 07:05:00 3.2 C 89 % 1.57 C
1239 27-11-2018 07:10:00 3.2 C 89 % 1.57 C
1240 27-11-2018 07:15:00 3.2 C 89 % 1.57 C
1241 27-11-2018 07:20:00 3.2 C 89 % 1.57 C
1242 27-11-2018 07:25:00 3.3 C 89 % 1.67 C
1243 27-11-2018 07:30:00 3.3 C 90 % 1.82 C
1244 27-11-2018 07:35:00 3.3 C 90 % 1.82 C
1245 27-11-2018 07:40:00 3.3 C 90 % 1.82 C
1246 27-11-2018 07:45:00 3.3 C 90 % 1.82 C
1247 27-11-2018 07:50:00 3.3 C 90 % 1.82 C
1248 27-11-2018 07:55:00 3.4 C 90 % 1.92 C
1249 27-11-2018 08:00:00 3.4 C 90 % 1.92 C
1250 27-11-2018 08:05:00 3.4 C 90 % 1.92 C
Sensor: Nr:Datum:Temp:Feuchte:Taupunkt:
Aussen-T/F 1251 27-11-2018 08:10:00 3.4 C 90 % 1.92 C
1252 27-11-2018 08:15:00 3.4 C 90 % 1.92 C
1253 27-11-2018 08:20:00 3.4 C 90 % 1.92 C
1254 27-11-2018 08:25:00 3.4 C 90 % 1.92 C
1255 27-11-2018 08:30:00 3.5 C 90 % 2.02 C
1256 27-11-2018 08:35:00 3.5 C 90 % 2.02 C
1257 27-11-2018 08:40:00 3.5 C 90 % 2.02 C
1258 27-11-2018 08:45:00 3.5 C 90 % 2.02 C
1259 27-11-2018 08:50:00 3.6 C 90 % 2.12 C
1260 27-11-2018 08:55:00 3.6 C 90 % 2.12 C
1261 27-11-2018 09:00:00 3.6 C 90 % 2.12 C
1262 27-11-2018 09:05:00 3.6 C 90 % 2.12 C
1263 27-11-2018 09:10:00 3.6 C 90 % 2.12 C
1264 27-11-2018 09:15:00 3.7 C 90 % 2.22 C
1265 27-11-2018 09:20:00 3.7 C 90 % 2.22 C
1266 27-11-2018 09:25:00 3.7 C 90 % 2.22 C
1267 27-11-2018 09:30:00 3.7 C 90 % 2.22 C
1268 27-11-2018 09:35:00 3.8 C 90 % 2.31 C
1269 27-11-2018 09:40:00 3.8 C 90 % 2.31 C
1270 27-11-2018 09:45:00 3.8 C 90 % 2.31 C
1271 27-11-2018 09:50:00 3.9 C 90 % 2.41 C
1272 27-11-2018 09:55:00 3.9 C 90 % 2.41 C
1273 27-11-2018 10:00:00 4 C 89 % 2.36 C
1274 27-11-2018 10:05:00 4.1 C 89 % 2.45 C
1275 27-11-2018 10:10:00 4.2 C 89 % 2.55 C
Sensor: Nr:Datum:Temp:Feuchte:Taupunkt:
Aussen-T/F 1276 27-11-2018 10:15:00 4.3 C 89 % 2.65 C
1277 27-11-2018 10:20:00 4.4 C 89 % 2.75 C
1278 27-11-2018 10:25:00 4.6 C 88 % 2.79 C
1279 27-11-2018 10:30:00 4.7 C 88 % 2.89 C
1280 27-11-2018 10:35:00 4.7 C 87 % 2.73 C
1281 27-11-2018 10:40:00 4.8 C 87 % 2.82 C
1282 27-11-2018 10:45:00 4.8 C 86 % 2.66 C
1283 27-11-2018 10:50:00 4.9 C 86 % 2.76 C
1284 27-11-2018 10:55:00 5.1 C 85 % 2.79 C
1285 27-11-2018 11:00:00 5.2 C 84 % 2.72 C
1286 27-11-2018 11:05:00 5.2 C 84 % 2.72 C
1287 27-11-2018 11:10:00 5.3 C 83 % 2.65 C
1288 27-11-2018 11:15:00 5.3 C 82 % 2.48 C
1289 27-11-2018 11:20:00 5.4 C 81 % 2.41 C
1290 27-11-2018 11:25:00 5.5 C 81 % 2.51 C
1291 27-11-2018 11:30:00 5.6 C 82 % 2.78 C
1292 27-11-2018 11:35:00 5.6 C 82 % 2.78 C
1293 27-11-2018 11:40:00 5.7 C 81 % 2.7 C
1294 27-11-2018 11:45:00 5.7 C 81 % 2.7 C
1295 27-11-2018 11:50:00 5.7 C 80 % 2.53 C
1296 27-11-2018 11:55:00 5.7 C 79 % 2.35 C
1297 27-11-2018 12:00:00 5.7 C 80 % 2.53 C
1298 27-11-2018 12:05:00 5.7 C 79 % 2.35 C
1299 27-11-2018 12:10:00 5.7 C 79 % 2.35 C
1300 27-11-2018 12:15:00 5.7 C 79 % 2.35 C
Sensor: Nr:Datum:Temp:Feuchte:Taupunkt:
Aussen-T/F 1301 27-11-2018 12:20:00 5.7 C 79 % 2.35 C
1302 27-11-2018 12:25:00 5.7 C 78 % 2.17 C
1303 27-11-2018 12:30:00 5.8 C 79 % 2.45 C
1304 27-11-2018 12:35:00 5.8 C 78 % 2.27 C
1305 27-11-2018 12:40:00 5.8 C 77 % 2.09 C
1306 27-11-2018 12:45:00 5.8 C 77 % 2.09 C
1307 27-11-2018 12:50:00 5.8 C 76 % 1.91 C
1308 27-11-2018 12:55:00 5.8 C 76 % 1.91 C
1309 27-11-2018 13:00:00 5.8 C 75 % 1.72 C
1310 27-11-2018 13:05:00 5.8 C 76 % 1.91 C
1311 27-11-2018 13:10:00 5.8 C 76 % 1.91 C
1312 27-11-2018 13:15:00 5.8 C 75 % 1.72 C
1313 27-11-2018 13:20:00 5.8 C 75 % 1.72 C
1314 27-11-2018 13:25:00 5.8 C 75 % 1.72 C
1315 27-11-2018 13:30:00 5.8 C 75 % 1.72 C
1316 27-11-2018 13:35:00 5.8 C 76 % 1.91 C
1317 27-11-2018 13:40:00 5.8 C 75 % 1.72 C
1318 27-11-2018 13:45:00 5.7 C 76 % 1.81 C
1319 27-11-2018 13:50:00 5.6 C 77 % 1.89 C
1320 27-11-2018 13:55:00 5.5 C 78 % 1.98 C
1321 27-11-2018 14:00:00 5.4 C 77 % 1.7 C
1322 27-11-2018 14:05:00 5.4 C 78 % 1.88 C
1323 27-11-2018 14:10:00 5.3 C 78 % 1.78 C
1324 27-11-2018 14:15:00 5.3 C 78 % 1.78 C
1325 27-11-2018 14:20:00 5.3 C 78 % 1.78 C
Sensor: Nr:Datum:Temp:Feuchte:Taupunkt:
Aussen-T/F 1326 27-11-2018 14:25:00 5.3 C 78 % 1.78 C
1327 27-11-2018 14:30:00 5.3 C 78 % 1.78 C
1328 27-11-2018 14:35:00 5.2 C 78 % 1.69 C
1329 27-11-2018 14:40:00 5.2 C 78 % 1.69 C
1330 27-11-2018 14:45:00 5.2 C 78 % 1.69 C
1331 27-11-2018 14:50:00 5.2 C 78 % 1.69 C
1332 27-11-2018 14:55:00 5.2 C 78 % 1.69 C
1333 27-11-2018 15:00:00 5.2 C 78 % 1.69 C
1334 27-11-2018 15:05:00 5.2 C 78 % 1.69 C
1335 27-11-2018 15:10:00 5.2 C 78 % 1.69 C
1336 27-11-2018 15:15:00 5.2 C 78 % 1.69 C
1337 27-11-2018 15:20:00 5.1 C 78 % 1.59 C
1338 27-11-2018 15:25:00 5.1 C 78 % 1.59 C
1339 27-11-2018 15:30:00 5.1 C 79 % 1.77 C
1340 27-11-2018 15:35:00 5.1 C 78 % 1.59 C
1341 27-11-2018 15:40:00 5.1 C 77 % 1.41 C
1342 27-11-2018 15:45:00 5.1 C 78 % 1.59 C
1343 27-11-2018 15:50:00 5.2 C 78 % 1.69 C
1344 27-11-2018 15:55:00 5.2 C 78 % 1.69 C
1345 27-11-2018 16:00:00 5.1 C 77 % 1.41 C
1346 27-11-2018 16:05:00 5.1 C 78 % 1.59 C
1347 27-11-2018 16:10:00 5.1 C 78 % 1.59 C
1348 27-11-2018 16:15:00 5.1 C 77 % 1.41 C
1349 27-11-2018 16:20:00 5 C 78 % 1.49 C
1350 27-11-2018 16:25:00 5 C 78 % 1.49 C
Sensor: Nr:Datum:Temp:Feuchte:Taupunkt:
Aussen-T/F 1351 27-11-2018 16:30:00 4.9 C 78 % 1.39 C
1352 27-11-2018 16:35:00 4.9 C 78 % 1.39 C
1353 27-11-2018 16:40:00 4.9 C 78 % 1.39 C
1354 27-11-2018 16:45:00 4.8 C 78 % 1.3 C
1355 27-11-2018 16:50:00 4.8 C 78 % 1.3 C
1356 27-11-2018 16:55:00 4.8 C 78 % 1.3 C
1357 27-11-2018 17:00:00 4.8 C 78 % 1.3 C
1358 27-11-2018 17:05:00 4.7 C 78 % 1.2 C
1359 27-11-2018 17:10:00 4.7 C 78 % 1.2 C
1360 27-11-2018 17:15:00 4.6 C 78 % 1.1 C
1361 27-11-2018 17:20:00 4.6 C 78 % 1.1 C
1362 27-11-2018 17:25:00 4.5 C 78 % 1.01 C
1363 27-11-2018 17:30:00 4.4 C 78 % 0.91 C
1364 27-11-2018 17:35:00 4.4 C 78 % 0.91 C
1365 27-11-2018 17:40:00 4.3 C 78 % 0.81 C
1366 27-11-2018 17:45:00 4.1 C 78 % 0.62 C
1367 27-11-2018 17:50:00 3.8 C 79 % 0.5 C
1368 27-11-2018 17:55:00 3.7 C 79 % 0.4 C
1369 27-11-2018 18:00:00 3.4 C 80 % 0.29 C
1370 27-11-2018 18:05:00 3.3 C 80 % 0.19 C
1371 27-11-2018 18:10:00 3.2 C 81 % 0.26 C
1372 27-11-2018 18:15:00 3.2 C 82 % 0.43 C
1373 27-11-2018 18:20:00 3.2 C 82 % 0.43 C
1374 27-11-2018 18:25:00 3.2 C 82 % 0.43 C
1375 27-11-2018 18:30:00 3.2 C 82 % 0.43 C
Sensor: Nr:Datum:Temp:Feuchte:Taupunkt:
Aussen-T/F 1376 27-11-2018 18:35:00 3.3 C 81 % 0.36 C
1377 27-11-2018 18:40:00 3.4 C 81 % 0.46 C
1378 27-11-2018 18:45:00 3.5 C 81 % 0.55 C
1379 27-11-2018 18:50:00 3.6 C 80 % 0.48 C
1380 27-11-2018 18:55:00 3.7 C 80 % 0.58 C
1381 27-11-2018 19:00:00 3.7 C 79 % 0.4 C
1382 27-11-2018 19:05:00 3.8 C 79 % 0.5 C
1383 27-11-2018 19:10:00 3.8 C 79 % 0.5 C
1384 27-11-2018 19:15:00 3.8 C 79 % 0.5 C
1385 27-11-2018 19:20:00 3.8 C 79 % 0.5 C
1386 27-11-2018 19:25:00 3.8 C 79 % 0.5 C
1387 27-11-2018 19:30:00 3.8 C 79 % 0.5 C
1388 27-11-2018 19:35:00 3.7 C 78 % 0.23 C
1389 27-11-2018 19:40:00 3.7 C 78 % 0.23 C
1390 27-11-2018 19:45:00 3.7 C 78 % 0.23 C
1391 27-11-2018 19:50:00 3.6 C 78 % 0.13 C
1392 27-11-2018 19:55:00 3.4 C 79 % 0.11 C
1393 27-11-2018 20:00:00 3.3 C 79 % 0.02 C
1394 27-11-2018 20:05:00 3.2 C 80 % 0.09 C
1395 27-11-2018 20:10:00 3.1 C 80 % -0.01 C
1396 27-11-2018 20:15:00 3 C 80 % -0.1 C
1397 27-11-2018 20:20:00 2.9 C 80 % -0.2 C
1398 27-11-2018 20:25:00 2.7 C 81 % -0.23 C
1399 27-11-2018 20:30:00 2.6 C 81 % -0.32 C
1400 27-11-2018 20:35:00 2.5 C 82 % -0.25 C
Sensor: Nr:Datum:Temp:Feuchte:Taupunkt:
Aussen-T/F 1401 27-11-2018 20:40:00 2.4 C 82 % -0.35 C
1402 27-11-2018 20:45:00 2.3 C 83 % -0.28 C
1403 27-11-2018 20:50:00 2.1 C 83 % -0.48 C
1404 27-11-2018 20:55:00 1.9 C 83 % -0.67 C
1405 27-11-2018 21:00:00 1.7 C 84 % -0.71 C
1406 27-11-2018 21:05:00 1.6 C 84 % -0.8 C
1407 27-11-2018 21:10:00 1.4 C 85 % -0.84 C
1408 27-11-2018 21:15:00 1.3 C 86 % -0.78 C
1409 27-11-2018 21:20:00 1.2 C 87 % -0.72 C
1410 27-11-2018 21:25:00 1.2 C 87 % -0.72 C
1411 27-11-2018 21:30:00 1.2 C 88 % -0.56 C
1412 27-11-2018 21:35:00 1.1 C 88 % -0.66 C
1413 27-11-2018 21:40:00 1.1 C 89 % -0.51 C
1414 27-11-2018 21:45:00 1.2 C 89 % -0.41 C
1415 27-11-2018 21:50:00 1.2 C 89 % -0.41 C
1416 27-11-2018 21:55:00 1.3 C 90 % -0.15 C
1417 27-11-2018 22:00:00 1.4 C 90 % -0.06 C
1418 27-11-2018 22:05:00 1.5 C 90 % 0.04 C
1419 27-11-2018 22:10:00 1.6 C 90 % 0.14 C
1420 27-11-2018 22:15:00 1.7 C 90 % 0.24 C
1421 27-11-2018 22:20:00 1.7 C 90 % 0.24 C
1422 27-11-2018 22:25:00 1.9 C 90 % 0.44 C
1423 27-11-2018 22:30:00 1.9 C 89 % 0.28 C
1424 27-11-2018 22:35:00 2 C 89 % 0.38 C
1425 27-11-2018 22:40:00 2.1 C 89 % 0.48 C
Sensor: Nr:Datum:Temp:Feuchte:Taupunkt:
Aussen-T/F 1426 27-11-2018 22:45:00 2.1 C 89 % 0.48 C
1427 27-11-2018 22:50:00 2.1 C 89 % 0.48 C
1428 27-11-2018 22:55:00 2.2 C 89 % 0.58 C
1429 27-11-2018 23:00:00 2.2 C 89 % 0.58 C
1430 27-11-2018 23:05:00 2.2 C 89 % 0.58 C
1431 27-11-2018 23:10:00 2.3 C 89 % 0.68 C
1432 27-11-2018 23:15:00 2.3 C 89 % 0.68 C
1433 27-11-2018 23:20:00 2.4 C 89 % 0.78 C
1434 27-11-2018 23:25:00 2.4 C 88 % 0.62 C
1435 27-11-2018 23:30:00 2.4 C 89 % 0.78 C
1436 27-11-2018 23:35:00 2.4 C 88 % 0.62 C
1437 27-11-2018 23:40:00 2.5 C 89 % 0.88 C
1438 27-11-2018 23:45:00 2.5 C 89 % 0.88 C
1439 27-11-2018 23:50:00 2.6 C 89 % 0.97 C
1440 27-11-2018 23:55:00 2.6 C 89 % 0.97 C
1441 28-11-2018 00:00:00 2.6 C 89 % 0.97 C
1442 28-11-2018 00:05:00 2.6 C 89 % 0.97 C
1443 28-11-2018 00:10:00 2.6 C 89 % 0.97 C
1444 28-11-2018 00:15:00 2.6 C 89 % 0.97 C
1445 28-11-2018 00:20:00 2.6 C 89 % 0.97 C
1446 28-11-2018 00:25:00 2.6 C 89 % 0.97 C
1447 28-11-2018 00:30:00 2.7 C 89 % 1.07 C
1448 28-11-2018 00:35:00 2.6 C 89 % 0.97 C
1449 28-11-2018 00:40:00 2.6 C 89 % 0.97 C
1450 28-11-2018 00:45:00 2.6 C 89 % 0.97 C
Sensor: Nr:Datum:Temp:Feuchte:Taupunkt:
Aussen-T/F 1451 28-11-2018 00:50:00 2.6 C 89 % 0.97 C
1452 28-11-2018 00:55:00 2.5 C 89 % 0.88 C
1453 28-11-2018 01:00:00 2.4 C 89 % 0.78 C
1454 28-11-2018 01:05:00 2.4 C 89 % 0.78 C
1455 28-11-2018 01:10:00 2.4 C 89 % 0.78 C
1456 28-11-2018 01:15:00 2.5 C 90 % 1.03 C
1457 28-11-2018 01:20:00 2.5 C 90 % 1.03 C
1458 28-11-2018 01:25:00 2.6 C 90 % 1.13 C
1459 28-11-2018 01:30:00 2.6 C 90 % 1.13 C
1460 28-11-2018 01:35:00 2.7 C 90 % 1.23 C
1461 28-11-2018 01:40:00 2.7 C 90 % 1.23 C
1462 28-11-2018 01:45:00 2.7 C 89 % 1.07 C
1463 28-11-2018 01:50:00 2.7 C 89 % 1.07 C
1464 28-11-2018 01:55:00 2.6 C 89 % 0.97 C
1465 28-11-2018 02:00:00 2.5 C 89 % 0.88 C
1466 28-11-2018 02:05:00 2.4 C 89 % 0.78 C
1467 28-11-2018 02:10:00 2.3 C 89 % 0.68 C
1468 28-11-2018 02:15:00 2.2 C 89 % 0.58 C
1469 28-11-2018 02:20:00 2 C 89 % 0.38 C
1470 28-11-2018 02:25:00 1.8 C 89 % 0.19 C
1471 28-11-2018 02:30:00 1.8 C 90 % 0.34 C
1472 28-11-2018 02:35:00 1.6 C 89 % -0.01 C
1473 28-11-2018 02:40:00 1.5 C 90 % 0.04 C
1474 28-11-2018 02:45:00 1.3 C 90 % -0.15 C
1475 28-11-2018 02:50:00 1.3 C 90 % -0.15 C
Sensor: Nr:Datum:Temp:Feuchte:Taupunkt:
Aussen-T/F 1476 28-11-2018 02:55:00 1.2 C 91 % -0.1 C
1477 28-11-2018 03:00:00 1.2 C 91 % -0.1 C
1478 28-11-2018 03:05:00 1.1 C 91 % -0.2 C
1479 28-11-2018 03:10:00 1 C 91 % -0.3 C
1480 28-11-2018 03:15:00 0.9 C 91 % -0.4 C
1481 28-11-2018 03:20:00 0.9 C 91 % -0.4 C
1482 28-11-2018 03:25:00 0.8 C 91 % -0.5 C
1483 28-11-2018 03:30:00 0.7 C 91 % -0.6 C
1484 28-11-2018 03:35:00 0.6 C 92 % -0.55 C
1485 28-11-2018 03:40:00 0.6 C 92 % -0.55 C
1486 28-11-2018 03:45:00 0.5 C 92 % -0.65 C
1487 28-11-2018 03:50:00 0.4 C 92 % -0.74 C
1488 28-11-2018 03:55:00 0.3 C 92 % -0.84 C
1489 28-11-2018 04:00:00 0.3 C 92 % -0.84 C
1490 28-11-2018 04:05:00 0.3 C 93 % -0.7 C
1491 28-11-2018 04:10:00 0.3 C 93 % -0.7 C
1492 28-11-2018 04:15:00 0.3 C 93 % -0.7 C
1493 28-11-2018 04:20:00 0.2 C 93 % -0.79 C
1494 28-11-2018 04:25:00 0.2 C 93 % -0.79 C
1495 28-11-2018 04:30:00 0.2 C 93 % -0.79 C
1496 28-11-2018 04:35:00 0.2 C 93 % -0.79 C
1497 28-11-2018 04:40:00 0.2 C 93 % -0.79 C
1498 28-11-2018 04:45:00 0.2 C 94 % -0.65 C
1499 28-11-2018 04:50:00 0.3 C 94 % -0.55 C
1500 28-11-2018 04:55:00 0.3 C 94 % -0.55 C
Sensor: Nr:Datum:Temp:Feuchte:Taupunkt:
Aussen-T/F 1501 28-11-2018 05:00:00 0.3 C 94 % -0.55 C
1502 28-11-2018 05:05:00 0.4 C 94 % -0.45 C
1503 28-11-2018 05:10:00 0.4 C 94 % -0.45 C
1504 28-11-2018 05:15:00 0.5 C 94 % -0.35 C
1505 28-11-2018 05:20:00 0.5 C 94 % -0.35 C
1506 28-11-2018 05:25:00 0.5 C 94 % -0.35 C
1507 28-11-2018 05:30:00 0.4 C 94 % -0.45 C
1508 28-11-2018 05:35:00 0.4 C 94 % -0.45 C
1509 28-11-2018 05:40:00 0.4 C 94 % -0.45 C
1510 28-11-2018 05:45:00 0.3 C 94 % -0.55 C
1511 28-11-2018 05:50:00 0.3 C 94 % -0.55 C
1512 28-11-2018 05:55:00 0.3 C 94 % -0.55 C
1513 28-11-2018 06:00:00 0.4 C 94 % -0.45 C
1514 28-11-2018 06:05:00 0.4 C 94 % -0.45 C
1515 28-11-2018 06:10:00 0.4 C 94 % -0.45 C
1516 28-11-2018 06:15:00 0.4 C 94 % -0.45 C
1517 28-11-2018 06:20:00 0.3 C 94 % -0.55 C
1518 28-11-2018 06:25:00 0.3 C 94 % -0.55 C
1519 28-11-2018 06:30:00 0.3 C 95 % -0.4 C
1520 28-11-2018 06:35:00 0.4 C 95 % -0.31 C
1521 28-11-2018 06:40:00 0.3 C 95 % -0.4 C
1522 28-11-2018 06:45:00 0.3 C 95 % -0.4 C
1523 28-11-2018 06:50:00 0.3 C 95 % -0.4 C
1524 28-11-2018 06:55:00 0.3 C 95 % -0.4 C
1525 28-11-2018 07:00:00 0.3 C 95 % -0.4 C
Sensor: Nr:Datum:Temp:Feuchte:Taupunkt:
Aussen-T/F 1526 28-11-2018 07:05:00 0.3 C 95 % -0.4 C
1527 28-11-2018 07:10:00 0.3 C 95 % -0.4 C
1528 28-11-2018 07:15:00 0.4 C 95 % -0.31 C
1529 28-11-2018 07:20:00 0.4 C 95 % -0.31 C
1530 28-11-2018 07:25:00 0.6 C 95 % -0.11 C
1531 28-11-2018 07:30:00 0.6 C 95 % -0.11 C
1532 28-11-2018 07:35:00 0.7 C 95 % -0.01 C
1533 28-11-2018 07:40:00 0.6 C 95 % -0.11 C
1534 28-11-2018 07:45:00 0.6 C 95 % -0.11 C
1535 28-11-2018 07:50:00 0.6 C 95 % -0.11 C
1536 28-11-2018 07:55:00 0.7 C 95 % -0.01 C
1537 28-11-2018 08:00:00 0.7 C 95 % -0.01 C
1538 28-11-2018 08:05:00 0.7 C 95 % -0.01 C
1539 28-11-2018 08:10:00 0.7 C 95 % -0.01 C
1540 28-11-2018 08:15:00 0.8 C 95 % 0.09 C
1541 28-11-2018 08:20:00 0.8 C 95 % 0.09 C
1542 28-11-2018 08:25:00 0.8 C 95 % 0.09 C
1543 28-11-2018 08:30:00 0.8 C 95 % 0.09 C
1544 28-11-2018 08:35:00 0.8 C 95 % 0.09 C
1545 28-11-2018 08:40:00 0.9 C 96 % 0.34 C
1546 28-11-2018 08:45:00 1.1 C 96 % 0.54 C
1547 28-11-2018 08:50:00 1.2 C 96 % 0.63 C
1548 28-11-2018 08:55:00 1.3 C 96 % 0.73 C
1549 28-11-2018 09:00:00 1.5 C 96 % 0.93 C
1550 28-11-2018 09:05:00 1.7 C 96 % 1.13 C
Sensor: Nr:Datum:Temp:Feuchte:Taupunkt:
Aussen-T/F 1551 28-11-2018 09:10:00 1.9 C 96 % 1.33 C
1552 28-11-2018 09:15:00 2.1 C 96 % 1.53 C
1553 28-11-2018 09:20:00 2.3 C 96 % 1.73 C
1554 28-11-2018 09:25:00 2.6 C 96 % 2.03 C
1555 28-11-2018 09:30:00 2.8 C 97 % 2.37 C
1556 28-11-2018 09:35:00 3 C 96 % 2.43 C
1557 28-11-2018 09:40:00 3.1 C 96 % 2.53 C
1558 28-11-2018 09:45:00 3.3 C 96 % 2.72 C
1559 28-11-2018 09:50:00 3.4 C 96 % 2.82 C
1560 28-11-2018 09:55:00 3.4 C 96 % 2.82 C
1561 28-11-2018 10:00:00 3.5 C 95 % 2.78 C
1562 28-11-2018 10:05:00 3.6 C 95 % 2.88 C
1563 28-11-2018 10:10:00 3.7 C 94 % 2.83 C
1564 28-11-2018 10:15:00 3.8 C 94 % 2.93 C
1565 28-11-2018 10:20:00 3.9 C 94 % 3.02 C
1566 28-11-2018 10:25:00 3.9 C 93 % 2.87 C
1567 28-11-2018 10:30:00 4.1 C 93 % 3.07 C
1568 28-11-2018 10:35:00 4.2 C 92 % 3.02 C
1569 28-11-2018 10:40:00 4.2 C 92 % 3.02 C
1570 28-11-2018 10:45:00 4.3 C 92 % 3.12 C
1571 28-11-2018 10:50:00 4.4 C 92 % 3.22 C
1572 28-11-2018 10:55:00 4.5 C 91 % 3.16 C
1573 28-11-2018 11:00:00 4.6 C 91 % 3.26 C
1574 28-11-2018 11:05:00 4.7 C 90 % 3.2 C
1575 28-11-2018 11:10:00 4.8 C 89 % 3.14 C
Sensor: Nr:Datum:Temp:Feuchte:Taupunkt:
Aussen-T/F 1576 28-11-2018 11:15:00 4.8 C 89 % 3.14 C
1577 28-11-2018 11:20:00 4.9 C 88 % 3.08 C
1578 28-11-2018 11:25:00 4.9 C 88 % 3.08 C
1579 28-11-2018 11:30:00 5 C 88 % 3.18 C
1580 28-11-2018 11:35:00 5.1 C 88 % 3.28 C
1581 28-11-2018 11:40:00 5.2 C 87 % 3.22 C
1582 28-11-2018 11:45:00 5.2 C 87 % 3.22 C
1583 28-11-2018 11:50:00 5.3 C 87 % 3.32 C
1584 28-11-2018 11:55:00 5.3 C 86 % 3.15 C
1585 28-11-2018 12:00:00 5.4 C 86 % 3.25 C
1586 28-11-2018 12:05:00 5.4 C 86 % 3.25 C
1587 28-11-2018 12:10:00 5.4 C 86 % 3.25 C
1588 28-11-2018 12:15:00 5.4 C 86 % 3.25 C
1589 28-11-2018 12:20:00 5.4 C 86 % 3.25 C
1590 28-11-2018 12:25:00 5.5 C 86 % 3.35 C
1591 28-11-2018 12:30:00 5.6 C 86 % 3.45 C
1592 28-11-2018 12:35:00 5.6 C 85 % 3.28 C
1593 28-11-2018 12:40:00 5.6 C 85 % 3.28 C
1594 28-11-2018 12:45:00 5.7 C 86 % 3.55 C
1595 28-11-2018 12:50:00 5.7 C 86 % 3.55 C
1596 28-11-2018 12:55:00 5.8 C 86 % 3.64 C
1597 28-11-2018 13:00:00 5.8 C 85 % 3.48 C
1598 28-11-2018 13:05:00 5.9 C 85 % 3.58 C
1599 28-11-2018 13:10:00 5.9 C 85 % 3.58 C
1600 28-11-2018 13:15:00 6 C 85 % 3.67 C
Sensor: Nr:Datum:Temp:Feuchte:Taupunkt:
Aussen-T/F 1601 28-11-2018 13:20:00 6.1 C 85 % 3.77 C
1602 28-11-2018 13:25:00 6.1 C 85 % 3.77 C
1603 28-11-2018 13:30:00 6.1 C 85 % 3.77 C
1604 28-11-2018 13:35:00 6.2 C 85 % 3.87 C
1605 28-11-2018 13:40:00 6.2 C 85 % 3.87 C
1606 28-11-2018 13:45:00 6.3 C 85 % 3.97 C
1607 28-11-2018 13:50:00 6.4 C 84 % 3.9 C
1608 28-11-2018 13:55:00 6.5 C 84 % 4 C
1609 28-11-2018 14:00:00 6.6 C 84 % 4.1 C
1610 28-11-2018 14:05:00 6.6 C 83 % 3.92 C
1611 28-11-2018 14:10:00 6.7 C 84 % 4.19 C
1612 28-11-2018 14:15:00 6.7 C 83 % 4.02 C
1613 28-11-2018 14:20:00 6.7 C 83 % 4.02 C
1614 28-11-2018 14:25:00 6.7 C 83 % 4.02 C
1615 28-11-2018 14:30:00 6.7 C 83 % 4.02 C
1616 28-11-2018 14:35:00 6.6 C 83 % 3.92 C
1617 28-11-2018 14:40:00 6.6 C 83 % 3.92 C
1618 28-11-2018 14:45:00 6.5 C 84 % 4 C
1619 28-11-2018 14:50:00 6.5 C 84 % 4 C
1620 28-11-2018 14:55:00 6.4 C 84 % 3.9 C
1621 28-11-2018 15:00:00 6.4 C 84 % 3.9 C
1622 28-11-2018 15:05:00 6.3 C 84 % 3.8 C
1623 28-11-2018 15:10:00 6.3 C 84 % 3.8 C
1624 28-11-2018 15:15:00 6.3 C 84 % 3.8 C
1625 28-11-2018 15:20:00 6.2 C 85 % 3.87 C
Sensor: Nr:Datum:Temp:Feuchte:Taupunkt:
Aussen-T/F 1626 28-11-2018 15:25:00 6.2 C 85 % 3.87 C
1627 28-11-2018 15:30:00 6.1 C 85 % 3.77 C
1628 28-11-2018 15:35:00 6.1 C 86 % 3.94 C
1629 28-11-2018 15:40:00 6.1 C 86 % 3.94 C
1630 28-11-2018 15:45:00 6 C 86 % 3.84 C
1631 28-11-2018 15:50:00 5.9 C 86 % 3.74 C
1632 28-11-2018 15:55:00 5.9 C 87 % 3.91 C
1633 28-11-2018 16:00:00 5.8 C 87 % 3.81 C
1634 28-11-2018 16:05:00 5.8 C 88 % 3.97 C
1635 28-11-2018 16:10:00 5.8 C 88 % 3.97 C
1636 28-11-2018 16:15:00 5.7 C 88 % 3.87 C
1637 28-11-2018 16:20:00 5.7 C 88 % 3.87 C
1638 28-11-2018 16:25:00 5.7 C 88 % 3.87 C
1639 28-11-2018 16:30:00 5.7 C 89 % 4.03 C
1640 28-11-2018 16:35:00 5.6 C 89 % 3.93 C
1641 28-11-2018 16:40:00 5.6 C 89 % 3.93 C
1642 28-11-2018 16:45:00 5.6 C 89 % 3.93 C
1643 28-11-2018 16:50:00 5.6 C 90 % 4.09 C
1644 28-11-2018 16:55:00 5.6 C 90 % 4.09 C
1645 28-11-2018 17:00:00 5.6 C 90 % 4.09 C
1646 28-11-2018 17:05:00 5.5 C 90 % 3.99 C
1647 28-11-2018 17:10:00 5.4 C 91 % 4.05 C
1648 28-11-2018 17:15:00 5.4 C 91 % 4.05 C
1649 28-11-2018 17:20:00 5.4 C 91 % 4.05 C
1650 28-11-2018 17:25:00 5.4 C 92 % 4.21 C
Sensor: Nr:Datum:Temp:Feuchte:Taupunkt:
Aussen-T/F 1651 28-11-2018 17:30:00 5.4 C 92 % 4.21 C
1652 28-11-2018 17:35:00 5.3 C 92 % 4.11 C
1653 28-11-2018 17:40:00 5.3 C 92 % 4.11 C
1654 28-11-2018 17:45:00 5.3 C 93 % 4.26 C
1655 28-11-2018 17:50:00 5.3 C 93 % 4.26 C
1656 28-11-2018 17:55:00 5.3 C 93 % 4.26 C
1657 28-11-2018 18:00:00 5.3 C 93 % 4.26 C
1658 28-11-2018 18:05:00 5.3 C 93 % 4.26 C
1659 28-11-2018 18:10:00 5.2 C 93 % 4.16 C
1660 28-11-2018 18:15:00 5.2 C 94 % 4.32 C
1661 28-11-2018 18:20:00 5.2 C 94 % 4.32 C
1662 28-11-2018 18:25:00 5.2 C 94 % 4.32 C
1663 28-11-2018 18:30:00 5.2 C 94 % 4.32 C
1664 28-11-2018 18:35:00 5.2 C 94 % 4.32 C
1665 28-11-2018 18:40:00 5.2 C 94 % 4.32 C
1666 28-11-2018 18:45:00 5.2 C 94 % 4.32 C
1667 28-11-2018 18:50:00 5.2 C 94 % 4.32 C
1668 28-11-2018 18:55:00 5.2 C 94 % 4.32 C
1669 28-11-2018 19:00:00 5.2 C 94 % 4.32 C
1670 28-11-2018 19:05:00 5.2 C 95 % 4.47 C
1671 28-11-2018 19:10:00 5.2 C 95 % 4.47 C
1672 28-11-2018 19:15:00 5.2 C 95 % 4.47 C
1673 28-11-2018 19:20:00 5.2 C 95 % 4.47 C
1674 28-11-2018 19:25:00 5.2 C 95 % 4.47 C
1675 28-11-2018 19:30:00 5.2 C 95 % 4.47 C
Sensor: Nr:Datum:Temp:Feuchte:Taupunkt:
Aussen-T/F 1676 28-11-2018 19:35:00 5.2 C 95 % 4.47 C
1677 28-11-2018 19:40:00 5.2 C 95 % 4.47 C
1678 28-11-2018 19:45:00 5.2 C 95 % 4.47 C
1679 28-11-2018 19:50:00 5.2 C 95 % 4.47 C
1680 28-11-2018 19:55:00 5.2 C 95 % 4.47 C
1681 28-11-2018 20:00:00 5.2 C 95 % 4.47 C
1682 28-11-2018 20:05:00 5.2 C 95 % 4.47 C
1683 28-11-2018 20:10:00 5.2 C 95 % 4.47 C
1684 28-11-2018 20:15:00 5.2 C 95 % 4.47 C
1685 28-11-2018 20:20:00 5.2 C 95 % 4.47 C
1686 28-11-2018 20:25:00 5.2 C 95 % 4.47 C
1687 28-11-2018 20:30:00 5.2 C 95 % 4.47 C
1688 28-11-2018 20:35:00 5.2 C 95 % 4.47 C
1689 28-11-2018 20:40:00 5.2 C 95 % 4.47 C
1690 28-11-2018 20:45:00 5.2 C 95 % 4.47 C
1691 28-11-2018 20:50:00 5.2 C 96 % 4.62 C
1692 28-11-2018 20:55:00 5.2 C 96 % 4.62 C
1693 28-11-2018 21:00:00 5.2 C 96 % 4.62 C
1694 28-11-2018 21:05:00 5.1 C 96 % 4.52 C
1695 28-11-2018 21:10:00 5.1 C 96 % 4.52 C
1696 28-11-2018 21:15:00 5.1 C 95 % 4.37 C
1697 28-11-2018 21:20:00 5.1 C 96 % 4.52 C
1698 28-11-2018 21:25:00 5.1 C 96 % 4.52 C
1699 28-11-2018 21:30:00 5.2 C 96 % 4.62 C
1700 28-11-2018 21:35:00 5.2 C 96 % 4.62 C
Sensor: Nr:Datum:Temp:Feuchte:Taupunkt:
Aussen-T/F 1701 28-11-2018 21:40:00 5.3 C 96 % 4.72 C
1702 28-11-2018 21:45:00 5.3 C 96 % 4.72 C
1703 28-11-2018 21:50:00 5.3 C 96 % 4.72 C
1704 28-11-2018 21:55:00 5.3 C 96 % 4.72 C
1705 28-11-2018 22:00:00 5.4 C 96 % 4.81 C
1706 28-11-2018 22:05:00 5.4 C 96 % 4.81 C
1707 28-11-2018 22:10:00 5.4 C 96 % 4.81 C
1708 28-11-2018 22:15:00 5.4 C 96 % 4.81 C
1709 28-11-2018 22:20:00 5.4 C 96 % 4.81 C
1710 28-11-2018 22:25:00 5.4 C 96 % 4.81 C
1711 28-11-2018 22:30:00 5.4 C 96 % 4.81 C
1712 28-11-2018 22:35:00 5.4 C 96 % 4.81 C
1713 28-11-2018 22:40:00 5.5 C 96 % 4.91 C
1714 28-11-2018 22:45:00 5.5 C 96 % 4.91 C
1715 28-11-2018 22:50:00 5.5 C 96 % 4.91 C
1716 28-11-2018 22:55:00 5.4 C 96 % 4.81 C
1717 28-11-2018 23:00:00 5.4 C 96 % 4.81 C
1718 28-11-2018 23:05:00 5.4 C 96 % 4.81 C
1719 28-11-2018 23:10:00 5.4 C 96 % 4.81 C
1720 28-11-2018 23:15:00 5.4 C 96 % 4.81 C
1721 28-11-2018 23:20:00 5.4 C 96 % 4.81 C
1722 28-11-2018 23:25:00 5.4 C 96 % 4.81 C
1723 28-11-2018 23:30:00 5.4 C 96 % 4.81 C
1724 28-11-2018 23:35:00 5.4 C 96 % 4.81 C
1725 28-11-2018 23:40:00 5.3 C 96 % 4.72 C
Sensor: Nr:Datum:Temp:Feuchte:Taupunkt:
Aussen-T/F 1726 28-11-2018 23:45:00 5.3 C 96 % 4.72 C
1727 28-11-2018 23:50:00 5.3 C 96 % 4.72 C
1728 28-11-2018 23:55:00 5.4 C 96 % 4.81 C
1729 29-11-2018 00:00:00 5.4 C 96 % 4.81 C
1730 29-11-2018 00:05:00 5.4 C 96 % 4.81 C
1731 29-11-2018 00:10:00 5.5 C 96 % 4.91 C
1732 29-11-2018 00:15:00 5.5 C 96 % 4.91 C
1733 29-11-2018 00:20:00 5.6 C 96 % 5.01 C
1734 29-11-2018 00:25:00 5.6 C 96 % 5.01 C
1735 29-11-2018 00:30:00 5.6 C 96 % 5.01 C
1736 29-11-2018 00:35:00 5.6 C 96 % 5.01 C
1737 29-11-2018 00:40:00 5.6 C 96 % 5.01 C
1738 29-11-2018 00:45:00 5.5 C 96 % 4.91 C
1739 29-11-2018 00:50:00 5.5 C 96 % 4.91 C
1740 29-11-2018 00:55:00 5.4 C 96 % 4.81 C
1741 29-11-2018 01:00:00 5.4 C 96 % 4.81 C
1742 29-11-2018 01:05:00 5.5 C 96 % 4.91 C
1743 29-11-2018 01:10:00 5.5 C 96 % 4.91 C
1744 29-11-2018 01:15:00 5.6 C 96 % 5.01 C
1745 29-11-2018 01:20:00 5.6 C 96 % 5.01 C
1746 29-11-2018 01:25:00 5.6 C 96 % 5.01 C
1747 29-11-2018 01:30:00 5.6 C 96 % 5.01 C
1748 29-11-2018 01:35:00 5.6 C 96 % 5.01 C
1749 29-11-2018 01:40:00 5.6 C 96 % 5.01 C
1750 29-11-2018 01:45:00 5.6 C 96 % 5.01 C
Sensor: Nr:Datum:Temp:Feuchte:Taupunkt:
Aussen-T/F 1751 29-11-2018 01:50:00 5.6 C 96 % 5.01 C
1752 29-11-2018 01:55:00 5.6 C 96 % 5.01 C
1753 29-11-2018 02:00:00 5.6 C 96 % 5.01 C
1754 29-11-2018 02:05:00 5.5 C 97 % 5.06 C
1755 29-11-2018 02:10:00 5.4 C 97 % 4.96 C
1756 29-11-2018 02:15:00 5.4 C 97 % 4.96 C
1757 29-11-2018 02:20:00 5.4 C 97 % 4.96 C
1758 29-11-2018 02:25:00 5.4 C 97 % 4.96 C
1759 29-11-2018 02:30:00 5.4 C 97 % 4.96 C
1760 29-11-2018 02:35:00 5.4 C 97 % 4.96 C
1761 29-11-2018 02:40:00 5.3 C 97 % 4.86 C
1762 29-11-2018 02:45:00 5.4 C 97 % 4.96 C
1763 29-11-2018 02:50:00 5.4 C 97 % 4.96 C
1764 29-11-2018 02:55:00 5.4 C 97 % 4.96 C
1765 29-11-2018 03:00:00 5.4 C 97 % 4.96 C
1766 29-11-2018 03:05:00 5.5 C 97 % 5.06 C
1767 29-11-2018 03:10:00 5.6 C 97 % 5.16 C
1768 29-11-2018 03:15:00 5.6 C 97 % 5.16 C
1769 29-11-2018 03:20:00 5.6 C 97 % 5.16 C
1770 29-11-2018 03:25:00 5.6 C 97 % 5.16 C
1771 29-11-2018 03:30:00 5.6 C 97 % 5.16 C
1772 29-11-2018 03:35:00 5.6 C 97 % 5.16 C
1773 29-11-2018 03:40:00 5.6 C 97 % 5.16 C
1774 29-11-2018 03:45:00 5.6 C 97 % 5.16 C
1775 29-11-2018 03:50:00 5.6 C 97 % 5.16 C
Sensor: Nr:Datum:Temp:Feuchte:Taupunkt:
Aussen-T/F 1776 29-11-2018 03:55:00 5.6 C 97 % 5.16 C
1777 29-11-2018 04:00:00 5.6 C 97 % 5.16 C
1778 29-11-2018 04:05:00 5.7 C 97 % 5.26 C
1779 29-11-2018 04:10:00 5.7 C 97 % 5.26 C
1780 29-11-2018 04:15:00 5.6 C 97 % 5.16 C
1781 29-11-2018 04:20:00 5.6 C 97 % 5.16 C
1782 29-11-2018 04:25:00 5.6 C 97 % 5.16 C
1783 29-11-2018 04:30:00 5.6 C 97 % 5.16 C
1784 29-11-2018 04:35:00 5.6 C 97 % 5.16 C
1785 29-11-2018 04:40:00 5.6 C 97 % 5.16 C
1786 29-11-2018 04:45:00 5.6 C 97 % 5.16 C
1787 29-11-2018 04:50:00 5.7 C 97 % 5.26 C
1788 29-11-2018 04:55:00 5.7 C 97 % 5.26 C
1789 29-11-2018 05:00:00 5.7 C 97 % 5.26 C
1790 29-11-2018 05:05:00 5.7 C 97 % 5.26 C
1791 29-11-2018 05:10:00 5.6 C 97 % 5.16 C
1792 29-11-2018 05:15:00 5.6 C 97 % 5.16 C
1793 29-11-2018 05:20:00 5.6 C 97 % 5.16 C
1794 29-11-2018 05:25:00 5.5 C 97 % 5.06 C
1795 29-11-2018 05:30:00 5.5 C 97 % 5.06 C
1796 29-11-2018 05:35:00 5.4 C 97 % 4.96 C
1797 29-11-2018 05:40:00 5.4 C 97 % 4.96 C
1798 29-11-2018 05:45:00 5.4 C 97 % 4.96 C
1799 29-11-2018 05:50:00 5.3 C 96 % 4.72 C
1800 29-11-2018 05:55:00 5.3 C 96 % 4.72 C
Sensor: Nr:Datum:Temp:Feuchte:Taupunkt:
Aussen-T/F 1801 29-11-2018 06:00:00 5.3 C 96 % 4.72 C
1802 29-11-2018 06:05:00 5.3 C 96 % 4.72 C
1803 29-11-2018 06:10:00 5.3 C 96 % 4.72 C
1804 29-11-2018 06:15:00 5.3 C 96 % 4.72 C
1805 29-11-2018 06:20:00 5.2 C 96 % 4.62 C
1806 29-11-2018 06:25:00 5.2 C 96 % 4.62 C
1807 29-11-2018 06:30:00 5.2 C 96 % 4.62 C
1808 29-11-2018 06:35:00 5.2 C 96 % 4.62 C
1809 29-11-2018 06:40:00 5.2 C 96 % 4.62 C
1810 29-11-2018 06:45:00 5.2 C 96 % 4.62 C
1811 29-11-2018 06:50:00 5.2 C 96 % 4.62 C
1812 29-11-2018 06:55:00 5.2 C 96 % 4.62 C
1813 29-11-2018 07:00:00 5.2 C 96 % 4.62 C
1814 29-11-2018 07:05:00 5.2 C 96 % 4.62 C
1815 29-11-2018 07:10:00 5.2 C 96 % 4.62 C
1816 29-11-2018 07:15:00 5.2 C 96 % 4.62 C
1817 29-11-2018 07:20:00 5.2 C 95 % 4.47 C
1818 29-11-2018 07:25:00 5.2 C 95 % 4.47 C
1819 29-11-2018 07:30:00 5.2 C 95 % 4.47 C
1820 29-11-2018 07:35:00 5.2 C 95 % 4.47 C
1821 29-11-2018 07:40:00 5.2 C 95 % 4.47 C
1822 29-11-2018 07:45:00 5.3 C 95 % 4.57 C
1823 29-11-2018 07:50:00 5.3 C 95 % 4.57 C
1824 29-11-2018 07:55:00 5.3 C 95 % 4.57 C
1825 29-11-2018 08:00:00 5.3 C 95 % 4.57 C
Sensor: Nr:Datum:Temp:Feuchte:Taupunkt:
Aussen-T/F 1826 29-11-2018 08:05:00 5.3 C 94 % 4.41 C
1827 29-11-2018 08:10:00 5.3 C 94 % 4.41 C
1828 29-11-2018 08:15:00 5.3 C 94 % 4.41 C
1829 29-11-2018 08:20:00 5.4 C 94 % 4.51 C
1830 29-11-2018 08:25:00 5.4 C 94 % 4.51 C
1831 29-11-2018 08:30:00 5.4 C 93 % 4.36 C
1832 29-11-2018 08:35:00 5.4 C 94 % 4.51 C
1833 29-11-2018 08:40:00 5.4 C 94 % 4.51 C
1834 29-11-2018 08:45:00 5.4 C 94 % 4.51 C
1835 29-11-2018 08:50:00 5.4 C 93 % 4.36 C
1836 29-11-2018 08:55:00 5.4 C 93 % 4.36 C
1837 29-11-2018 09:00:00 5.4 C 93 % 4.36 C
1838 29-11-2018 09:05:00 5.4 C 93 % 4.36 C
1839 29-11-2018 09:10:00 5.4 C 93 % 4.36 C
1840 29-11-2018 09:15:00 5.4 C 93 % 4.36 C
1841 29-11-2018 09:20:00 5.4 C 92 % 4.21 C
1842 29-11-2018 09:25:00 5.4 C 92 % 4.21 C
1843 29-11-2018 09:30:00 5.4 C 92 % 4.21 C
1844 29-11-2018 09:35:00 5.5 C 92 % 4.31 C
1845 29-11-2018 09:40:00 5.5 C 92 % 4.31 C
1846 29-11-2018 09:45:00 5.6 C 92 % 4.41 C
1847 29-11-2018 09:50:00 5.6 C 92 % 4.41 C
1848 29-11-2018 09:55:00 5.6 C 92 % 4.41 C
1849 29-11-2018 10:00:00 5.7 C 92 % 4.5 C
1850 29-11-2018 10:05:00 5.7 C 92 % 4.5 C
Sensor: Nr:Datum:Temp:Feuchte:Taupunkt:
Aussen-T/F 1851 29-11-2018 10:10:00 5.7 C 92 % 4.5 C
1852 29-11-2018 10:15:00 5.8 C 92 % 4.6 C
1853 29-11-2018 10:20:00 5.8 C 91 % 4.45 C
1854 29-11-2018 10:25:00 5.9 C 91 % 4.55 C
1855 29-11-2018 10:30:00 6 C 91 % 4.65 C
1856 29-11-2018 10:35:00 6.1 C 91 % 4.74 C
1857 29-11-2018 10:40:00 6.1 C 91 % 4.74 C
1858 29-11-2018 10:45:00 6.2 C 91 % 4.84 C
1859 29-11-2018 10:50:00 6.2 C 91 % 4.84 C
1860 29-11-2018 10:55:00 6.2 C 90 % 4.69 C
1861 29-11-2018 11:00:00 6.3 C 90 % 4.78 C
1862 29-11-2018 11:05:00 6.3 C 90 % 4.78 C
1863 29-11-2018 11:10:00 6.4 C 90 % 4.88 C
1864 29-11-2018 11:15:00 6.4 C 90 % 4.88 C
1865 29-11-2018 11:20:00 6.4 C 90 % 4.88 C
1866 29-11-2018 11:25:00 6.5 C 89 % 4.82 C
1867 29-11-2018 11:30:00 6.6 C 89 % 4.92 C
1868 29-11-2018 11:35:00 6.6 C 89 % 4.92 C
1869 29-11-2018 11:40:00 6.6 C 89 % 4.92 C
1870 29-11-2018 11:45:00 6.6 C 88 % 4.76 C
1871 29-11-2018 11:50:00 6.7 C 89 % 5.02 C
1872 29-11-2018 11:55:00 6.7 C 88 % 4.86 C
1873 29-11-2018 12:00:00 6.7 C 89 % 5.02 C
1874 29-11-2018 12:05:00 6.7 C 88 % 4.86 C
1875 29-11-2018 12:10:00 6.8 C 89 % 5.12 C
Sensor: Nr:Datum:Temp:Feuchte:Taupunkt:
Aussen-T/F 1876 29-11-2018 12:15:00 6.8 C 88 % 4.96 C
1877 29-11-2018 12:20:00 6.8 C 88 % 4.96 C
1878 29-11-2018 12:25:00 6.8 C 88 % 4.96 C
1879 29-11-2018 12:30:00 6.8 C 88 % 4.96 C
1880 29-11-2018 12:35:00 6.8 C 88 % 4.96 C
1881 29-11-2018 12:40:00 6.8 C 88 % 4.96 C
1882 29-11-2018 12:45:00 6.8 C 87 % 4.79 C
1883 29-11-2018 12:50:00 6.8 C 87 % 4.79 C
1884 29-11-2018 12:55:00 6.8 C 88 % 4.96 C
1885 29-11-2018 13:05:00 6.7 C 89 % 5.02 C
1886 29-11-2018 13:10:00 6.6 C 89 % 4.92 C
1887 29-11-2018 13:15:00 6.6 C 89 % 4.92 C
1888 29-11-2018 13:20:00 6.5 C 89 % 4.82 C
1889 29-11-2018 13:25:00 6.5 C 89 % 4.82 C
1890 29-11-2018 13:30:00 6.5 C 89 % 4.82 C
1891 29-11-2018 13:35:00 6.4 C 89 % 4.72 C
1892 29-11-2018 13:40:00 6.4 C 89 % 4.72 C
1893 29-11-2018 13:45:00 6.4 C 90 % 4.88 C
1894 29-11-2018 13:50:00 6.4 C 90 % 4.88 C
1895 29-11-2018 13:55:00 6.4 C 89 % 4.72 C
1896 29-11-2018 14:00:00 6.4 C 89 % 4.72 C
1897 29-11-2018 14:05:00 6.4 C 89 % 4.72 C
1898 29-11-2018 14:10:00 6.4 C 89 % 4.72 C
1899 29-11-2018 14:15:00 6.6 C 89 % 4.92 C
1900 29-11-2018 14:20:00 6.7 C 90 % 5.18 C
Sensor: Nr:Datum:Temp:Feuchte:Taupunkt:
Aussen-T/F 1901 29-11-2018 14:25:00 6.8 C 89 % 5.12 C
1902 29-11-2018 14:30:00 6.9 C 89 % 5.22 C
1903 29-11-2018 14:35:00 6.9 C 89 % 5.22 C
1904 29-11-2018 14:40:00 6.9 C 89 % 5.22 C
1905 29-11-2018 14:45:00 6.9 C 89 % 5.22 C
1906 29-11-2018 14:50:00 6.9 C 89 % 5.22 C
1907 29-11-2018 14:55:00 6.9 C 89 % 5.22 C
1908 29-11-2018 15:00:00 6.8 C 89 % 5.12 C
1909 29-11-2018 15:05:00 6.8 C 89 % 5.12 C
1910 29-11-2018 15:10:00 6.8 C 88 % 4.96 C
1911 29-11-2018 15:15:00 6.8 C 88 % 4.96 C
1912 29-11-2018 15:20:00 6.8 C 88 % 4.96 C
1913 29-11-2018 15:25:00 6.8 C 88 % 4.96 C
1914 29-11-2018 15:30:00 6.7 C 88 % 4.86 C
1915 29-11-2018 15:35:00 6.7 C 88 % 4.86 C
1916 29-11-2018 15:40:00 6.7 C 88 % 4.86 C
1917 29-11-2018 15:45:00 6.6 C 88 % 4.76 C
1918 29-11-2018 15:50:00 6.6 C 88 % 4.76 C
1919 29-11-2018 15:55:00 6.6 C 88 % 4.76 C
1920 29-11-2018 16:00:00 6.6 C 88 % 4.76 C
1921 29-11-2018 16:05:00 6.6 C 88 % 4.76 C
1922 29-11-2018 16:10:00 6.5 C 88 % 4.66 C
1923 29-11-2018 16:15:00 6.4 C 88 % 4.56 C
1924 29-11-2018 16:20:00 6.4 C 87 % 4.4 C
1925 29-11-2018 16:25:00 6.4 C 88 % 4.56 C
Sensor: Nr:Datum:Temp:Feuchte:Taupunkt:
Aussen-T/F 1926 29-11-2018 16:30:00 6.4 C 88 % 4.56 C
1927 29-11-2018 16:35:00 6.3 C 88 % 4.46 C
1928 29-11-2018 16:40:00 6.2 C 87 % 4.2 C
1929 29-11-2018 16:45:00 6.2 C 87 % 4.2 C
1930 29-11-2018 16:50:00 6.1 C 88 % 4.27 C
1931 29-11-2018 16:55:00 6 C 88 % 4.17 C
1932 29-11-2018 17:00:00 5.9 C 88 % 4.07 C
1933 29-11-2018 17:05:00 5.9 C 88 % 4.07 C
1934 29-11-2018 17:10:00 5.9 C 88 % 4.07 C
1935 29-11-2018 17:15:00 5.8 C 88 % 3.97 C
1936 29-11-2018 17:20:00 5.8 C 88 % 3.97 C
1937 29-11-2018 17:25:00 5.7 C 88 % 3.87 C
1938 29-11-2018 17:30:00 5.6 C 89 % 3.93 C
1939 29-11-2018 17:35:00 5.6 C 89 % 3.93 C
1940 29-11-2018 17:40:00 5.6 C 89 % 3.93 C
1941 29-11-2018 17:45:00 5.5 C 89 % 3.84 C
1942 29-11-2018 17:50:00 5.3 C 89 % 3.64 C
1943 29-11-2018 17:55:00 5.3 C 89 % 3.64 C
1944 29-11-2018 18:00:00 5.2 C 89 % 3.54 C
1945 29-11-2018 18:05:00 5.1 C 90 % 3.6 C
1946 29-11-2018 18:10:00 5.1 C 90 % 3.6 C
1947 29-11-2018 18:15:00 5.1 C 91 % 3.76 C
1948 29-11-2018 18:20:00 5.1 C 91 % 3.76 C
1949 29-11-2018 18:25:00 5.1 C 91 % 3.76 C
1950 29-11-2018 18:30:00 5.1 C 91 % 3.76 C
Sensor: Nr:Datum:Temp:Feuchte:Taupunkt:
Aussen-T/F 1951 29-11-2018 18:35:00 5.1 C 91 % 3.76 C
1952 29-11-2018 18:40:00 5.1 C 91 % 3.76 C
1953 29-11-2018 18:45:00 5 C 91 % 3.66 C
1954 29-11-2018 18:50:00 5 C 91 % 3.66 C
1955 29-11-2018 18:55:00 4.9 C 92 % 3.71 C
1956 29-11-2018 19:00:00 4.9 C 92 % 3.71 C
1957 29-11-2018 19:05:00 4.9 C 92 % 3.71 C
1958 29-11-2018 19:10:00 4.9 C 92 % 3.71 C
1959 29-11-2018 19:15:00 4.9 C 93 % 3.87 C
1960 29-11-2018 19:20:00 4.9 C 93 % 3.87 C
1961 29-11-2018 19:25:00 5 C 93 % 3.96 C
1962 29-11-2018 19:30:00 5.1 C 93 % 4.06 C
1963 29-11-2018 19:35:00 5.1 C 93 % 4.06 C
1964 29-11-2018 19:40:00 5.1 C 93 % 4.06 C
1965 29-11-2018 19:45:00 5.1 C 93 % 4.06 C
1966 29-11-2018 19:50:00 5.2 C 93 % 4.16 C
1967 29-11-2018 19:55:00 5.2 C 93 % 4.16 C
1968 29-11-2018 20:00:00 5.2 C 93 % 4.16 C
1969 29-11-2018 20:05:00 5.2 C 93 % 4.16 C
1970 29-11-2018 20:10:00 5.2 C 93 % 4.16 C
1971 29-11-2018 20:15:00 5.2 C 93 % 4.16 C
1972 29-11-2018 20:20:00 5.2 C 93 % 4.16 C
1973 29-11-2018 20:25:00 5.2 C 93 % 4.16 C
1974 29-11-2018 20:30:00 5.2 C 93 % 4.16 C
1975 29-11-2018 20:35:00 5.2 C 94 % 4.32 C
Sensor: Nr:Datum:Temp:Feuchte:Taupunkt:
Aussen-T/F 1976 29-11-2018 20:40:00 5.3 C 94 % 4.41 C
1977 29-11-2018 20:45:00 5.3 C 94 % 4.41 C
1978 29-11-2018 20:50:00 5.3 C 94 % 4.41 C
1979 29-11-2018 20:55:00 5.3 C 94 % 4.41 C
1980 29-11-2018 21:00:00 5.3 C 93 % 4.26 C
1981 29-11-2018 21:05:00 5.3 C 93 % 4.26 C
1982 29-11-2018 21:10:00 5.2 C 93 % 4.16 C
1983 29-11-2018 21:15:00 5.2 C 93 % 4.16 C
1984 29-11-2018 21:20:00 5.1 C 93 % 4.06 C
1985 29-11-2018 21:25:00 4.9 C 93 % 3.87 C
1986 29-11-2018 21:30:00 4.9 C 93 % 3.87 C
1987 29-11-2018 21:35:00 4.8 C 93 % 3.77 C
1988 29-11-2018 21:40:00 4.7 C 93 % 3.67 C
1989 29-11-2018 21:45:00 4.7 C 93 % 3.67 C
1990 29-11-2018 21:50:00 4.6 C 93 % 3.57 C
1991 29-11-2018 21:55:00 4.6 C 94 % 3.72 C
1992 29-11-2018 22:00:00 4.7 C 94 % 3.82 C
1993 29-11-2018 22:05:00 4.7 C 94 % 3.82 C
1994 29-11-2018 22:10:00 4.8 C 94 % 3.92 C
1995 29-11-2018 22:15:00 4.8 C 95 % 4.07 C
1996 29-11-2018 22:20:00 4.9 C 95 % 4.17 C
1997 29-11-2018 22:25:00 4.9 C 94 % 4.02 C
1998 29-11-2018 22:30:00 5 C 95 % 4.27 C
1999 29-11-2018 22:35:00 5.1 C 95 % 4.37 C
2000 29-11-2018 22:40:00 5.2 C 95 % 4.47 C
Sensor: Nr:Datum:Temp:Feuchte:Taupunkt:
Aussen-T/F 2001 29-11-2018 22:45:00 5.3 C 94 % 4.41 C
2002 29-11-2018 22:50:00 5.3 C 94 % 4.41 C
2003 29-11-2018 22:55:00 5.3 C 94 % 4.41 C
2004 29-11-2018 23:00:00 5.3 C 94 % 4.41 C
2005 29-11-2018 23:05:00 5.3 C 94 % 4.41 C
2006 29-11-2018 23:10:00 5.3 C 94 % 4.41 C
2007 29-11-2018 23:15:00 5.3 C 94 % 4.41 C
2008 29-11-2018 23:20:00 5.4 C 94 % 4.51 C
2009 29-11-2018 23:25:00 5.5 C 93 % 4.46 C
2010 29-11-2018 23:30:00 5.5 C 93 % 4.46 C
2011 29-11-2018 23:35:00 5.5 C 93 % 4.46 C
2012 29-11-2018 23:40:00 5.5 C 93 % 4.46 C
2013 29-11-2018 23:45:00 5.4 C 93 % 4.36 C
2014 29-11-2018 23:50:00 5.4 C 93 % 4.36 C
2015 29-11-2018 23:55:00 5.4 C 93 % 4.36 C
2016 30-11-2018 00:00:00 5.5 C 94 % 4.61 C
2017 30-11-2018 00:05:00 5.5 C 94 % 4.61 C
2018 30-11-2018 00:10:00 5.6 C 94 % 4.71 C
2019 30-11-2018 00:15:00 5.6 C 94 % 4.71 C
2020 30-11-2018 00:20:00 5.7 C 94 % 4.81 C
2021 30-11-2018 00:25:00 5.7 C 94 % 4.81 C
2022 30-11-2018 00:30:00 5.8 C 94 % 4.91 C
2023 30-11-2018 00:35:00 5.8 C 94 % 4.91 C
2024 30-11-2018 00:40:00 5.9 C 94 % 5.01 C
2025 30-11-2018 00:45:00 5.9 C 94 % 5.01 C
Sensor: Nr:Datum:Temp:Feuchte:Taupunkt:
Aussen-T/F 2026 30-11-2018 00:50:00 6.1 C 94 % 5.21 C
2027 30-11-2018 00:55:00 6.1 C 94 % 5.21 C
2028 30-11-2018 01:00:00 6.2 C 94 % 5.31 C
2029 30-11-2018 01:05:00 6.3 C 94 % 5.41 C
2030 30-11-2018 01:10:00 6.3 C 94 % 5.41 C
2031 30-11-2018 01:15:00 6.3 C 94 % 5.41 C
2032 30-11-2018 01:20:00 6.4 C 94 % 5.51 C
2033 30-11-2018 01:25:00 6.4 C 94 % 5.51 C
2034 30-11-2018 01:30:00 6.4 C 94 % 5.51 C
2035 30-11-2018 01:35:00 6.3 C 94 % 5.41 C
2036 30-11-2018 01:40:00 6.3 C 93 % 5.25 C
2037 30-11-2018 01:45:00 6.3 C 94 % 5.41 C
2038 30-11-2018 01:50:00 6.3 C 94 % 5.41 C
2039 30-11-2018 01:55:00 6.3 C 94 % 5.41 C
2040 30-11-2018 02:00:00 6.3 C 94 % 5.41 C
2041 30-11-2018 02:05:00 6.3 C 94 % 5.41 C
2042 30-11-2018 02:10:00 6.3 C 94 % 5.41 C
2043 30-11-2018 02:15:00 6.3 C 94 % 5.41 C
2044 30-11-2018 02:20:00 6.3 C 94 % 5.41 C
2045 30-11-2018 02:25:00 6.3 C 94 % 5.41 C
2046 30-11-2018 02:30:00 6.3 C 94 % 5.41 C
2047 30-11-2018 02:35:00 6.2 C 94 % 5.31 C
2048 30-11-2018 02:40:00 6.2 C 93 % 5.15 C
2049 30-11-2018 02:45:00 6.2 C 93 % 5.15 C
2050 30-11-2018 02:50:00 6.2 C 93 % 5.15 C
Sensor: Nr:Datum:Temp:Feuchte:Taupunkt:
Aussen-T/F 2051 30-11-2018 02:55:00 6.2 C 93 % 5.15 C
2052 30-11-2018 03:00:00 6.2 C 94 % 5.31 C
2053 30-11-2018 03:05:00 6.2 C 94 % 5.31 C
2054 30-11-2018 03:10:00 6.2 C 94 % 5.31 C
2055 30-11-2018 03:15:00 6.3 C 94 % 5.41 C
2056 30-11-2018 03:20:00 6.3 C 94 % 5.41 C
2057 30-11-2018 03:25:00 6.4 C 94 % 5.51 C
2058 30-11-2018 03:30:00 6.4 C 94 % 5.51 C
2059 30-11-2018 03:35:00 6.5 C 94 % 5.61 C
2060 30-11-2018 03:40:00 6.7 C 94 % 5.8 C
2061 30-11-2018 03:45:00 6.7 C 94 % 5.8 C
2062 30-11-2018 03:50:00 6.8 C 94 % 5.9 C
2063 30-11-2018 03:55:00 6.8 C 94 % 5.9 C
2064 30-11-2018 04:00:00 6.8 C 94 % 5.9 C
2065 30-11-2018 04:05:00 6.8 C 94 % 5.9 C
2066 30-11-2018 04:10:00 6.8 C 94 % 5.9 C
2067 30-11-2018 04:15:00 6.7 C 94 % 5.8 C
2068 30-11-2018 04:20:00 6.7 C 94 % 5.8 C
2069 30-11-2018 04:25:00 6.7 C 94 % 5.8 C
2070 30-11-2018 04:30:00 6.7 C 95 % 5.96 C
2071 30-11-2018 04:35:00 6.6 C 95 % 5.86 C
2072 30-11-2018 04:40:00 6.6 C 95 % 5.86 C
2073 30-11-2018 04:45:00 6.6 C 95 % 5.86 C
2074 30-11-2018 04:50:00 6.6 C 95 % 5.86 C
2075 30-11-2018 04:55:00 6.6 C 95 % 5.86 C
Sensor: Nr:Datum:Temp:Feuchte:Taupunkt:
Aussen-T/F 2076 30-11-2018 05:00:00 6.6 C 95 % 5.86 C
2077 30-11-2018 05:05:00 6.5 C 95 % 5.76 C
2078 30-11-2018 05:10:00 6.5 C 95 % 5.76 C
2079 30-11-2018 05:15:00 6.4 C 95 % 5.66 C
2080 30-11-2018 05:20:00 6.4 C 95 % 5.66 C
2081 30-11-2018 05:25:00 6.4 C 95 % 5.66 C
2082 30-11-2018 05:30:00 6.3 C 95 % 5.56 C
2083 30-11-2018 05:35:00 6.3 C 95 % 5.56 C
2084 30-11-2018 05:40:00 6.3 C 95 % 5.56 C
2085 30-11-2018 05:45:00 6.2 C 95 % 5.46 C
2086 30-11-2018 05:50:00 6.3 C 95 % 5.56 C
2087 30-11-2018 05:55:00 6.2 C 95 % 5.46 C
2088 30-11-2018 06:00:00 6.2 C 96 % 5.61 C
2089 30-11-2018 06:05:00 6.2 C 96 % 5.61 C
2090 30-11-2018 06:10:00 6.2 C 96 % 5.61 C
2091 30-11-2018 06:15:00 6.3 C 96 % 5.71 C
2092 30-11-2018 06:20:00 6.3 C 96 % 5.71 C
2093 30-11-2018 06:25:00 6.3 C 96 % 5.71 C
2094 30-11-2018 06:30:00 6.3 C 96 % 5.71 C
2095 30-11-2018 06:35:00 6.3 C 96 % 5.71 C
2096 30-11-2018 06:40:00 6.4 C 96 % 5.81 C
2097 30-11-2018 06:45:00 6.5 C 96 % 5.91 C
2098 30-11-2018 06:50:00 6.5 C 96 % 5.91 C
2099 30-11-2018 06:55:00 6.5 C 96 % 5.91 C
2100 30-11-2018 07:00:00 6.6 C 96 % 6.01 C
Sensor: Nr:Datum:Temp:Feuchte:Taupunkt:
Aussen-T/F 2101 30-11-2018 07:05:00 6.6 C 96 % 6.01 C
2102 30-11-2018 07:10:00 6.6 C 96 % 6.01 C
2103 30-11-2018 07:15:00 6.7 C 96 % 6.11 C
2104 30-11-2018 07:20:00 6.7 C 96 % 6.11 C
2105 30-11-2018 07:25:00 6.8 C 96 % 6.21 C
2106 30-11-2018 07:30:00 6.8 C 96 % 6.21 C
2107 30-11-2018 07:35:00 6.8 C 96 % 6.21 C
2108 30-11-2018 07:40:00 6.8 C 96 % 6.21 C
2109 30-11-2018 07:45:00 6.8 C 96 % 6.21 C
2110 30-11-2018 07:50:00 6.8 C 96 % 6.21 C
2111 30-11-2018 07:55:00 6.8 C 96 % 6.21 C
2112 30-11-2018 08:00:00 6.7 C 96 % 6.11 C
2113 30-11-2018 08:05:00 6.7 C 96 % 6.11 C
2114 30-11-2018 08:10:00 6.7 C 96 % 6.11 C
2115 30-11-2018 08:15:00 6.6 C 96 % 6.01 C
2116 30-11-2018 08:20:00 6.6 C 96 % 6.01 C
2117 30-11-2018 08:25:00 6.5 C 96 % 5.91 C
2118 30-11-2018 08:30:00 6.4 C 96 % 5.81 C
2119 30-11-2018 08:35:00 6.4 C 96 % 5.81 C
2120 30-11-2018 08:40:00 6.3 C 96 % 5.71 C
2121 30-11-2018 08:45:00 6.3 C 96 % 5.71 C
2122 30-11-2018 08:50:00 6.3 C 96 % 5.71 C
2123 30-11-2018 08:55:00 6.4 C 96 % 5.81 C
2124 30-11-2018 09:00:00 6.4 C 97 % 5.96 C
2125 30-11-2018 09:05:00 6.5 C 97 % 6.06 C
Sensor: Nr:Datum:Temp:Feuchte:Taupunkt:
Aussen-T/F 2126 30-11-2018 09:10:00 6.6 C 97 % 6.16 C
2127 30-11-2018 09:15:00 6.6 C 97 % 6.16 C
2128 30-11-2018 09:20:00 6.7 C 97 % 6.26 C
2129 30-11-2018 09:25:00 6.7 C 97 % 6.26 C
2130 30-11-2018 09:30:00 6.7 C 97 % 6.26 C
2131 30-11-2018 09:35:00 6.8 C 97 % 6.36 C
2132 30-11-2018 09:40:00 6.9 C 97 % 6.46 C
2133 30-11-2018 09:45:00 7 C 97 % 6.56 C
2134 30-11-2018 09:50:00 7 C 97 % 6.56 C
2135 30-11-2018 09:55:00 7 C 97 % 6.56 C
2136 30-11-2018 10:00:00 7.1 C 97 % 6.66 C
2137 30-11-2018 10:05:00 7.1 C 97 % 6.66 C
2138 30-11-2018 10:10:00 7.1 C 97 % 6.66 C
2139 30-11-2018 10:15:00 7.2 C 97 % 6.76 C
2140 30-11-2018 10:20:00 7.3 C 97 % 6.86 C
2141 30-11-2018 10:25:00 7.3 C 97 % 6.86 C
2142 30-11-2018 10:30:00 7.3 C 97 % 6.86 C
2143 30-11-2018 10:35:00 7.4 C 97 % 6.96 C
2144 30-11-2018 10:40:00 7.4 C 97 % 6.96 C
2145 30-11-2018 10:45:00 7.4 C 97 % 6.96 C
2146 30-11-2018 10:50:00 7.4 C 97 % 6.96 C
2147 30-11-2018 10:55:00 7.5 C 97 % 7.06 C
2148 30-11-2018 11:00:00 7.5 C 97 % 7.06 C
2149 30-11-2018 11:05:00 7.6 C 97 % 7.16 C
2150 30-11-2018 11:10:00 7.6 C 97 % 7.16 C
Sensor: Nr:Datum:Temp:Feuchte:Taupunkt:
Aussen-T/F 2151 30-11-2018 11:15:00 7.7 C 97 % 7.25 C
2152 30-11-2018 11:20:00 7.8 C 97 % 7.35 C
2153 30-11-2018 11:25:00 7.9 C 97 % 7.45 C
2154 30-11-2018 11:30:00 7.9 C 97 % 7.45 C
2155 30-11-2018 11:35:00 8 C 97 % 7.55 C
2156 30-11-2018 11:40:00 8.1 C 97 % 7.65 C
2157 30-11-2018 11:45:00 8.1 C 97 % 7.65 C
2158 30-11-2018 11:50:00 8.2 C 97 % 7.75 C
2159 30-11-2018 11:55:00 8.2 C 97 % 7.75 C
2160 30-11-2018 12:00:00 8.2 C 97 % 7.75 C
2161 30-11-2018 12:05:00 8.3 C 97 % 7.85 C
2162 30-11-2018 12:10:00 8.4 C 97 % 7.95 C
2163 30-11-2018 12:15:00 8.4 C 97 % 7.95 C
2164 30-11-2018 12:20:00 8.5 C 97 % 8.05 C
2165 30-11-2018 12:25:00 8.5 C 97 % 8.05 C
2166 30-11-2018 12:30:00 8.5 C 97 % 8.05 C
2167 30-11-2018 12:35:00 8.4 C 97 % 7.95 C
2168 30-11-2018 12:40:00 8.4 C 97 % 7.95 C
2169 30-11-2018 12:45:00 8.4 C 97 % 7.95 C
2170 30-11-2018 12:50:00 8.5 C 96 % 7.9 C
2171 30-11-2018 12:55:00 8.6 C 96 % 8 C
2172 30-11-2018 13:00:00 8.7 C 97 % 8.25 C
2173 30-11-2018 13:05:00 8.7 C 97 % 8.25 C
2174 30-11-2018 13:10:00 8.7 C 96 % 8.1 C
2175 30-11-2018 13:15:00 8.8 C 96 % 8.2 C
Sensor: Nr:Datum:Temp:Feuchte:Taupunkt:
Aussen-T/F 2176 30-11-2018 13:20:00 8.8 C 96 % 8.2 C
2177 30-11-2018 13:25:00 8.9 C 97 % 8.45 C
2178 30-11-2018 13:30:00 9.1 C 97 % 8.65 C
2179 30-11-2018 13:35:00 9.2 C 96 % 8.6 C
2180 30-11-2018 13:40:00 9.3 C 96 % 8.7 C
2181 30-11-2018 13:45:00 9.3 C 96 % 8.7 C
2182 30-11-2018 13:50:00 9.4 C 96 % 8.8 C
2183 30-11-2018 13:55:00 9.6 C 96 % 8.99 C
2184 30-11-2018 14:00:00 9.7 C 97 % 9.25 C
2185 30-11-2018 14:05:00 9.8 C 96 % 9.19 C
2186 30-11-2018 14:10:00 9.7 C 96 % 9.09 C
2187 30-11-2018 14:15:00 9.7 C 95 % 8.94 C
2188 30-11-2018 14:20:00 9.6 C 95 % 8.84 C
2189 30-11-2018 14:25:00 9.6 C 95 % 8.84 C
2190 30-11-2018 14:30:00 9.6 C 95 % 8.84 C
2191 30-11-2018 14:35:00 9.4 C 94 % 8.48 C
2192 30-11-2018 14:40:00 9.4 C 94 % 8.48 C
2193 30-11-2018 14:45:00 9.5 C 94 % 8.58 C
2194 30-11-2018 14:50:00 9.5 C 94 % 8.58 C
2195 30-11-2018 14:55:00 9.5 C 94 % 8.58 C
2196 30-11-2018 15:00:00 9.5 C 94 % 8.58 C
2197 30-11-2018 15:05:00 9.5 C 94 % 8.58 C
2198 30-11-2018 15:10:00 9.4 C 93 % 8.33 C
2199 30-11-2018 15:15:00 9.4 C 93 % 8.33 C
2200 30-11-2018 15:20:00 9.3 C 93 % 8.23 C
Sensor: Nr:Datum:Temp:Feuchte:Taupunkt:
Aussen-T/F 2201 30-11-2018 15:25:00 9.3 C 93 % 8.23 C
2202 30-11-2018 15:30:00 9.2 C 93 % 8.13 C
2203 30-11-2018 15:35:00 9.2 C 92 % 7.97 C
2204 30-11-2018 15:40:00 9.2 C 92 % 7.97 C
2205 30-11-2018 15:45:00 9.2 C 92 % 7.97 C
2206 30-11-2018 15:50:00 9.2 C 92 % 7.97 C
2207 30-11-2018 15:55:00 9.2 C 92 % 7.97 C
2208 30-11-2018 16:00:00 9.1 C 92 % 7.87 C
2209 30-11-2018 16:05:00 9.1 C 92 % 7.87 C
2210 30-11-2018 16:10:00 9.1 C 92 % 7.87 C
2211 30-11-2018 16:15:00 9.1 C 92 % 7.87 C
2212 30-11-2018 16:20:00 9.1 C 92 % 7.87 C
2213 30-11-2018 16:25:00 9 C 92 % 7.77 C
2214 30-11-2018 16:30:00 9 C 92 % 7.77 C
2215 30-11-2018 16:35:00 8.9 C 93 % 7.83 C
2216 30-11-2018 16:40:00 8.9 C 93 % 7.83 C
2217 30-11-2018 16:45:00 8.9 C 93 % 7.83 C
2218 30-11-2018 16:50:00 8.9 C 93 % 7.83 C
2219 30-11-2018 16:55:00 8.9 C 93 % 7.83 C
2220 30-11-2018 17:00:00 8.9 C 93 % 7.83 C
2221 30-11-2018 17:05:00 8.9 C 93 % 7.83 C
2222 30-11-2018 17:10:00 8.9 C 93 % 7.83 C
2223 30-11-2018 17:15:00 8.9 C 93 % 7.83 C
2224 30-11-2018 17:20:00 8.8 C 93 % 7.73 C
2225 30-11-2018 17:25:00 8.8 C 93 % 7.73 C
Sensor: Nr:Datum:Temp:Feuchte:Taupunkt:
Aussen-T/F 2226 30-11-2018 17:30:00 8.8 C 93 % 7.73 C
2227 30-11-2018 17:35:00 8.8 C 93 % 7.73 C
2228 30-11-2018 17:40:00 8.8 C 93 % 7.73 C
2229 30-11-2018 17:45:00 8.8 C 93 % 7.73 C
2230 30-11-2018 17:50:00 8.9 C 93 % 7.83 C
2231 30-11-2018 17:55:00 8.9 C 93 % 7.83 C
2232 30-11-2018 18:00:00 8.9 C 93 % 7.83 C
2233 30-11-2018 18:05:00 8.9 C 93 % 7.83 C
2234 30-11-2018 18:10:00 8.8 C 93 % 7.73 C
2235 30-11-2018 18:15:00 8.7 C 93 % 7.63 C
2236 30-11-2018 18:20:00 8.6 C 93 % 7.53 C
2237 30-11-2018 18:25:00 8.4 C 93 % 7.34 C
2238 30-11-2018 18:30:00 8.3 C 93 % 7.24 C
2239 30-11-2018 18:35:00 8.3 C 93 % 7.24 C
2240 30-11-2018 18:40:00 8.2 C 93 % 7.14 C
2241 30-11-2018 18:45:00 8.2 C 93 % 7.14 C
2242 30-11-2018 18:50:00 8.2 C 94 % 7.29 C
2243 30-11-2018 18:55:00 8.2 C 94 % 7.29 C
2244 30-11-2018 19:00:00 8.3 C 94 % 7.39 C
2245 30-11-2018 19:05:00 8.3 C 94 % 7.39 C
2246 30-11-2018 19:10:00 8.3 C 94 % 7.39 C
2247 30-11-2018 19:15:00 8.3 C 94 % 7.39 C
2248 30-11-2018 19:20:00 8.3 C 94 % 7.39 C
2249 30-11-2018 19:25:00 8.3 C 94 % 7.39 C
2250 30-11-2018 19:30:00 8.3 C 94 % 7.39 C
Sensor: Nr:Datum:Temp:Feuchte:Taupunkt:
Aussen-T/F 2251 30-11-2018 19:35:00 8.3 C 94 % 7.39 C
2252 30-11-2018 19:40:00 8.3 C 94 % 7.39 C
2253 30-11-2018 19:45:00 8.3 C 94 % 7.39 C
2254 30-11-2018 19:50:00 8.2 C 95 % 7.45 C
2255 30-11-2018 19:55:00 8.2 C 94 % 7.29 C
2256 30-11-2018 20:00:00 8.1 C 94 % 7.19 C
2257 30-11-2018 20:05:00 7.9 C 94 % 7 C
2258 30-11-2018 20:10:00 7.7 C 94 % 6.8 C
2259 30-11-2018 20:15:00 7.5 C 93 % 6.44 C
2260 30-11-2018 20:20:00 7.3 C 93 % 6.25 C
2261 30-11-2018 20:25:00 7.2 C 94 % 6.3 C
2262 30-11-2018 20:30:00 7.1 C 94 % 6.2 C
2263 30-11-2018 20:35:00 7 C 94 % 6.1 C
2264 30-11-2018 20:40:00 7 C 95 % 6.26 C
2265 30-11-2018 20:45:00 7.2 C 95 % 6.45 C
2266 30-11-2018 20:50:00 7.5 C 96 % 6.9 C
2267 30-11-2018 20:55:00 7.8 C 96 % 7.2 C
2268 30-11-2018 21:00:00 8 C 96 % 7.4 C
2269 30-11-2018 21:05:00 8.1 C 96 % 7.5 C
2270 30-11-2018 21:10:00 8.2 C 95 % 7.45 C
2271 30-11-2018 21:15:00 8.3 C 95 % 7.55 C
2272 30-11-2018 21:20:00 8.3 C 94 % 7.39 C
2273 30-11-2018 21:25:00 8.3 C 94 % 7.39 C
2274 30-11-2018 21:30:00 8.3 C 93 % 7.24 C
2275 30-11-2018 21:35:00 8.3 C 93 % 7.24 C
Sensor: Nr:Datum:Temp:Feuchte:Taupunkt:
Aussen-T/F 2276 30-11-2018 21:40:00 8.2 C 93 % 7.14 C
2277 30-11-2018 21:45:00 8.1 C 92 % 6.88 C
2278 30-11-2018 21:50:00 7.9 C 92 % 6.68 C
2279 30-11-2018 21:55:00 7.8 C 92 % 6.58 C
2280 30-11-2018 22:00:00 7.7 C 92 % 6.48 C
2281 30-11-2018 22:05:00 7.5 C 92 % 6.29 C
2282 30-11-2018 22:10:00 7.4 C 93 % 6.34 C
2283 30-11-2018 22:15:00 7.3 C 92 % 6.09 C
2284 30-11-2018 22:20:00 7.2 C 93 % 6.15 C
2285 30-11-2018 22:25:00 7.1 C 93 % 6.05 C
2286 30-11-2018 22:30:00 6.9 C 93 % 5.85 C
2287 30-11-2018 22:35:00 6.8 C 93 % 5.75 C
2288 30-11-2018 22:40:00 6.8 C 94 % 5.9 C
2289 30-11-2018 22:45:00 6.8 C 94 % 5.9 C
2290 30-11-2018 22:50:00 6.7 C 94 % 5.8 C
2291 30-11-2018 22:55:00 6.5 C 93 % 5.45 C
2292 30-11-2018 23:00:00 6.3 C 94 % 5.41 C
2293 30-11-2018 23:05:00 6.2 C 93 % 5.15 C
2294 30-11-2018 23:10:00 6.1 C 93 % 5.06 C
2295 30-11-2018 23:15:00 5.9 C 93 % 4.86 C
2296 30-11-2018 23:20:00 5.8 C 94 % 4.91 C
2297 30-11-2018 23:25:00 5.7 C 94 % 4.81 C
2298 30-11-2018 23:30:00 5.7 C 94 % 4.81 C
2299 30-11-2018 23:35:00 5.6 C 94 % 4.71 C
2300 30-11-2018 23:40:00 5.5 C 94 % 4.61 C
Sensor: Nr:Datum:Temp:Feuchte:Taupunkt:
Aussen-T/F 2301 30-11-2018 23:45:00 5.4 C 94 % 4.51 C
2302 30-11-2018 23:50:00 5.4 C 94 % 4.51 C
2303 30-11-2018 23:55:00 5.4 C 95 % 4.66 C
2304 01-12-2018 00:00:00 5.3 C 95 % 4.57 C
2305 01-12-2018 00:05:00 5.3 C 95 % 4.57 C
2306 01-12-2018 00:10:00 5.2 C 95 % 4.47 C
2307 01-12-2018 00:15:00 5.2 C 95 % 4.47 C
2308 01-12-2018 00:20:00 5.2 C 95 % 4.47 C
2309 01-12-2018 00:25:00 5.2 C 95 % 4.47 C
2310 01-12-2018 00:30:00 5.2 C 95 % 4.47 C
2311 01-12-2018 00:35:00 5.3 C 96 % 4.72 C
2312 01-12-2018 00:40:00 5.5 C 96 % 4.91 C
2313 01-12-2018 00:45:00 5.6 C 96 % 5.01 C
2314 01-12-2018 00:50:00 5.4 C 96 % 4.81 C
2315 01-12-2018 00:55:00 5.2 C 95 % 4.47 C
2316 01-12-2018 01:00:00 5.1 C 95 % 4.37 C
2317 01-12-2018 01:05:00 5 C 95 % 4.27 C
2318 01-12-2018 01:10:00 5 C 96 % 4.42 C
2319 01-12-2018 01:15:00 5.1 C 96 % 4.52 C
2320 01-12-2018 01:20:00 5.3 C 96 % 4.72 C
2321 01-12-2018 01:25:00 5.3 C 96 % 4.72 C
2322 01-12-2018 01:30:00 5.3 C 96 % 4.72 C
2323 01-12-2018 01:35:00 5.4 C 96 % 4.81 C
2324 01-12-2018 01:40:00 5.5 C 96 % 4.91 C
2325 01-12-2018 01:45:00 5.6 C 96 % 5.01 C
Sensor: Nr:Datum:Temp:Feuchte:Taupunkt:
Aussen-T/F 2326 01-12-2018 01:50:00 5.8 C 97 % 5.36 C
2327 01-12-2018 01:55:00 5.8 C 97 % 5.36 C
2328 01-12-2018 02:00:00 5.9 C 96 % 5.31 C
2329 01-12-2018 02:05:00 5.9 C 96 % 5.31 C
2330 01-12-2018 02:10:00 6 C 96 % 5.41 C
2331 01-12-2018 02:15:00 6 C 97 % 5.56 C
2332 01-12-2018 02:20:00 6 C 97 % 5.56 C
2333 01-12-2018 02:25:00 6 C 96 % 5.41 C
2334 01-12-2018 02:30:00 5.9 C 96 % 5.31 C
2335 01-12-2018 02:35:00 5.9 C 96 % 5.31 C
2336 01-12-2018 02:40:00 5.8 C 96 % 5.21 C
2337 01-12-2018 02:45:00 5.7 C 96 % 5.11 C
2338 01-12-2018 02:50:00 5.7 C 96 % 5.11 C
2339 01-12-2018 02:55:00 5.6 C 96 % 5.01 C
2340 01-12-2018 03:00:00 5.5 C 96 % 4.91 C
2341 01-12-2018 03:05:00 5.4 C 96 % 4.81 C
2342 01-12-2018 03:10:00 5.3 C 96 % 4.72 C
2343 01-12-2018 03:15:00 5.2 C 96 % 4.62 C
2344 01-12-2018 03:20:00 5.1 C 96 % 4.52 C
2345 01-12-2018 03:25:00 5.1 C 96 % 4.52 C
2346 01-12-2018 03:30:00 5.1 C 96 % 4.52 C
2347 01-12-2018 03:35:00 5.2 C 96 % 4.62 C
2348 01-12-2018 03:40:00 5.2 C 96 % 4.62 C
2349 01-12-2018 03:45:00 5.3 C 96 % 4.72 C
2350 01-12-2018 03:50:00 5.3 C 96 % 4.72 C
Sensor: Nr:Datum:Temp:Feuchte:Taupunkt:
Aussen-T/F 2351 01-12-2018 03:55:00 5.3 C 96 % 4.72 C
2352 01-12-2018 04:00:00 5.4 C 96 % 4.81 C
2353 01-12-2018 04:05:00 5.4 C 96 % 4.81 C
2354 01-12-2018 04:10:00 5.3 C 96 % 4.72 C
2355 01-12-2018 04:15:00 5.3 C 96 % 4.72 C
2356 01-12-2018 04:20:00 5.2 C 96 % 4.62 C
2357 01-12-2018 04:25:00 5.1 C 96 % 4.52 C
2358 01-12-2018 04:30:00 5.1 C 96 % 4.52 C
2359 01-12-2018 04:35:00 5.1 C 96 % 4.52 C
2360 01-12-2018 04:40:00 5.1 C 96 % 4.52 C
2361 01-12-2018 04:45:00 4.9 C 96 % 4.32 C
2362 01-12-2018 04:50:00 4.9 C 96 % 4.32 C
2363 01-12-2018 04:55:00 4.8 C 96 % 4.22 C
2364 01-12-2018 05:00:00 4.8 C 96 % 4.22 C
2365 01-12-2018 05:05:00 4.8 C 96 % 4.22 C
2366 01-12-2018 05:10:00 4.8 C 96 % 4.22 C
2367 01-12-2018 05:15:00 4.8 C 96 % 4.22 C
2368 01-12-2018 05:20:00 4.8 C 96 % 4.22 C
2369 01-12-2018 05:25:00 4.9 C 96 % 4.32 C
2370 01-12-2018 05:30:00 4.9 C 96 % 4.32 C
2371 01-12-2018 05:35:00 4.9 C 96 % 4.32 C
2372 01-12-2018 05:40:00 4.9 C 96 % 4.32 C
2373 01-12-2018 05:45:00 5 C 97 % 4.56 C
2374 01-12-2018 05:50:00 5.1 C 97 % 4.66 C
2375 01-12-2018 05:55:00 5.2 C 97 % 4.76 C
Sensor: Nr:Datum:Temp:Feuchte:Taupunkt:
Aussen-T/F 2376 01-12-2018 06:00:00 5.2 C 97 % 4.76 C
2377 01-12-2018 06:05:00 5.3 C 97 % 4.86 C
2378 01-12-2018 06:10:00 5.3 C 97 % 4.86 C
2379 01-12-2018 06:15:00 5.4 C 97 % 4.96 C
2380 01-12-2018 06:20:00 5.5 C 97 % 5.06 C
2381 01-12-2018 06:25:00 5.7 C 97 % 5.26 C
2382 01-12-2018 06:30:00 5.7 C 97 % 5.26 C
2383 01-12-2018 06:35:00 5.7 C 97 % 5.26 C
2384 01-12-2018 06:40:00 5.7 C 97 % 5.26 C
2385 01-12-2018 06:45:00 5.7 C 97 % 5.26 C
2386 01-12-2018 06:50:00 5.6 C 97 % 5.16 C
2387 01-12-2018 06:55:00 5.6 C 97 % 5.16 C
2388 01-12-2018 07:00:00 5.6 C 97 % 5.16 C
2389 01-12-2018 07:05:00 5.6 C 97 % 5.16 C
2390 01-12-2018 07:10:00 5.8 C 97 % 5.36 C
2391 01-12-2018 07:15:00 5.8 C 97 % 5.36 C
2392 01-12-2018 07:20:00 5.8 C 97 % 5.36 C
2393 01-12-2018 07:25:00 6 C 97 % 5.56 C
2394 01-12-2018 07:30:00 6.2 C 97 % 5.76 C
2395 01-12-2018 07:35:00 6.4 C 97 % 5.96 C
2396 01-12-2018 07:40:00 6.5 C 97 % 6.06 C
2397 01-12-2018 07:45:00 6.6 C 97 % 6.16 C
2398 01-12-2018 07:50:00 6.6 C 97 % 6.16 C
2399 01-12-2018 07:55:00 6.6 C 97 % 6.16 C
2400 01-12-2018 08:00:00 6.5 C 97 % 6.06 C
Sensor: Nr:Datum:Temp:Feuchte:Taupunkt:
Aussen-T/F 2401 01-12-2018 08:05:00 6.4 C 96 % 5.81 C
2402 01-12-2018 08:10:00 6.3 C 96 % 5.71 C
2403 01-12-2018 08:15:00 6.2 C 96 % 5.61 C
2404 01-12-2018 08:20:00 6.3 C 96 % 5.71 C
2405 01-12-2018 08:25:00 6.4 C 96 % 5.81 C
2406 01-12-2018 08:30:00 6.6 C 96 % 6.01 C
2407 01-12-2018 08:35:00 6.6 C 96 % 6.01 C
2408 01-12-2018 08:40:00 6.7 C 97 % 6.26 C
2409 01-12-2018 08:45:00 6.8 C 97 % 6.36 C
2410 01-12-2018 08:50:00 7 C 97 % 6.56 C
2411 01-12-2018 08:55:00 7.1 C 96 % 6.51 C
2412 01-12-2018 09:00:00 7.1 C 96 % 6.51 C
2413 01-12-2018 09:05:00 7.2 C 96 % 6.61 C
2414 01-12-2018 09:10:00 7.2 C 96 % 6.61 C
2415 01-12-2018 09:15:00 7.1 C 96 % 6.51 C
2416 01-12-2018 09:20:00 7.1 C 96 % 6.51 C
2417 01-12-2018 09:25:00 7.1 C 96 % 6.51 C
2418 01-12-2018 09:30:00 7.1 C 96 % 6.51 C
2419 01-12-2018 09:35:00 7.2 C 96 % 6.61 C
2420 01-12-2018 09:40:00 7.3 C 96 % 6.71 C
2421 01-12-2018 09:45:00 7.3 C 96 % 6.71 C
2422 01-12-2018 09:50:00 7.4 C 96 % 6.8 C
2423 01-12-2018 09:55:00 7.6 C 96 % 7 C
2424 01-12-2018 10:00:00 7.7 C 96 % 7.1 C
2425 01-12-2018 10:05:00 7.7 C 96 % 7.1 C
Sensor: Nr:Datum:Temp:Feuchte:Taupunkt:
Aussen-T/F 2426 01-12-2018 10:10:00 7.8 C 96 % 7.2 C
2427 01-12-2018 10:15:00 7.8 C 95 % 7.05 C
2428 01-12-2018 10:20:00 7.8 C 95 % 7.05 C
2429 01-12-2018 10:25:00 7.9 C 95 % 7.15 C
2430 01-12-2018 10:30:00 7.9 C 95 % 7.15 C
2431 01-12-2018 10:35:00 7.9 C 95 % 7.15 C
2432 01-12-2018 10:40:00 8.1 C 95 % 7.35 C
2433 01-12-2018 10:45:00 8.2 C 95 % 7.45 C
2434 01-12-2018 10:50:00 8.3 C 94 % 7.39 C
2435 01-12-2018 10:55:00 8.4 C 93 % 7.34 C
2436 01-12-2018 11:00:00 8.6 C 93 % 7.53 C
2437 01-12-2018 11:05:00 8.7 C 92 % 7.47 C
2438 01-12-2018 11:10:00 8.7 C 91 % 7.32 C
2439 01-12-2018 11:15:00 8.8 C 91 % 7.41 C
2440 01-12-2018 11:20:00 8.8 C 90 % 7.25 C
2441 01-12-2018 11:25:00 8.9 C 90 % 7.35 C
2442 01-12-2018 11:30:00 9 C 89 % 7.29 C
2443 01-12-2018 11:35:00 9.1 C 89 % 7.39 C
2444 01-12-2018 11:40:00 9.2 C 89 % 7.48 C
2445 01-12-2018 11:45:00 9.2 C 88 % 7.32 C
2446 01-12-2018 11:50:00 9.3 C 88 % 7.42 C
2447 01-12-2018 11:55:00 9.4 C 88 % 7.52 C
2448 01-12-2018 12:00:00 9.4 C 88 % 7.52 C
2449 01-12-2018 12:05:00 9.6 C 88 % 7.71 C
2450 01-12-2018 12:10:00 9.6 C 87 % 7.55 C
Sensor: Nr:Datum:Temp:Feuchte:Taupunkt:
Aussen-T/F 2451 01-12-2018 12:15:00 9.7 C 87 % 7.64 C
2452 01-12-2018 12:20:00 9.7 C 86 % 7.47 C
2453 01-12-2018 12:25:00 9.7 C 86 % 7.47 C
2454 01-12-2018 12:30:00 9.7 C 86 % 7.47 C
2455 01-12-2018 12:35:00 9.8 C 86 % 7.57 C
2456 01-12-2018 12:40:00 9.9 C 86 % 7.67 C
2457 01-12-2018 12:45:00 9.9 C 85 % 7.5 C
2458 01-12-2018 12:50:00 10 C 85 % 7.6 C
2459 01-12-2018 12:55:00 10 C 85 % 7.6 C
2460 01-12-2018 13:00:00 9.9 C 84 % 7.33 C
2461 01-12-2018 13:05:00 9.9 C 84 % 7.33 C
2462 01-12-2018 13:10:00 9.9 C 84 % 7.33 C
2463 01-12-2018 13:15:00 9.8 C 83 % 7.05 C
2464 01-12-2018 13:20:00 9.8 C 83 % 7.05 C
2465 01-12-2018 13:25:00 9.8 C 83 % 7.05 C
2466 01-12-2018 13:30:00 9.8 C 83 % 7.05 C
2467 01-12-2018 13:35:00 9.8 C 82 % 6.88 C
2468 01-12-2018 13:40:00 9.8 C 83 % 7.05 C
2469 01-12-2018 13:45:00 9.7 C 83 % 6.96 C
2470 01-12-2018 13:50:00 9.7 C 82 % 6.78 C
2471 01-12-2018 13:55:00 9.6 C 83 % 6.86 C
2472 01-12-2018 14:00:00 9.5 C 84 % 6.94 C
2473 01-12-2018 14:05:00 9.3 C 83 % 6.57 C
2474 01-12-2018 14:10:00 9.3 C 84 % 6.74 C
2475 01-12-2018 14:15:00 9.3 C 84 % 6.74 C
Sensor: Nr:Datum:Temp:Feuchte:Taupunkt:
Aussen-T/F 2476 01-12-2018 14:20:00 9.3 C 84 % 6.74 C
2477 01-12-2018 14:25:00 9.4 C 84 % 6.84 C
2478 01-12-2018 14:30:00 9.5 C 82 % 6.59 C
2479 01-12-2018 14:35:00 9.6 C 81 % 6.5 C
2480 01-12-2018 14:40:00 9.7 C 82 % 6.78 C
2481 01-12-2018 14:45:00 9.7 C 81 % 6.6 C
2482 01-12-2018 14:50:00 9.7 C 82 % 6.78 C
2483 01-12-2018 14:55:00 9.7 C 82 % 6.78 C
2484 01-12-2018 15:00:00 9.7 C 82 % 6.78 C
2485 01-12-2018 15:05:00 9.7 C 82 % 6.78 C
2486 01-12-2018 15:10:00 9.7 C 83 % 6.96 C
2487 01-12-2018 15:15:00 9.7 C 83 % 6.96 C
2488 01-12-2018 15:20:00 9.5 C 83 % 6.76 C
2489 01-12-2018 15:25:00 9.4 C 83 % 6.66 C
2490 01-12-2018 15:30:00 9.4 C 84 % 6.84 C
2491 01-12-2018 15:35:00 9.4 C 85 % 7.01 C
2492 01-12-2018 15:40:00 9.3 C 85 % 6.91 C
2493 01-12-2018 15:45:00 9.3 C 86 % 7.08 C
2494 01-12-2018 15:50:00 9.3 C 85 % 6.91 C
2495 01-12-2018 15:55:00 9.3 C 86 % 7.08 C
2496 01-12-2018 16:00:00 9.2 C 86 % 6.98 C
2497 01-12-2018 16:05:00 9.2 C 86 % 6.98 C
2498 01-12-2018 16:10:00 9.1 C 86 % 6.89 C
2499 01-12-2018 16:15:00 9.1 C 84 % 6.54 C
2500 01-12-2018 16:20:00 9.1 C 85 % 6.72 C
Sensor: Nr:Datum:Temp:Feuchte:Taupunkt:
Aussen-T/F 2501 01-12-2018 16:25:00 9.1 C 85 % 6.72 C
2502 01-12-2018 16:30:00 9 C 84 % 6.45 C
2503 01-12-2018 16:35:00 9 C 85 % 6.62 C
2504 01-12-2018 16:40:00 8.9 C 85 % 6.52 C
2505 01-12-2018 16:45:00 8.8 C 85 % 6.42 C
2506 01-12-2018 16:50:00 8.8 C 85 % 6.42 C
2507 01-12-2018 16:55:00 8.8 C 85 % 6.42 C
2508 01-12-2018 17:00:00 8.8 C 84 % 6.25 C
2509 01-12-2018 17:05:00 8.9 C 84 % 6.35 C
2510 01-12-2018 17:10:00 8.9 C 86 % 6.69 C
2511 01-12-2018 17:15:00 8.9 C 86 % 6.69 C
2512 01-12-2018 17:20:00 8.9 C 88 % 7.02 C
2513 01-12-2018 17:25:00 8.8 C 89 % 7.09 C
2514 01-12-2018 17:30:00 8.6 C 89 % 6.89 C
2515 01-12-2018 17:35:00 8.5 C 90 % 6.96 C
2516 01-12-2018 17:40:00 8.4 C 91 % 7.02 C
2517 01-12-2018 17:45:00 8.3 C 91 % 6.92 C
2518 01-12-2018 17:50:00 8.2 C 91 % 6.82 C
2519 01-12-2018 17:55:00 8.1 C 92 % 6.88 C
2520 01-12-2018 18:00:00 8 C 92 % 6.78 C
2521 01-12-2018 18:05:00 7.9 C 92 % 6.68 C
2522 01-12-2018 18:10:00 7.9 C 93 % 6.84 C
2523 01-12-2018 18:15:00 7.8 C 93 % 6.74 C
2524 01-12-2018 18:20:00 7.8 C 93 % 6.74 C
2525 01-12-2018 18:25:00 7.7 C 93 % 6.64 C
Sensor: Nr:Datum:Temp:Feuchte:Taupunkt:
Aussen-T/F 2526 01-12-2018 18:30:00 7.7 C 93 % 6.64 C
2527 01-12-2018 18:35:00 7.6 C 94 % 6.7 C
2528 01-12-2018 18:40:00 7.6 C 93 % 6.54 C
2529 01-12-2018 18:45:00 7.5 C 93 % 6.44 C
2530 01-12-2018 18:50:00 7.5 C 93 % 6.44 C
2531 01-12-2018 18:55:00 7.6 C 93 % 6.54 C
2532 01-12-2018 19:00:00 7.6 C 93 % 6.54 C
2533 01-12-2018 19:05:00 7.6 C 93 % 6.54 C
2534 01-12-2018 19:10:00 7.6 C 93 % 6.54 C
2535 01-12-2018 19:15:00 7.6 C 93 % 6.54 C
2536 01-12-2018 19:20:00 7.7 C 92 % 6.48 C
2537 01-12-2018 19:25:00 7.8 C 92 % 6.58 C
2538 01-12-2018 19:30:00 7.9 C 92 % 6.68 C
2539 01-12-2018 19:35:00 8 C 91 % 6.62 C
2540 01-12-2018 19:40:00 8.1 C 91 % 6.72 C
2541 01-12-2018 19:45:00 8.1 C 90 % 6.56 C
2542 01-12-2018 19:50:00 8.2 C 89 % 6.5 C
2543 01-12-2018 19:55:00 8.3 C 89 % 6.6 C
2544 01-12-2018 20:00:00 8.3 C 88 % 6.43 C
2545 01-12-2018 20:05:00 8.3 C 89 % 6.6 C
2546 01-12-2018 20:10:00 8.3 C 88 % 6.43 C
2547 01-12-2018 20:15:00 8.4 C 88 % 6.53 C
2548 01-12-2018 20:20:00 8.4 C 88 % 6.53 C
2549 01-12-2018 20:25:00 8.4 C 88 % 6.53 C
2550 01-12-2018 20:30:00 8.4 C 88 % 6.53 C
Sensor: Nr:Datum:Temp:Feuchte:Taupunkt:
Aussen-T/F 2551 01-12-2018 20:35:00 8.4 C 89 % 6.7 C
2552 01-12-2018 20:40:00 8.3 C 89 % 6.6 C
2553 01-12-2018 20:45:00 8.3 C 88 % 6.43 C
2554 01-12-2018 20:50:00 8.3 C 89 % 6.6 C
2555 01-12-2018 20:55:00 8.3 C 89 % 6.6 C
2556 01-12-2018 21:00:00 8.3 C 89 % 6.6 C
2557 01-12-2018 21:05:00 8.3 C 89 % 6.6 C
2558 01-12-2018 21:10:00 8.3 C 89 % 6.6 C
2559 01-12-2018 21:15:00 8.3 C 89 % 6.6 C
2560 01-12-2018 21:20:00 8.3 C 89 % 6.6 C
2561 01-12-2018 21:25:00 8.3 C 89 % 6.6 C
2562 01-12-2018 21:30:00 8.4 C 89 % 6.7 C
2563 01-12-2018 21:35:00 8.4 C 89 % 6.7 C
2564 01-12-2018 21:40:00 8.6 C 88 % 6.73 C
2565 01-12-2018 21:45:00 8.6 C 88 % 6.73 C
2566 01-12-2018 21:50:00 8.6 C 89 % 6.89 C
2567 01-12-2018 21:55:00 8.6 C 89 % 6.89 C
2568 01-12-2018 22:00:00 8.6 C 89 % 6.89 C
2569 01-12-2018 22:05:00 8.6 C 90 % 7.06 C
2570 01-12-2018 22:10:00 8.5 C 90 % 6.96 C
2571 01-12-2018 22:15:00 8.4 C 90 % 6.86 C
2572 01-12-2018 22:20:00 8.4 C 90 % 6.86 C
2573 01-12-2018 22:25:00 8.3 C 90 % 6.76 C
2574 01-12-2018 22:30:00 8.3 C 91 % 6.92 C
2575 01-12-2018 22:35:00 8.3 C 90 % 6.76 C
Sensor: Nr:Datum:Temp:Feuchte:Taupunkt:
Aussen-T/F 2576 01-12-2018 22:40:00 8.3 C 90 % 6.76 C
2577 01-12-2018 22:45:00 8.3 C 91 % 6.92 C
2578 01-12-2018 22:50:00 8.3 C 91 % 6.92 C
2579 01-12-2018 22:55:00 8.3 C 91 % 6.92 C
2580 01-12-2018 23:00:00 8.3 C 91 % 6.92 C
2581 01-12-2018 23:05:00 8.4 C 91 % 7.02 C
2582 01-12-2018 23:10:00 8.4 C 91 % 7.02 C
2583 01-12-2018 23:15:00 8.6 C 90 % 7.06 C
2584 01-12-2018 23:20:00 8.7 C 90 % 7.15 C
2585 01-12-2018 23:25:00 8.7 C 89 % 6.99 C
2586 01-12-2018 23:30:00 8.8 C 89 % 7.09 C
2587 01-12-2018 23:35:00 8.8 C 89 % 7.09 C
2588 01-12-2018 23:40:00 8.9 C 89 % 7.19 C
2589 01-12-2018 23:45:00 8.9 C 89 % 7.19 C
2590 01-12-2018 23:50:00 8.9 C 89 % 7.19 C
2591 01-12-2018 23:55:00 8.9 C 89 % 7.19 C
2592 02-12-2018 00:00:00 8.9 C 89 % 7.19 C
2593 02-12-2018 00:05:00 8.9 C 89 % 7.19 C
2594 02-12-2018 00:10:00 8.9 C 89 % 7.19 C
2595 02-12-2018 00:15:00 9.1 C 88 % 7.22 C
2596 02-12-2018 00:20:00 9.1 C 89 % 7.39 C
2597 02-12-2018 00:25:00 9.1 C 89 % 7.39 C
2598 02-12-2018 00:30:00 9.1 C 88 % 7.22 C
2599 02-12-2018 00:35:00 9.2 C 89 % 7.48 C
2600 02-12-2018 00:40:00 9.2 C 88 % 7.32 C
Sensor: Nr:Datum:Temp:Feuchte:Taupunkt:
Aussen-T/F 2601 02-12-2018 00:45:00 9.2 C 88 % 7.32 C
2602 02-12-2018 00:50:00 9.2 C 88 % 7.32 C
2603 02-12-2018 00:55:00 9.3 C 88 % 7.42 C
2604 02-12-2018 01:00:00 9.3 C 88 % 7.42 C
2605 02-12-2018 01:05:00 9.3 C 88 % 7.42 C
2606 02-12-2018 01:10:00 9.3 C 88 % 7.42 C
2607 02-12-2018 01:15:00 9.3 C 88 % 7.42 C
2608 02-12-2018 01:20:00 9.3 C 88 % 7.42 C
2609 02-12-2018 01:25:00 9.3 C 88 % 7.42 C
2610 02-12-2018 01:30:00 9.4 C 88 % 7.52 C
2611 02-12-2018 01:35:00 9.4 C 88 % 7.52 C
2612 02-12-2018 01:40:00 9.6 C 87 % 7.55 C
2613 02-12-2018 01:45:00 9.6 C 87 % 7.55 C
2614 02-12-2018 01:50:00 9.6 C 87 % 7.55 C
2615 02-12-2018 01:55:00 9.7 C 87 % 7.64 C
2616 02-12-2018 02:00:00 9.7 C 87 % 7.64 C
2617 02-12-2018 02:05:00 9.7 C 87 % 7.64 C
2618 02-12-2018 02:10:00 9.8 C 87 % 7.74 C
2619 02-12-2018 02:15:00 9.8 C 87 % 7.74 C
2620 02-12-2018 02:20:00 9.8 C 87 % 7.74 C
2621 02-12-2018 02:25:00 9.7 C 87 % 7.64 C
2622 02-12-2018 02:30:00 9.7 C 87 % 7.64 C
2623 02-12-2018 02:35:00 9.8 C 87 % 7.74 C
2624 02-12-2018 02:40:00 9.8 C 87 % 7.74 C
2625 02-12-2018 02:45:00 9.8 C 87 % 7.74 C
Sensor: Nr:Datum:Temp:Feuchte:Taupunkt:
Aussen-T/F 2626 02-12-2018 02:50:00 9.8 C 87 % 7.74 C
2627 02-12-2018 02:55:00 9.8 C 87 % 7.74 C
2628 02-12-2018 03:00:00 9.8 C 87 % 7.74 C
2629 02-12-2018 03:05:00 9.8 C 87 % 7.74 C
2630 02-12-2018 03:10:00 9.8 C 87 % 7.74 C
2631 02-12-2018 03:15:00 9.9 C 87 % 7.84 C
2632 02-12-2018 03:20:00 9.9 C 87 % 7.84 C
2633 02-12-2018 03:25:00 9.9 C 87 % 7.84 C
2634 02-12-2018 03:30:00 10 C 87 % 7.94 C
2635 02-12-2018 03:35:00 9.9 C 87 % 7.84 C
2636 02-12-2018 03:40:00 9.9 C 87 % 7.84 C
2637 02-12-2018 03:45:00 9.9 C 87 % 7.84 C
2638 02-12-2018 03:50:00 10.1 C 87 % 8.04 C
2639 02-12-2018 03:55:00 10.1 C 87 % 8.04 C
2640 02-12-2018 04:00:00 10.1 C 87 % 8.04 C
2641 02-12-2018 04:05:00 10.1 C 87 % 8.04 C
2642 02-12-2018 04:10:00 10.1 C 88 % 8.21 C
2643 02-12-2018 04:15:00 9.9 C 89 % 8.17 C
2644 02-12-2018 04:20:00 9.8 C 90 % 8.24 C
2645 02-12-2018 04:25:00 9.6 C 91 % 8.21 C
2646 02-12-2018 04:30:00 9.5 C 91 % 8.11 C
2647 02-12-2018 04:35:00 9.4 C 92 % 8.17 C
2648 02-12-2018 04:40:00 9.3 C 92 % 8.07 C
2649 02-12-2018 04:45:00 9.2 C 93 % 8.13 C
2650 02-12-2018 04:50:00 9.1 C 93 % 8.03 C
Sensor: Nr:Datum:Temp:Feuchte:Taupunkt:
Aussen-T/F 2651 02-12-2018 04:55:00 9 C 93 % 7.93 C
2652 02-12-2018 05:00:00 8.9 C 94 % 7.99 C
2653 02-12-2018 05:05:00 8.9 C 94 % 7.99 C
2654 02-12-2018 05:10:00 8.8 C 94 % 7.89 C
2655 02-12-2018 05:15:00 8.8 C 94 % 7.89 C
2656 02-12-2018 05:20:00 8.8 C 94 % 7.89 C
2657 02-12-2018 05:25:00 8.7 C 95 % 7.94 C
2658 02-12-2018 05:30:00 8.7 C 95 % 7.94 C
2659 02-12-2018 05:35:00 8.7 C 95 % 7.94 C
2660 02-12-2018 05:40:00 8.7 C 95 % 7.94 C
2661 02-12-2018 05:45:00 8.7 C 95 % 7.94 C
2662 02-12-2018 05:50:00 8.7 C 95 % 7.94 C
2663 02-12-2018 05:55:00 8.7 C 95 % 7.94 C
2664 02-12-2018 06:00:00 8.7 C 95 % 7.94 C
2665 02-12-2018 06:05:00 8.7 C 95 % 7.94 C
2666 02-12-2018 06:10:00 8.7 C 95 % 7.94 C
2667 02-12-2018 06:15:00 8.7 C 96 % 8.1 C
2668 02-12-2018 06:20:00 8.7 C 96 % 8.1 C
2669 02-12-2018 06:25:00 8.7 C 96 % 8.1 C
2670 02-12-2018 06:30:00 8.7 C 96 % 8.1 C
2671 02-12-2018 06:35:00 8.8 C 96 % 8.2 C
2672 02-12-2018 06:40:00 8.8 C 96 % 8.2 C
2673 02-12-2018 06:45:00 8.8 C 96 % 8.2 C
2674 02-12-2018 06:50:00 8.8 C 96 % 8.2 C
2675 02-12-2018 06:55:00 8.8 C 96 % 8.2 C
Sensor: Nr:Datum:Temp:Feuchte:Taupunkt:
Aussen-T/F 2676 02-12-2018 07:00:00 8.8 C 96 % 8.2 C
2677 02-12-2018 07:05:00 8.9 C 96 % 8.3 C
2678 02-12-2018 07:10:00 8.9 C 96 % 8.3 C
2679 02-12-2018 07:15:00 8.9 C 96 % 8.3 C
2680 02-12-2018 07:20:00 8.9 C 96 % 8.3 C
2681 02-12-2018 07:25:00 8.9 C 96 % 8.3 C
2682 02-12-2018 07:30:00 8.9 C 96 % 8.3 C
2683 02-12-2018 07:35:00 9 C 96 % 8.4 C
2684 02-12-2018 07:40:00 9 C 96 % 8.4 C
2685 02-12-2018 07:45:00 9 C 96 % 8.4 C
2686 02-12-2018 07:50:00 9.1 C 96 % 8.5 C
2687 02-12-2018 07:55:00 9.1 C 96 % 8.5 C
2688 02-12-2018 08:00:00 9.1 C 96 % 8.5 C
2689 02-12-2018 08:05:00 9.1 C 96 % 8.5 C
2690 02-12-2018 08:10:00 9.1 C 97 % 8.65 C
2691 02-12-2018 08:15:00 9.1 C 97 % 8.65 C
2692 02-12-2018 08:20:00 9.1 C 97 % 8.65 C
2693 02-12-2018 08:25:00 9.1 C 97 % 8.65 C
2694 02-12-2018 08:30:00 9.1 C 96 % 8.5 C
2695 02-12-2018 08:35:00 9.2 C 97 % 8.75 C
2696 02-12-2018 08:40:00 9.2 C 97 % 8.75 C
2697 02-12-2018 08:45:00 9.2 C 97 % 8.75 C
2698 02-12-2018 08:50:00 9.2 C 97 % 8.75 C
2699 02-12-2018 08:55:00 9.3 C 97 % 8.85 C
2700 02-12-2018 09:00:00 9.4 C 97 % 8.95 C
Sensor: Nr:Datum:Temp:Feuchte:Taupunkt:
Aussen-T/F 2701 02-12-2018 09:05:00 9.4 C 97 % 8.95 C
2702 02-12-2018 09:10:00 9.4 C 97 % 8.95 C
2703 02-12-2018 09:15:00 9.5 C 97 % 9.05 C
2704 02-12-2018 09:20:00 9.5 C 97 % 9.05 C
2705 02-12-2018 09:25:00 9.6 C 97 % 9.15 C
2706 02-12-2018 09:30:00 9.6 C 97 % 9.15 C
2707 02-12-2018 09:35:00 9.7 C 97 % 9.25 C
2708 02-12-2018 09:40:00 9.8 C 97 % 9.35 C
2709 02-12-2018 09:45:00 9.8 C 97 % 9.35 C
2710 02-12-2018 09:50:00 9.8 C 97 % 9.35 C
2711 02-12-2018 09:55:00 9.8 C 97 % 9.35 C
2712 02-12-2018 10:00:00 9.9 C 97 % 9.45 C
2713 02-12-2018 10:05:00 9.9 C 97 % 9.45 C
2714 02-12-2018 10:10:00 9.9 C 97 % 9.45 C
2715 02-12-2018 10:15:00 9.9 C 97 % 9.45 C
2716 02-12-2018 10:20:00 10 C 97 % 9.55 C
2717 02-12-2018 10:25:00 10.1 C 97 % 9.65 C
2718 02-12-2018 10:30:00 10.1 C 97 % 9.65 C
2719 02-12-2018 10:35:00 10.2 C 96 % 9.59 C
2720 02-12-2018 10:40:00 10.2 C 96 % 9.59 C
2721 02-12-2018 10:45:00 10.3 C 96 % 9.69 C
2722 02-12-2018 10:50:00 10.3 C 96 % 9.69 C
2723 02-12-2018 10:55:00 10.4 C 96 % 9.79 C
2724 02-12-2018 11:00:00 10.4 C 96 % 9.79 C
2725 02-12-2018 11:05:00 10.5 C 96 % 9.89 C
Sensor: Nr:Datum:Temp:Feuchte:Taupunkt:
Aussen-T/F 2726 02-12-2018 11:10:00 10.6 C 96 % 9.99 C
2727 02-12-2018 11:15:00 10.7 C 96 % 10.09 C
2728 02-12-2018 11:20:00 10.7 C 96 % 10.09 C
2729 02-12-2018 11:25:00 10.8 C 96 % 10.19 C
2730 02-12-2018 11:30:00 10.9 C 96 % 10.29 C
2731 02-12-2018 11:35:00 11.1 C 96 % 10.49 C
2732 02-12-2018 11:40:00 11.2 C 95 % 10.43 C
2733 02-12-2018 11:45:00 11.2 C 95 % 10.43 C
2734 02-12-2018 11:50:00 11.3 C 95 % 10.53 C
2735 02-12-2018 11:55:00 11.4 C 95 % 10.63 C
2736 02-12-2018 12:00:00 11.5 C 95 % 10.73 C
2737 02-12-2018 12:05:00 11.6 C 95 % 10.83 C
2738 02-12-2018 12:10:00 11.7 C 95 % 10.93 C
2739 02-12-2018 12:15:00 11.8 C 95 % 11.03 C
2740 02-12-2018 12:20:00 11.9 C 94 % 10.97 C
2741 02-12-2018 12:25:00 12.1 C 94 % 11.16 C
2742 02-12-2018 12:30:00 12.3 C 94 % 11.36 C
2743 02-12-2018 12:35:00 12.4 C 94 % 11.46 C
2744 02-12-2018 12:40:00 12.5 C 93 % 11.4 C
2745 02-12-2018 12:45:00 12.6 C 93 % 11.5 C
2746 02-12-2018 12:50:00 12.7 C 93 % 11.6 C
2747 02-12-2018 12:55:00 12.8 C 93 % 11.7 C
2748 02-12-2018 13:00:00 12.8 C 92 % 11.53 C
2749 02-12-2018 13:05:00 12.8 C 92 % 11.53 C
2750 02-12-2018 13:10:00 12.9 C 92 % 11.63 C
Sensor: Nr:Datum:Temp:Feuchte:Taupunkt:
Aussen-T/F 2751 02-12-2018 13:15:00 13.1 C 92 % 11.83 C
2752 02-12-2018 13:20:00 13.1 C 92 % 11.83 C
2753 02-12-2018 13:25:00 13.2 C 92 % 11.93 C
2754 02-12-2018 13:30:00 13.2 C 91 % 11.76 C
2755 02-12-2018 13:35:00 13.2 C 91 % 11.76 C
2756 02-12-2018 13:40:00 13.2 C 91 % 11.76 C
2757 02-12-2018 13:45:00 13.2 C 91 % 11.76 C
2758 02-12-2018 13:50:00 13.2 C 91 % 11.76 C
2759 02-12-2018 13:55:00 13.3 C 92 % 12.03 C
2760 02-12-2018 14:00:00 13.3 C 92 % 12.03 C
2761 02-12-2018 14:05:00 13.3 C 92 % 12.03 C
2762 02-12-2018 14:10:00 13.3 C 92 % 12.03 C
2763 02-12-2018 14:15:00 13.3 C 92 % 12.03 C
2764 02-12-2018 14:20:00 13.3 C 92 % 12.03 C
2765 02-12-2018 14:25:00 13.4 C 92 % 12.13 C
2766 02-12-2018 14:30:00 13.4 C 92 % 12.13 C
2767 02-12-2018 14:35:00 13.4 C 92 % 12.13 C
2768 02-12-2018 14:40:00 13.5 C 92 % 12.23 C
2769 02-12-2018 14:45:00 13.5 C 92 % 12.23 C
2770 02-12-2018 14:50:00 13.5 C 92 % 12.23 C
2771 02-12-2018 14:55:00 13.4 C 92 % 12.13 C
2772 02-12-2018 15:00:00 13.4 C 92 % 12.13 C
2773 02-12-2018 15:05:00 13.4 C 92 % 12.13 C
2774 02-12-2018 15:10:00 13.4 C 92 % 12.13 C
2775 02-12-2018 15:15:00 13.4 C 92 % 12.13 C
Sensor: Nr:Datum:Temp:Feuchte:Taupunkt:
Aussen-T/F 2776 02-12-2018 15:20:00 13.5 C 92 % 12.23 C
2777 02-12-2018 15:25:00 13.6 C 92 % 12.33 C
2778 02-12-2018 15:30:00 13.7 C 92 % 12.42 C
2779 02-12-2018 15:35:00 13.7 C 92 % 12.42 C
2780 02-12-2018 15:40:00 13.8 C 92 % 12.52 C
2781 02-12-2018 15:45:00 13.7 C 92 % 12.42 C
2782 02-12-2018 15:50:00 13.7 C 92 % 12.42 C
2783 02-12-2018 15:55:00 13.7 C 92 % 12.42 C
2784 02-12-2018 16:00:00 13.7 C 92 % 12.42 C
2785 02-12-2018 16:05:00 13.7 C 92 % 12.42 C
2786 02-12-2018 16:10:00 13.7 C 93 % 12.59 C
2787 02-12-2018 16:15:00 13.6 C 93 % 12.49 C
2788 02-12-2018 16:20:00 13.5 C 92 % 12.23 C
2789 02-12-2018 16:25:00 13.3 C 92 % 12.03 C
2790 02-12-2018 16:30:00 13.2 C 92 % 11.93 C
2791 02-12-2018 16:35:00 12.9 C 93 % 11.8 C
2792 02-12-2018 16:40:00 12.8 C 93 % 11.7 C
2793 02-12-2018 16:45:00 12.8 C 94 % 11.86 C
2794 02-12-2018 16:50:00 12.9 C 94 % 11.96 C
2795 02-12-2018 16:55:00 12.9 C 94 % 11.96 C
2796 02-12-2018 17:00:00 12.8 C 94 % 11.86 C
2797 02-12-2018 17:05:00 12.8 C 94 % 11.86 C
2798 02-12-2018 17:10:00 12.8 C 94 % 11.86 C
2799 02-12-2018 17:15:00 12.8 C 95 % 12.02 C
2800 02-12-2018 17:20:00 12.9 C 95 % 12.12 C
Sensor: Nr:Datum:Temp:Feuchte:Taupunkt:
Aussen-T/F 2801 02-12-2018 17:25:00 13.1 C 95 % 12.32 C
2802 02-12-2018 17:30:00 13.1 C 95 % 12.32 C
2803 02-12-2018 17:35:00 13.2 C 94 % 12.26 C
2804 02-12-2018 17:40:00 13.3 C 94 % 12.36 C
2805 02-12-2018 17:45:00 13.3 C 94 % 12.36 C
2806 02-12-2018 17:50:00 13.3 C 94 % 12.36 C
2807 02-12-2018 17:55:00 13.4 C 93 % 12.29 C
2808 02-12-2018 18:00:00 13.4 C 93 % 12.29 C
2809 02-12-2018 18:05:00 13.4 C 93 % 12.29 C
2810 02-12-2018 18:10:00 13.5 C 93 % 12.39 C
2811 02-12-2018 18:15:00 13.5 C 92 % 12.23 C
2812 02-12-2018 18:20:00 13.6 C 93 % 12.49 C
2813 02-12-2018 18:25:00 13.7 C 92 % 12.42 C
2814 02-12-2018 18:30:00 13.8 C 92 % 12.52 C
2815 02-12-2018 18:35:00 13.9 C 92 % 12.62 C
2816 02-12-2018 18:40:00 13.9 C 91 % 12.46 C
2817 02-12-2018 18:45:00 13.9 C 91 % 12.46 C
2818 02-12-2018 18:50:00 13.9 C 91 % 12.46 C
2819 02-12-2018 18:55:00 14 C 92 % 12.72 C
2820 02-12-2018 19:00:00 14 C 92 % 12.72 C
2821 02-12-2018 19:05:00 14 C 92 % 12.72 C
2822 02-12-2018 19:10:00 13.9 C 92 % 12.62 C
2823 02-12-2018 19:15:00 13.8 C 92 % 12.52 C
2824 02-12-2018 19:20:00 13.7 C 93 % 12.59 C
2825 02-12-2018 19:25:00 13.6 C 93 % 12.49 C
Sensor: Nr:Datum:Temp:Feuchte:Taupunkt:
Aussen-T/F 2826 02-12-2018 19:30:00 13.6 C 93 % 12.49 C
2827 02-12-2018 19:35:00 13.6 C 93 % 12.49 C
2828 02-12-2018 19:40:00 13.6 C 94 % 12.65 C
2829 02-12-2018 19:45:00 13.6 C 93 % 12.49 C
2830 02-12-2018 19:50:00 13.6 C 93 % 12.49 C
2831 02-12-2018 19:55:00 13.6 C 93 % 12.49 C
2832 02-12-2018 20:00:00 13.5 C 93 % 12.39 C
2833 02-12-2018 20:05:00 13.4 C 93 % 12.29 C
2834 02-12-2018 20:10:00 13.2 C 93 % 12.09 C
2835 02-12-2018 20:15:00 13.1 C 93 % 11.99 C
2836 02-12-2018 20:20:00 13 C 93 % 11.9 C
2837 02-12-2018 20:25:00 12.9 C 93 % 11.8 C
2838 02-12-2018 20:30:00 12.9 C 94 % 11.96 C
2839 02-12-2018 20:35:00 12.9 C 94 % 11.96 C
2840 02-12-2018 20:40:00 12.9 C 94 % 11.96 C
2841 02-12-2018 20:45:00 12.8 C 94 % 11.86 C
2842 02-12-2018 20:50:00 12.8 C 94 % 11.86 C
2843 02-12-2018 20:55:00 12.7 C 94 % 11.76 C
2844 02-12-2018 21:00:00 12.7 C 94 % 11.76 C
2845 02-12-2018 21:05:00 12.7 C 94 % 11.76 C
2846 02-12-2018 21:10:00 12.8 C 95 % 12.02 C
2847 02-12-2018 21:15:00 12.8 C 95 % 12.02 C
2848 02-12-2018 21:20:00 12.8 C 95 % 12.02 C
2849 02-12-2018 21:25:00 12.8 C 95 % 12.02 C
2850 02-12-2018 21:30:00 12.9 C 95 % 12.12 C
Sensor: Nr:Datum:Temp:Feuchte:Taupunkt:
Aussen-T/F 2851 02-12-2018 21:35:00 12.9 C 95 % 12.12 C
2852 02-12-2018 21:40:00 12.8 C 95 % 12.02 C
2853 02-12-2018 21:45:00 12.8 C 95 % 12.02 C
2854 02-12-2018 21:50:00 12.8 C 95 % 12.02 C
2855 02-12-2018 21:55:00 12.8 C 95 % 12.02 C
2856 02-12-2018 22:00:00 12.7 C 95 % 11.92 C
2857 02-12-2018 22:05:00 12.6 C 95 % 11.82 C
2858 02-12-2018 22:10:00 12.6 C 95 % 11.82 C
2859 02-12-2018 22:15:00 12.5 C 95 % 11.72 C
2860 02-12-2018 22:20:00 12.5 C 95 % 11.72 C
2861 02-12-2018 22:25:00 12.5 C 95 % 11.72 C
2862 02-12-2018 22:30:00 12.4 C 95 % 11.62 C
2863 02-12-2018 22:35:00 12.4 C 95 % 11.62 C
2864 02-12-2018 22:40:00 12.4 C 95 % 11.62 C
2865 02-12-2018 22:45:00 12.4 C 96 % 11.78 C
2866 02-12-2018 22:50:00 12.4 C 95 % 11.62 C
2867 02-12-2018 22:55:00 12.4 C 95 % 11.62 C
2868 02-12-2018 23:00:00 12.3 C 96 % 11.68 C
2869 02-12-2018 23:05:00 12.3 C 96 % 11.68 C
2870 02-12-2018 23:10:00 12.3 C 96 % 11.68 C
2871 02-12-2018 23:15:00 12.3 C 96 % 11.68 C
2872 02-12-2018 23:20:00 12.3 C 96 % 11.68 C
2873 02-12-2018 23:25:00 12.4 C 96 % 11.78 C
2874 02-12-2018 23:30:00 12.4 C 96 % 11.78 C
2875 02-12-2018 23:35:00 12.4 C 96 % 11.78 C
Sensor: Nr:Datum:Temp:Feuchte:Taupunkt:
Aussen-T/F 2876 02-12-2018 23:40:00 12.5 C 96 % 11.88 C
2877 02-12-2018 23:45:00 12.7 C 96 % 12.08 C
2878 02-12-2018 23:50:00 12.8 C 97 % 12.34 C
2879 02-12-2018 23:55:00 12.9 C 97 % 12.44 C
2880 03-12-2018 00:00:00 13.1 C 97 % 12.63 C
2881 03-12-2018 00:05:00 13.1 C 97 % 12.63 C
2882 03-12-2018 00:10:00 13.1 C 96 % 12.48 C
2883 03-12-2018 00:15:00 12.9 C 96 % 12.28 C
2884 03-12-2018 00:20:00 12.9 C 96 % 12.28 C
2885 03-12-2018 00:25:00 12.8 C 96 % 12.18 C
2886 03-12-2018 00:30:00 12.8 C 96 % 12.18 C
2887 03-12-2018 00:35:00 12.8 C 96 % 12.18 C
2888 03-12-2018 00:40:00 12.8 C 96 % 12.18 C
2889 03-12-2018 00:45:00 12.7 C 96 % 12.08 C
2890 03-12-2018 00:50:00 12.7 C 96 % 12.08 C
2891 03-12-2018 00:55:00 12.7 C 96 % 12.08 C
2892 03-12-2018 01:00:00 12.6 C 96 % 11.98 C
2893 03-12-2018 01:05:00 12.5 C 96 % 11.88 C
2894 03-12-2018 01:10:00 12.5 C 96 % 11.88 C
2895 03-12-2018 01:15:00 12.4 C 96 % 11.78 C
2896 03-12-2018 01:20:00 12.4 C 96 % 11.78 C
2897 03-12-2018 01:25:00 12.4 C 96 % 11.78 C
2898 03-12-2018 01:30:00 12.4 C 96 % 11.78 C
2899 03-12-2018 01:35:00 12.4 C 95 % 11.62 C
2900 03-12-2018 01:40:00 12.4 C 95 % 11.62 C
Sensor: Nr:Datum:Temp:Feuchte:Taupunkt:
Aussen-T/F 2901 03-12-2018 01:45:00 12.3 C 95 % 11.52 C
2902 03-12-2018 01:50:00 12.3 C 95 % 11.52 C
2903 03-12-2018 01:55:00 12.3 C 95 % 11.52 C
2904 03-12-2018 02:00:00 12.2 C 95 % 11.42 C
2905 03-12-2018 02:05:00 12.1 C 95 % 11.32 C
2906 03-12-2018 02:10:00 12.1 C 95 % 11.32 C
2907 03-12-2018 02:15:00 12 C 95 % 11.22 C
2908 03-12-2018 02:20:00 12.1 C 96 % 11.48 C
2909 03-12-2018 02:25:00 12.2 C 96 % 11.58 C
2910 03-12-2018 02:30:00 12.3 C 96 % 11.68 C
2911 03-12-2018 02:35:00 12.2 C 95 % 11.42 C
2912 03-12-2018 02:40:00 12.2 C 95 % 11.42 C
2913 03-12-2018 02:45:00 12.1 C 95 % 11.32 C
2914 03-12-2018 02:50:00 11.9 C 95 % 11.13 C
2915 03-12-2018 02:55:00 11.8 C 95 % 11.03 C
2916 03-12-2018 03:00:00 11.7 C 95 % 10.93 C
2917 03-12-2018 03:05:00 11.7 C 95 % 10.93 C
2918 03-12-2018 03:10:00 11.7 C 96 % 11.08 C
2919 03-12-2018 03:15:00 11.7 C 96 % 11.08 C
2920 03-12-2018 03:20:00 11.8 C 96 % 11.18 C
2921 03-12-2018 03:25:00 11.8 C 96 % 11.18 C
2922 03-12-2018 03:30:00 11.8 C 96 % 11.18 C
2923 03-12-2018 03:35:00 11.7 C 96 % 11.08 C
2924 03-12-2018 03:40:00 11.8 C 96 % 11.18 C
2925 03-12-2018 03:45:00 11.8 C 96 % 11.18 C
Sensor: Nr:Datum:Temp:Feuchte:Taupunkt:
Aussen-T/F 2926 03-12-2018 03:50:00 11.9 C 96 % 11.28 C
2927 03-12-2018 03:55:00 12 C 96 % 11.38 C
2928 03-12-2018 04:00:00 12.1 C 97 % 11.64 C
2929 03-12-2018 04:05:00 12.2 C 96 % 11.58 C
2930 03-12-2018 04:10:00 12.2 C 96 % 11.58 C
2931 03-12-2018 04:15:00 12.2 C 96 % 11.58 C
2932 03-12-2018 04:20:00 12.3 C 96 % 11.68 C
2933 03-12-2018 04:25:00 12.4 C 96 % 11.78 C
2934 03-12-2018 04:30:00 12.4 C 96 % 11.78 C
2935 03-12-2018 04:35:00 12.5 C 96 % 11.88 C
2936 03-12-2018 04:40:00 12.6 C 96 % 11.98 C
2937 03-12-2018 04:45:00 12.6 C 96 % 11.98 C
2938 03-12-2018 04:50:00 12.6 C 96 % 11.98 C
2939 03-12-2018 04:55:00 12.6 C 96 % 11.98 C
2940 03-12-2018 05:00:00 12.6 C 96 % 11.98 C
2941 03-12-2018 05:05:00 12.5 C 96 % 11.88 C
2942 03-12-2018 05:10:00 12.5 C 96 % 11.88 C
2943 03-12-2018 05:15:00 12.4 C 96 % 11.78 C
2944 03-12-2018 05:20:00 12.4 C 96 % 11.78 C
2945 03-12-2018 05:25:00 12.3 C 96 % 11.68 C
2946 03-12-2018 05:30:00 12.3 C 96 % 11.68 C
2947 03-12-2018 05:35:00 12.3 C 96 % 11.68 C
2948 03-12-2018 05:40:00 12.2 C 96 % 11.58 C
2949 03-12-2018 05:45:00 12.2 C 96 % 11.58 C
2950 03-12-2018 05:50:00 12.1 C 96 % 11.48 C
Sensor: Nr:Datum:Temp:Feuchte:Taupunkt:
Aussen-T/F 2951 03-12-2018 05:55:00 12.1 C 96 % 11.48 C
2952 03-12-2018 06:00:00 12 C 96 % 11.38 C
2953 03-12-2018 06:05:00 11.9 C 96 % 11.28 C
2954 03-12-2018 06:10:00 11.9 C 96 % 11.28 C
2955 03-12-2018 06:15:00 11.8 C 96 % 11.18 C
2956 03-12-2018 06:20:00 11.8 C 96 % 11.18 C
2957 03-12-2018 06:25:00 11.8 C 96 % 11.18 C
2958 03-12-2018 06:30:00 11.8 C 96 % 11.18 C
2959 03-12-2018 06:35:00 11.9 C 96 % 11.28 C
2960 03-12-2018 06:40:00 11.9 C 97 % 11.44 C
2961 03-12-2018 06:45:00 12.1 C 97 % 11.64 C
2962 03-12-2018 06:50:00 12.1 C 97 % 11.64 C
2963 03-12-2018 06:55:00 12.2 C 97 % 11.74 C
2964 03-12-2018 07:00:00 12.2 C 97 % 11.74 C
2965 03-12-2018 07:05:00 12.2 C 97 % 11.74 C
2966 03-12-2018 07:10:00 12.2 C 97 % 11.74 C
2967 03-12-2018 07:15:00 12.2 C 97 % 11.74 C
2968 03-12-2018 07:20:00 12.2 C 97 % 11.74 C
2969 03-12-2018 07:25:00 12.1 C 97 % 11.64 C
2970 03-12-2018 07:30:00 11.9 C 96 % 11.28 C
2971 03-12-2018 07:35:00 11.8 C 97 % 11.34 C
2972 03-12-2018 07:40:00 11.8 C 97 % 11.34 C
2973 03-12-2018 07:45:00 11.7 C 97 % 11.24 C
2974 03-12-2018 07:50:00 11.7 C 97 % 11.24 C
2975 03-12-2018 07:55:00 11.8 C 97 % 11.34 C
Sensor: Nr:Datum:Temp:Feuchte:Taupunkt:
Aussen-T/F 2976 03-12-2018 08:00:00 11.8 C 97 % 11.34 C
2977 03-12-2018 08:05:00 11.9 C 97 % 11.44 C
2978 03-12-2018 08:10:00 11.9 C 97 % 11.44 C
2979 03-12-2018 08:15:00 12 C 97 % 11.54 C
2980 03-12-2018 08:20:00 12 C 97 % 11.54 C
2981 03-12-2018 08:25:00 11.9 C 97 % 11.44 C
2982 03-12-2018 08:30:00 11.8 C 97 % 11.34 C
2983 03-12-2018 08:35:00 11.8 C 97 % 11.34 C
2984 03-12-2018 08:40:00 11.7 C 97 % 11.24 C
2985 03-12-2018 08:45:00 11.6 C 97 % 11.14 C
2986 03-12-2018 08:50:00 11.8 C 97 % 11.34 C
2987 03-12-2018 08:55:00 11.9 C 97 % 11.44 C
2988 03-12-2018 09:00:00 11.9 C 97 % 11.44 C
2989 03-12-2018 09:05:00 12 C 97 % 11.54 C
2990 03-12-2018 09:10:00 12.1 C 97 % 11.64 C
2991 03-12-2018 09:15:00 12.1 C 97 % 11.64 C
2992 03-12-2018 09:20:00 12.2 C 97 % 11.74 C
2993 03-12-2018 09:25:00 12.2 C 97 % 11.74 C
2994 03-12-2018 09:30:00 12.2 C 97 % 11.74 C
2995 03-12-2018 09:35:00 12.3 C 97 % 11.84 C
2996 03-12-2018 09:40:00 12.3 C 97 % 11.84 C
2997 03-12-2018 09:45:00 12.3 C 97 % 11.84 C
2998 03-12-2018 09:50:00 12.3 C 97 % 11.84 C
2999 03-12-2018 09:55:00 12.2 C 97 % 11.74 C
3000 03-12-2018 10:00:00 12.2 C 97 % 11.74 C
Sensor: Nr:Datum:Temp:Feuchte:Taupunkt:
Aussen-T/F 3001 03-12-2018 10:05:00 12.1 C 97 % 11.64 C
3002 03-12-2018 10:10:00 12.1 C 97 % 11.64 C
3003 03-12-2018 10:15:00 12.1 C 97 % 11.64 C
3004 03-12-2018 10:20:00 12.2 C 97 % 11.74 C
3005 03-12-2018 10:25:00 12.3 C 97 % 11.84 C
3006 03-12-2018 10:30:00 12.3 C 97 % 11.84 C
3007 03-12-2018 10:35:00 12.4 C 97 % 11.94 C
3008 03-12-2018 10:40:00 12.4 C 97 % 11.94 C
3009 03-12-2018 10:45:00 12.6 C 97 % 12.14 C
3010 03-12-2018 10:50:00 12.6 C 97 % 12.14 C
3011 03-12-2018 10:55:00 12.7 C 97 % 12.24 C
3012 03-12-2018 11:00:00 12.8 C 97 % 12.34 C
3013 03-12-2018 11:05:00 12.8 C 97 % 12.34 C
3014 03-12-2018 11:10:00 12.8 C 97 % 12.34 C
3015 03-12-2018 11:15:00 12.8 C 97 % 12.34 C
3016 03-12-2018 11:20:00 12.8 C 97 % 12.34 C
3017 03-12-2018 11:25:00 12.8 C 97 % 12.34 C
3018 03-12-2018 11:30:00 12.9 C 97 % 12.44 C
3019 03-12-2018 11:35:00 12.9 C 97 % 12.44 C
3020 03-12-2018 11:40:00 12.9 C 97 % 12.44 C
3021 03-12-2018 11:45:00 12.8 C 97 % 12.34 C
3022 03-12-2018 11:50:00 12.8 C 97 % 12.34 C
3023 03-12-2018 11:55:00 12.8 C 97 % 12.34 C
3024 03-12-2018 12:00:00 12.9 C 97 % 12.44 C
3025 03-12-2018 12:05:00 12.9 C 97 % 12.44 C
Sensor: Nr:Datum:Temp:Feuchte:Taupunkt:
Aussen-T/F 3026 03-12-2018 12:10:00 12.9 C 97 % 12.44 C
3027 03-12-2018 12:15:00 12.9 C 97 % 12.44 C
3028 03-12-2018 12:20:00 12.9 C 97 % 12.44 C
3029 03-12-2018 12:25:00 12.9 C 96 % 12.28 C
3030 03-12-2018 12:30:00 12.9 C 96 % 12.28 C
3031 03-12-2018 12:35:00 12.9 C 96 % 12.28 C
3032 03-12-2018 12:40:00 12.9 C 96 % 12.28 C
3033 03-12-2018 12:45:00 12.8 C 95 % 12.02 C
3034 03-12-2018 12:50:00 12.8 C 95 % 12.02 C
3035 03-12-2018 12:55:00 12.8 C 95 % 12.02 C
3036 03-12-2018 13:00:00 12.7 C 95 % 11.92 C
3037 03-12-2018 13:05:00 12.6 C 94 % 11.66 C
3038 03-12-2018 13:10:00 12.6 C 94 % 11.66 C
3039 03-12-2018 13:15:00 12.4 C 94 % 11.46 C
3040 03-12-2018 13:20:00 12.4 C 93 % 11.3 C
3041 03-12-2018 13:25:00 12.4 C 94 % 11.46 C
3042 03-12-2018 13:30:00 12.3 C 94 % 11.36 C
3043 03-12-2018 13:35:00 12.3 C 94 % 11.36 C
3044 03-12-2018 13:40:00 12.3 C 94 % 11.36 C
3045 03-12-2018 13:45:00 12.3 C 94 % 11.36 C
3046 03-12-2018 13:50:00 12.3 C 94 % 11.36 C
3047 03-12-2018 13:55:00 12.3 C 94 % 11.36 C
3048 03-12-2018 14:00:00 12.3 C 94 % 11.36 C
3049 03-12-2018 14:05:00 12.3 C 94 % 11.36 C
3050 03-12-2018 14:10:00 12.3 C 94 % 11.36 C
Sensor: Nr:Datum:Temp:Feuchte:Taupunkt:
Aussen-T/F 3051 03-12-2018 14:15:00 12.2 C 94 % 11.26 C
3052 03-12-2018 14:20:00 12.2 C 94 % 11.26 C
3053 03-12-2018 14:25:00 12.2 C 94 % 11.26 C
3054 03-12-2018 14:30:00 12.1 C 95 % 11.32 C
3055 03-12-2018 14:35:00 12.1 C 95 % 11.32 C
3056 03-12-2018 14:40:00 12.1 C 95 % 11.32 C
3057 03-12-2018 14:45:00 12 C 94 % 11.07 C
3058 03-12-2018 14:50:00 11.9 C 95 % 11.13 C
3059 03-12-2018 14:55:00 11.9 C 95 % 11.13 C
3060 03-12-2018 15:00:00 11.9 C 94 % 10.97 C
3061 03-12-2018 15:05:00 11.9 C 94 % 10.97 C
3062 03-12-2018 15:10:00 11.9 C 94 % 10.97 C
3063 03-12-2018 15:15:00 11.9 C 94 % 10.97 C
3064 03-12-2018 15:20:00 11.9 C 94 % 10.97 C
3065 03-12-2018 15:25:00 11.9 C 94 % 10.97 C
3066 03-12-2018 15:30:00 11.8 C 94 % 10.87 C
3067 03-12-2018 15:35:00 11.8 C 94 % 10.87 C
3068 03-12-2018 15:40:00 11.8 C 94 % 10.87 C
3069 03-12-2018 15:45:00 11.7 C 94 % 10.77 C
3070 03-12-2018 15:50:00 11.7 C 94 % 10.77 C
3071 03-12-2018 15:55:00 11.7 C 94 % 10.77 C
3072 03-12-2018 16:00:00 11.6 C 94 % 10.67 C
3073 03-12-2018 16:05:00 11.6 C 94 % 10.67 C
3074 03-12-2018 16:10:00 11.6 C 94 % 10.67 C
3075 03-12-2018 16:15:00 11.5 C 94 % 10.57 C
Sensor: Nr:Datum:Temp:Feuchte:Taupunkt:
Aussen-T/F 3076 03-12-2018 16:20:00 11.6 C 94 % 10.67 C
3077 03-12-2018 16:25:00 11.6 C 94 % 10.67 C
3078 03-12-2018 16:30:00 11.6 C 95 % 10.83 C
3079 03-12-2018 16:35:00 11.6 C 95 % 10.83 C
3080 03-12-2018 16:40:00 11.5 C 95 % 10.73 C
3081 03-12-2018 16:45:00 11.5 C 95 % 10.73 C
3082 03-12-2018 16:50:00 11.5 C 95 % 10.73 C
3083 03-12-2018 16:55:00 11.4 C 95 % 10.63 C
3084 03-12-2018 17:00:00 11.4 C 95 % 10.63 C
3085 03-12-2018 17:05:00 11.4 C 95 % 10.63 C
3086 03-12-2018 17:10:00 11.3 C 95 % 10.53 C
3087 03-12-2018 17:15:00 11.3 C 95 % 10.53 C
3088 03-12-2018 17:20:00 11.3 C 95 % 10.53 C
3089 03-12-2018 17:25:00 11.2 C 95 % 10.43 C
3090 03-12-2018 17:30:00 11.2 C 95 % 10.43 C
3091 03-12-2018 17:35:00 11.2 C 95 % 10.43 C
3092 03-12-2018 17:40:00 11.1 C 95 % 10.33 C
3093 03-12-2018 17:45:00 11.1 C 96 % 10.49 C
3094 03-12-2018 17:50:00 11.1 C 96 % 10.49 C
3095 03-12-2018 17:55:00 11.1 C 96 % 10.49 C
3096 03-12-2018 18:00:00 11.1 C 96 % 10.49 C
3097 03-12-2018 18:05:00 11.1 C 96 % 10.49 C
3098 03-12-2018 18:10:00 11.1 C 96 % 10.49 C
3099 03-12-2018 18:15:00 11.1 C 96 % 10.49 C
3100 03-12-2018 18:20:00 11.1 C 96 % 10.49 C
Sensor: Nr:Datum:Temp:Feuchte:Taupunkt:
Aussen-T/F 3101 03-12-2018 18:25:00 11.1 C 96 % 10.49 C
3102 03-12-2018 18:30:00 11 C 96 % 10.39 C
3103 03-12-2018 18:35:00 11.1 C 96 % 10.49 C
3104 03-12-2018 18:40:00 11.1 C 96 % 10.49 C
3105 03-12-2018 18:45:00 11 C 96 % 10.39 C
3106 03-12-2018 18:50:00 11 C 96 % 10.39 C
3107 03-12-2018 18:55:00 10.9 C 96 % 10.29 C
3108 03-12-2018 19:00:00 10.9 C 96 % 10.29 C
3109 03-12-2018 19:05:00 10.9 C 96 % 10.29 C
3110 03-12-2018 19:10:00 10.8 C 96 % 10.19 C
3111 03-12-2018 19:15:00 10.8 C 96 % 10.19 C
3112 03-12-2018 19:20:00 10.9 C 96 % 10.29 C
3113 03-12-2018 19:25:00 10.9 C 96 % 10.29 C
3114 03-12-2018 19:30:00 10.9 C 96 % 10.29 C
3115 03-12-2018 19:35:00 10.9 C 96 % 10.29 C
3116 03-12-2018 19:40:00 10.9 C 96 % 10.29 C
3117 03-12-2018 19:45:00 10.9 C 96 % 10.29 C
3118 03-12-2018 19:50:00 10.9 C 96 % 10.29 C
3119 03-12-2018 19:55:00 10.9 C 96 % 10.29 C
3120 03-12-2018 20:00:00 10.9 C 96 % 10.29 C
3121 03-12-2018 20:05:00 10.9 C 96 % 10.29 C
3122 03-12-2018 20:10:00 10.9 C 96 % 10.29 C
3123 03-12-2018 20:15:00 10.8 C 96 % 10.19 C
3124 03-12-2018 20:20:00 10.8 C 96 % 10.19 C
3125 03-12-2018 20:25:00 10.7 C 96 % 10.09 C
Sensor: Nr:Datum:Temp:Feuchte:Taupunkt:
Aussen-T/F 3126 03-12-2018 20:30:00 10.8 C 96 % 10.19 C
3127 03-12-2018 20:35:00 10.9 C 96 % 10.29 C
3128 03-12-2018 20:40:00 10.9 C 96 % 10.29 C
3129 03-12-2018 20:45:00 10.9 C 96 % 10.29 C
3130 03-12-2018 20:50:00 11 C 96 % 10.39 C
3131 03-12-2018 20:55:00 10.9 C 96 % 10.29 C
3132 03-12-2018 21:00:00 10.8 C 95 % 10.03 C
3133 03-12-2018 21:05:00 10.7 C 95 % 9.93 C
3134 03-12-2018 21:10:00 10.6 C 95 % 9.83 C
3135 03-12-2018 21:15:00 10.4 C 95 % 9.63 C
3136 03-12-2018 21:20:00 10.3 C 95 % 9.54 C
3137 03-12-2018 21:25:00 10.2 C 95 % 9.44 C
3138 03-12-2018 21:30:00 10.1 C 95 % 9.34 C
3139 03-12-2018 21:35:00 10 C 95 % 9.24 C
3140 03-12-2018 21:40:00 10 C 95 % 9.24 C
3141 03-12-2018 21:45:00 10 C 96 % 9.39 C
3142 03-12-2018 21:50:00 9.9 C 96 % 9.29 C
3143 03-12-2018 21:55:00 9.8 C 96 % 9.19 C
3144 03-12-2018 22:00:00 9.8 C 96 % 9.19 C
3145 03-12-2018 22:05:00 9.8 C 95 % 9.04 C
3146 03-12-2018 22:10:00 9.7 C 95 % 8.94 C
3147 03-12-2018 22:15:00 9.6 C 95 % 8.84 C
3148 03-12-2018 22:20:00 9.6 C 96 % 8.99 C
3149 03-12-2018 22:25:00 9.6 C 96 % 8.99 C
3150 03-12-2018 22:30:00 9.6 C 96 % 8.99 C
Sensor: Nr:Datum:Temp:Feuchte:Taupunkt:
Aussen-T/F 3151 03-12-2018 22:35:00 9.6 C 96 % 8.99 C
3152 03-12-2018 22:40:00 9.7 C 96 % 9.09 C
3153 03-12-2018 22:45:00 9.7 C 96 % 9.09 C
3154 03-12-2018 22:50:00 9.9 C 96 % 9.29 C
3155 03-12-2018 22:55:00 10.2 C 97 % 9.75 C
3156 03-12-2018 23:00:00 10.4 C 97 % 9.94 C
3157 03-12-2018 23:05:00 10.5 C 96 % 9.89 C
3158 03-12-2018 23:10:00 10.6 C 96 % 9.99 C
3159 03-12-2018 23:15:00 10.7 C 95 % 9.93 C
3160 03-12-2018 23:20:00 10.7 C 95 % 9.93 C
3161 03-12-2018 23:25:00 10.7 C 95 % 9.93 C
3162 03-12-2018 23:30:00 10.8 C 95 % 10.03 C
3163 03-12-2018 23:35:00 10.7 C 94 % 9.77 C
3164 03-12-2018 23:40:00 10.7 C 94 % 9.77 C
3165 03-12-2018 23:45:00 10.7 C 94 % 9.77 C
3166 03-12-2018 23:50:00 10.7 C 94 % 9.77 C
3167 03-12-2018 23:55:00 10.6 C 94 % 9.68 C
3168 04-12-2018 00:00:00 10.7 C 94 % 9.77 C
3169 04-12-2018 00:05:00 10.7 C 94 % 9.77 C
3170 04-12-2018 00:10:00 10.7 C 94 % 9.77 C
3171 04-12-2018 00:15:00 10.8 C 94 % 9.87 C
3172 04-12-2018 00:20:00 10.8 C 94 % 9.87 C
3173 04-12-2018 00:25:00 10.8 C 94 % 9.87 C
3174 04-12-2018 00:30:00 10.8 C 94 % 9.87 C
3175 04-12-2018 00:35:00 10.8 C 94 % 9.87 C
Sensor: Nr:Datum:Temp:Feuchte:Taupunkt:
Aussen-T/F 3176 04-12-2018 00:40:00 10.8 C 94 % 9.87 C
3177 04-12-2018 00:45:00 10.8 C 94 % 9.87 C
3178 04-12-2018 00:50:00 10.8 C 94 % 9.87 C
3179 04-12-2018 00:55:00 10.8 C 94 % 9.87 C
3180 04-12-2018 01:00:00 10.7 C 94 % 9.77 C
3181 04-12-2018 01:05:00 10.7 C 94 % 9.77 C
3182 04-12-2018 01:10:00 10.7 C 94 % 9.77 C
3183 04-12-2018 01:15:00 10.7 C 93 % 9.62 C
3184 04-12-2018 01:20:00 10.7 C 93 % 9.62 C
3185 04-12-2018 01:25:00 10.7 C 93 % 9.62 C
3186 04-12-2018 01:30:00 10.7 C 93 % 9.62 C
3187 04-12-2018 01:35:00 10.6 C 93 % 9.52 C
3188 04-12-2018 01:40:00 10.5 C 92 % 9.26 C
3189 04-12-2018 01:45:00 10.4 C 92 % 9.16 C
3190 04-12-2018 01:50:00 10.3 C 92 % 9.06 C
3191 04-12-2018 01:55:00 10.3 C 92 % 9.06 C
3192 04-12-2018 02:00:00 10.3 C 91 % 8.9 C
3193 04-12-2018 02:05:00 10.2 C 90 % 8.64 C
3194 04-12-2018 02:10:00 10.2 C 91 % 8.8 C
3195 04-12-2018 02:15:00 10.2 C 90 % 8.64 C
3196 04-12-2018 02:20:00 10.3 C 90 % 8.73 C
3197 04-12-2018 02:25:00 10.3 C 90 % 8.73 C
3198 04-12-2018 02:30:00 10.4 C 90 % 8.83 C
3199 04-12-2018 02:35:00 10.3 C 89 % 8.57 C
3200 04-12-2018 02:40:00 10.3 C 89 % 8.57 C
Sensor: Nr:Datum:Temp:Feuchte:Taupunkt:
Aussen-T/F 3201 04-12-2018 02:45:00 10.3 C 89 % 8.57 C
3202 04-12-2018 02:50:00 10.3 C 89 % 8.57 C
3203 04-12-2018 02:55:00 10.3 C 89 % 8.57 C
3204 04-12-2018 03:00:00 10.3 C 89 % 8.57 C
3205 04-12-2018 03:05:00 10.2 C 89 % 8.47 C
3206 04-12-2018 03:10:00 10.2 C 88 % 8.3 C
3207 04-12-2018 03:15:00 10.1 C 87 % 8.04 C
3208 04-12-2018 03:20:00 9.9 C 87 % 7.84 C
3209 04-12-2018 03:25:00 9.7 C 88 % 7.81 C
3210 04-12-2018 03:30:00 9.6 C 88 % 7.71 C
3211 04-12-2018 03:35:00 9.4 C 88 % 7.52 C
3212 04-12-2018 03:40:00 9.4 C 88 % 7.52 C
3213 04-12-2018 03:45:00 9.3 C 89 % 7.58 C
3214 04-12-2018 03:50:00 9.2 C 89 % 7.48 C
3215 04-12-2018 03:55:00 9.1 C 89 % 7.39 C
3216 04-12-2018 04:00:00 9 C 89 % 7.29 C
3217 04-12-2018 04:05:00 8.9 C 89 % 7.19 C
3218 04-12-2018 04:10:00 8.9 C 89 % 7.19 C
3219 04-12-2018 04:15:00 8.8 C 90 % 7.25 C
3220 04-12-2018 04:20:00 8.8 C 90 % 7.25 C
3221 04-12-2018 04:25:00 8.8 C 90 % 7.25 C
3222 04-12-2018 04:30:00 8.7 C 90 % 7.15 C
3223 04-12-2018 04:35:00 8.7 C 90 % 7.15 C
3224 04-12-2018 04:40:00 8.6 C 90 % 7.06 C
3225 04-12-2018 04:45:00 8.6 C 90 % 7.06 C
Sensor: Nr:Datum:Temp:Feuchte:Taupunkt:
Aussen-T/F 3226 04-12-2018 04:50:00 8.6 C 90 % 7.06 C
3227 04-12-2018 04:55:00 8.5 C 90 % 6.96 C
3228 04-12-2018 05:00:00 8.5 C 90 % 6.96 C
3229 04-12-2018 05:05:00 8.4 C 91 % 7.02 C
3230 04-12-2018 05:10:00 8.4 C 91 % 7.02 C
3231 04-12-2018 05:15:00 8.4 C 90 % 6.86 C
3232 04-12-2018 05:20:00 8.4 C 90 % 6.86 C
3233 04-12-2018 05:25:00 8.3 C 90 % 6.76 C
3234 04-12-2018 05:30:00 8.3 C 90 % 6.76 C
3235 04-12-2018 05:35:00 8.3 C 90 % 6.76 C
3236 04-12-2018 05:40:00 8.3 C 90 % 6.76 C
3237 04-12-2018 05:45:00 8.3 C 90 % 6.76 C
3238 04-12-2018 05:50:00 8.2 C 90 % 6.66 C
3239 04-12-2018 05:55:00 8.1 C 91 % 6.72 C
3240 04-12-2018 06:00:00 8.1 C 91 % 6.72 C
3241 04-12-2018 06:05:00 7.9 C 91 % 6.52 C
3242 04-12-2018 06:10:00 7.9 C 91 % 6.52 C
3243 04-12-2018 06:15:00 7.8 C 91 % 6.43 C
3244 04-12-2018 06:20:00 7.8 C 91 % 6.43 C
3245 04-12-2018 06:25:00 7.7 C 92 % 6.48 C
3246 04-12-2018 06:30:00 7.7 C 92 % 6.48 C
3247 04-12-2018 06:35:00 7.6 C 92 % 6.39 C
3248 04-12-2018 06:40:00 7.6 C 92 % 6.39 C
3249 04-12-2018 06:45:00 7.6 C 92 % 6.39 C
3250 04-12-2018 06:50:00 7.6 C 92 % 6.39 C
Sensor: Nr:Datum:Temp:Feuchte:Taupunkt:
Aussen-T/F 3251 04-12-2018 06:55:00 7.6 C 92 % 6.39 C
3252 04-12-2018 07:00:00 7.6 C 92 % 6.39 C
3253 04-12-2018 07:05:00 7.6 C 92 % 6.39 C
3254 04-12-2018 07:10:00 7.7 C 92 % 6.48 C
3255 04-12-2018 07:15:00 7.7 C 92 % 6.48 C
3256 04-12-2018 07:20:00 7.7 C 92 % 6.48 C
3257 04-12-2018 07:25:00 7.7 C 92 % 6.48 C
3258 04-12-2018 07:30:00 7.7 C 92 % 6.48 C
3259 04-12-2018 07:35:00 7.7 C 91 % 6.33 C
3260 04-12-2018 07:40:00 7.6 C 91 % 6.23 C
3261 04-12-2018 07:45:00 7.6 C 91 % 6.23 C
3262 04-12-2018 07:50:00 7.5 C 91 % 6.13 C
3263 04-12-2018 07:55:00 7.4 C 91 % 6.03 C
3264 04-12-2018 08:00:00 7.4 C 91 % 6.03 C
3265 04-12-2018 08:05:00 7.4 C 92 % 6.19 C
3266 04-12-2018 08:10:00 7.4 C 92 % 6.19 C
3267 04-12-2018 08:15:00 7.4 C 92 % 6.19 C
3268 04-12-2018 08:20:00 7.3 C 92 % 6.09 C
3269 04-12-2018 08:25:00 7.3 C 92 % 6.09 C
3270 04-12-2018 08:30:00 7.2 C 92 % 5.99 C
3271 04-12-2018 08:35:00 7.2 C 92 % 5.99 C
3272 04-12-2018 08:40:00 7.1 C 92 % 5.89 C
3273 04-12-2018 08:45:00 7.1 C 92 % 5.89 C
3274 04-12-2018 08:50:00 7.1 C 92 % 5.89 C
3275 04-12-2018 08:55:00 7.1 C 91 % 5.73 C
Sensor: Nr:Datum:Temp:Feuchte:Taupunkt:
Aussen-T/F 3276 04-12-2018 09:00:00 7.1 C 91 % 5.73 C
3277 04-12-2018 09:05:00 7.1 C 91 % 5.73 C
3278 04-12-2018 09:10:00 7.1 C 91 % 5.73 C
3279 04-12-2018 09:15:00 7.1 C 90 % 5.57 C
3280 04-12-2018 09:20:00 7.2 C 90 % 5.67 C
3281 04-12-2018 09:25:00 7.2 C 90 % 5.67 C
3282 04-12-2018 09:30:00 7.3 C 89 % 5.61 C
3283 04-12-2018 09:35:00 7.3 C 89 % 5.61 C
3284 04-12-2018 09:40:00 7.4 C 89 % 5.71 C
3285 04-12-2018 09:45:00 7.4 C 88 % 5.55 C
3286 04-12-2018 09:50:00 7.5 C 89 % 5.81 C
3287 04-12-2018 09:55:00 7.6 C 89 % 5.91 C
3288 04-12-2018 10:00:00 7.6 C 88 % 5.74 C
3289 04-12-2018 10:05:00 7.6 C 89 % 5.91 C
3290 04-12-2018 10:10:00 7.6 C 88 % 5.74 C
3291 04-12-2018 10:15:00 7.6 C 88 % 5.74 C
3292 04-12-2018 10:20:00 7.6 C 88 % 5.74 C
3293 04-12-2018 10:25:00 7.6 C 87 % 5.58 C
3294 04-12-2018 10:30:00 7.7 C 88 % 5.84 C
3295 04-12-2018 10:35:00 7.7 C 88 % 5.84 C
3296 04-12-2018 10:40:00 7.6 C 88 % 5.74 C
3297 04-12-2018 10:45:00 7.6 C 88 % 5.74 C
3298 04-12-2018 10:50:00 7.5 C 88 % 5.64 C
3299 04-12-2018 10:55:00 7.4 C 88 % 5.55 C
3300 04-12-2018 11:00:00 7.5 C 88 % 5.64 C
Sensor: Nr:Datum:Temp:Feuchte:Taupunkt:
Aussen-T/F 3301 04-12-2018 11:05:00 7.6 C 89 % 5.91 C
3302 04-12-2018 11:10:00 7.7 C 89 % 6 C
3303 04-12-2018 11:15:00 7.7 C 89 % 6 C
3304 04-12-2018 11:20:00 7.8 C 88 % 5.94 C
3305 04-12-2018 11:25:00 7.9 C 89 % 6.2 C
3306 04-12-2018 11:30:00 8.1 C 89 % 6.4 C
3307 04-12-2018 11:35:00 8.1 C 88 % 6.24 C
3308 04-12-2018 11:40:00 8.2 C 89 % 6.5 C
3309 04-12-2018 11:45:00 8.3 C 88 % 6.43 C
3310 04-12-2018 11:50:00 8.4 C 88 % 6.53 C
3311 04-12-2018 11:55:00 8.4 C 87 % 6.37 C
3312 04-12-2018 12:00:00 8.4 C 86 % 6.2 C
3313 04-12-2018 12:05:00 8.4 C 86 % 6.2 C
3314 04-12-2018 12:10:00 8.4 C 86 % 6.2 C
3315 04-12-2018 12:15:00 8.4 C 85 % 6.03 C
3316 04-12-2018 12:20:00 8.4 C 86 % 6.2 C
3317 04-12-2018 12:25:00 8.3 C 85 % 5.93 C
3318 04-12-2018 12:30:00 8.3 C 85 % 5.93 C
3319 04-12-2018 12:35:00 8.3 C 86 % 6.1 C
3320 04-12-2018 12:40:00 8.2 C 86 % 6 C
3321 04-12-2018 12:45:00 8.1 C 85 % 5.73 C
3322 04-12-2018 12:50:00 8.1 C 86 % 5.9 C
3323 04-12-2018 12:55:00 8.1 C 86 % 5.9 C
3324 04-12-2018 13:00:00 8.1 C 86 % 5.9 C
3325 04-12-2018 13:05:00 8.1 C 86 % 5.9 C
Sensor: Nr:Datum:Temp:Feuchte:Taupunkt:
Aussen-T/F 3326 04-12-2018 13:10:00 8.1 C 86 % 5.9 C
3327 04-12-2018 13:15:00 8.1 C 86 % 5.9 C
3328 04-12-2018 13:20:00 8.1 C 86 % 5.9 C
3329 04-12-2018 13:25:00 8.1 C 86 % 5.9 C
3330 04-12-2018 13:30:00 8 C 85 % 5.64 C
3331 04-12-2018 13:35:00 8 C 85 % 5.64 C
3332 04-12-2018 13:40:00 8 C 85 % 5.64 C
3333 04-12-2018 13:45:00 8.1 C 86 % 5.9 C
3334 04-12-2018 13:50:00 8.1 C 87 % 6.07 C
3335 04-12-2018 13:55:00 8.1 C 87 % 6.07 C
3336 04-12-2018 14:00:00 8 C 87 % 5.97 C
3337 04-12-2018 14:05:00 7.9 C 87 % 5.87 C
3338 04-12-2018 14:10:00 7.8 C 88 % 5.94 C
3339 04-12-2018 14:15:00 7.7 C 88 % 5.84 C
3340 04-12-2018 14:20:00 7.6 C 89 % 5.91 C
3341 04-12-2018 14:25:00 7.6 C 89 % 5.91 C
3342 04-12-2018 14:30:00 7.6 C 90 % 6.07 C
3343 04-12-2018 14:35:00 7.7 C 90 % 6.17 C
3344 04-12-2018 14:40:00 7.8 C 90 % 6.27 C
3345 04-12-2018 14:45:00 7.8 C 87 % 5.78 C
3346 04-12-2018 14:50:00 7.9 C 86 % 5.71 C
3347 04-12-2018 14:55:00 8.1 C 86 % 5.9 C
3348 04-12-2018 15:00:00 8.2 C 84 % 5.66 C
3349 04-12-2018 15:05:00 8.1 C 84 % 5.56 C
3350 04-12-2018 15:10:00 7.9 C 83 % 5.2 C
Sensor: Nr:Datum:Temp:Feuchte:Taupunkt:
Aussen-T/F 3351 04-12-2018 15:15:00 7.8 C 83 % 5.1 C
3352 04-12-2018 15:20:00 7.7 C 83 % 5 C
3353 04-12-2018 15:25:00 7.6 C 84 % 5.07 C
3354 04-12-2018 15:30:00 7.4 C 84 % 4.88 C
3355 04-12-2018 15:35:00 7.2 C 84 % 4.68 C
3356 04-12-2018 15:40:00 7.1 C 85 % 4.75 C
3357 04-12-2018 15:45:00 6.8 C 86 % 4.63 C
3358 04-12-2018 15:50:00 6.6 C 86 % 4.43 C
3359 04-12-2018 15:55:00 6.4 C 86 % 4.23 C
3360 04-12-2018 16:00:00 6.1 C 86 % 3.94 C
3361 04-12-2018 16:05:00 5.9 C 87 % 3.91 C
3362 04-12-2018 16:10:00 5.7 C 87 % 3.71 C
3363 04-12-2018 16:15:00 5.5 C 88 % 3.67 C
3364 04-12-2018 16:20:00 5.3 C 88 % 3.48 C
3365 04-12-2018 16:25:00 5.1 C 89 % 3.44 C
3366 04-12-2018 16:30:00 4.9 C 90 % 3.4 C
3367 04-12-2018 16:35:00 4.7 C 90 % 3.2 C
3368 04-12-2018 16:40:00 4.6 C 90 % 3.1 C
3369 04-12-2018 16:45:00 4.4 C 90 % 2.91 C
3370 04-12-2018 16:50:00 4.3 C 91 % 2.96 C
3371 04-12-2018 16:55:00 4.2 C 91 % 2.87 C
3372 04-12-2018 17:00:00 4.1 C 92 % 2.92 C
3373 04-12-2018 17:05:00 4 C 92 % 2.82 C
3374 04-12-2018 17:10:00 3.8 C 92 % 2.62 C
3375 04-12-2018 17:15:00 3.8 C 92 % 2.62 C
Sensor: Nr:Datum:Temp:Feuchte:Taupunkt:
Aussen-T/F 3376 04-12-2018 17:20:00 3.7 C 92 % 2.52 C
3377 04-12-2018 17:25:00 3.6 C 92 % 2.42 C
3378 04-12-2018 17:30:00 3.5 C 93 % 2.48 C
3379 04-12-2018 17:35:00 3.4 C 93 % 2.38 C
3380 04-12-2018 17:40:00 3.4 C 93 % 2.38 C
3381 04-12-2018 17:45:00 3.3 C 93 % 2.28 C
3382 04-12-2018 17:50:00 3.3 C 93 % 2.28 C
3383 04-12-2018 17:55:00 3.2 C 93 % 2.18 C
3384 04-12-2018 18:00:00 3.1 C 94 % 2.23 C
3385 04-12-2018 18:05:00 3 C 94 % 2.13 C
3386 04-12-2018 18:10:00 2.9 C 94 % 2.03 C
3387 04-12-2018 18:15:00 2.8 C 94 % 1.93 C
3388 04-12-2018 18:20:00 2.7 C 94 % 1.83 C
3389 04-12-2018 18:25:00 2.7 C 94 % 1.83 C
3390 04-12-2018 18:30:00 2.7 C 94 % 1.83 C
3391 04-12-2018 18:35:00 2.7 C 94 % 1.83 C
3392 04-12-2018 18:40:00 2.6 C 94 % 1.73 C
3393 04-12-2018 18:45:00 2.6 C 95 % 1.88 C
3394 04-12-2018 18:50:00 2.7 C 95 % 1.98 C
3395 04-12-2018 18:55:00 2.6 C 95 % 1.88 C
3396 04-12-2018 19:00:00 2.5 C 94 % 1.63 C
3397 04-12-2018 19:05:00 2.4 C 95 % 1.68 C
3398 04-12-2018 19:10:00 2.4 C 95 % 1.68 C
3399 04-12-2018 19:15:00 2.4 C 95 % 1.68 C
3400 04-12-2018 19:20:00 2.3 C 95 % 1.58 C
Sensor: Nr:Datum:Temp:Feuchte:Taupunkt:
Aussen-T/F 3401 04-12-2018 19:25:00 2.3 C 95 % 1.58 C
3402 04-12-2018 19:30:00 2.4 C 95 % 1.68 C
3403 04-12-2018 19:35:00 2.4 C 95 % 1.68 C
3404 04-12-2018 19:40:00 2.3 C 95 % 1.58 C
3405 04-12-2018 19:45:00 2.3 C 95 % 1.58 C
3406 04-12-2018 19:50:00 2.3 C 95 % 1.58 C
3407 04-12-2018 19:55:00 2.3 C 95 % 1.58 C
3408 04-12-2018 20:00:00 2.2 C 95 % 1.48 C
3409 04-12-2018 20:05:00 2.2 C 95 % 1.48 C
3410 04-12-2018 20:10:00 2.1 C 95 % 1.38 C
3411 04-12-2018 20:15:00 2 C 95 % 1.29 C
3412 04-12-2018 20:20:00 1.9 C 95 % 1.19 C
3413 04-12-2018 20:25:00 1.9 C 95 % 1.19 C
3414 04-12-2018 20:30:00 1.9 C 95 % 1.19 C
3415 04-12-2018 20:35:00 1.9 C 95 % 1.19 C
3416 04-12-2018 20:40:00 1.9 C 95 % 1.19 C
3417 04-12-2018 20:45:00 1.9 C 96 % 1.33 C
3418 04-12-2018 20:50:00 2.1 C 96 % 1.53 C
3419 04-12-2018 20:55:00 2.1 C 96 % 1.53 C
3420 04-12-2018 21:00:00 2.1 C 96 % 1.53 C
3421 04-12-2018 21:05:00 2 C 96 % 1.43 C
3422 04-12-2018 21:10:00 1.8 C 95 % 1.09 C
3423 04-12-2018 21:15:00 1.8 C 95 % 1.09 C
3424 04-12-2018 21:20:00 1.7 C 95 % 0.99 C
3425 04-12-2018 21:25:00 1.5 C 95 % 0.79 C
Sensor: Nr:Datum:Temp:Feuchte:Taupunkt:
Aussen-T/F 3426 04-12-2018 21:30:00 1.4 C 95 % 0.69 C
3427 04-12-2018 21:35:00 1.3 C 95 % 0.59 C
3428 04-12-2018 21:40:00 1.3 C 95 % 0.59 C
3429 04-12-2018 21:45:00 1.2 C 95 % 0.49 C
3430 04-12-2018 21:50:00 1.2 C 96 % 0.63 C
3431 04-12-2018 21:55:00 1.2 C 96 % 0.63 C
3432 04-12-2018 22:00:00 1.2 C 96 % 0.63 C
3433 04-12-2018 22:05:00 1.3 C 96 % 0.73 C
3434 04-12-2018 22:10:00 1.3 C 96 % 0.73 C
3435 04-12-2018 22:15:00 1.4 C 96 % 0.83 C
3436 04-12-2018 22:20:00 1.4 C 96 % 0.83 C
3437 04-12-2018 22:25:00 1.4 C 96 % 0.83 C
3438 04-12-2018 22:30:00 1.4 C 96 % 0.83 C
3439 04-12-2018 22:35:00 1.4 C 96 % 0.83 C
3440 04-12-2018 22:40:00 1.5 C 96 % 0.93 C
3441 04-12-2018 22:45:00 1.6 C 96 % 1.03 C
3442 04-12-2018 22:50:00 1.6 C 96 % 1.03 C
3443 04-12-2018 22:55:00 1.6 C 96 % 1.03 C
3444 04-12-2018 23:00:00 1.6 C 96 % 1.03 C
3445 04-12-2018 23:05:00 1.6 C 96 % 1.03 C
3446 04-12-2018 23:10:00 1.5 C 96 % 0.93 C
3447 04-12-2018 23:15:00 1.6 C 96 % 1.03 C
3448 04-12-2018 23:20:00 1.6 C 96 % 1.03 C
3449 04-12-2018 23:25:00 1.6 C 96 % 1.03 C
3450 04-12-2018 23:30:00 1.6 C 96 % 1.03 C
Sensor: Nr:Datum:Temp:Feuchte:Taupunkt:
Aussen-T/F 3451 04-12-2018 23:35:00 1.6 C 96 % 1.03 C
3452 04-12-2018 23:40:00 1.5 C 96 % 0.93 C
3453 04-12-2018 23:45:00 1.4 C 96 % 0.83 C
3454 04-12-2018 23:50:00 1.4 C 96 % 0.83 C
3455 04-12-2018 23:55:00 1.4 C 96 % 0.83 C
3456 05-12-2018 00:00:00 1.5 C 96 % 0.93 C
3457 05-12-2018 00:05:00 1.5 C 96 % 0.93 C
3458 05-12-2018 00:10:00 1.6 C 97 % 1.18 C
3459 05-12-2018 00:15:00 1.6 C 97 % 1.18 C
3460 05-12-2018 00:20:00 1.6 C 97 % 1.18 C
3461 05-12-2018 00:25:00 1.6 C 96 % 1.03 C
3462 05-12-2018 00:30:00 1.7 C 96 % 1.13 C
3463 05-12-2018 00:35:00 1.7 C 96 % 1.13 C
3464 05-12-2018 00:40:00 1.7 C 96 % 1.13 C
3465 05-12-2018 00:45:00 1.6 C 97 % 1.18 C
3466 05-12-2018 00:50:00 1.6 C 97 % 1.18 C
3467 05-12-2018 00:55:00 1.5 C 97 % 1.08 C
3468 05-12-2018 01:00:00 1.4 C 96 % 0.83 C
3469 05-12-2018 01:05:00 1.4 C 96 % 0.83 C
3470 05-12-2018 01:10:00 1.4 C 96 % 0.83 C
3471 05-12-2018 01:15:00 1.3 C 96 % 0.73 C
3472 05-12-2018 01:20:00 1.3 C 96 % 0.73 C
3473 05-12-2018 01:25:00 1.3 C 97 % 0.88 C
3474 05-12-2018 01:30:00 1.3 C 97 % 0.88 C
3475 05-12-2018 01:35:00 1.3 C 97 % 0.88 C
Sensor: Nr:Datum:Temp:Feuchte:Taupunkt:
Aussen-T/F 3476 05-12-2018 01:40:00 1.3 C 97 % 0.88 C
3477 05-12-2018 01:45:00 1.3 C 97 % 0.88 C
3478 05-12-2018 01:50:00 1.3 C 97 % 0.88 C
3479 05-12-2018 01:55:00 1.2 C 97 % 0.78 C
3480 05-12-2018 02:00:00 1.2 C 96 % 0.63 C
3481 05-12-2018 02:05:00 1.2 C 96 % 0.63 C
3482 05-12-2018 02:10:00 1.2 C 96 % 0.63 C
3483 05-12-2018 02:15:00 1.2 C 96 % 0.63 C
3484 05-12-2018 02:20:00 1.2 C 96 % 0.63 C
3485 05-12-2018 02:25:00 1.2 C 96 % 0.63 C
3486 05-12-2018 02:30:00 1.2 C 96 % 0.63 C
3487 05-12-2018 02:35:00 1.1 C 96 % 0.54 C
3488 05-12-2018 02:40:00 1.1 C 96 % 0.54 C
3489 05-12-2018 02:45:00 1.1 C 96 % 0.54 C
3490 05-12-2018 02:50:00 1.1 C 97 % 0.68 C
3491 05-12-2018 02:55:00 1.1 C 97 % 0.68 C
3492 05-12-2018 03:00:00 1.1 C 97 % 0.68 C
3493 05-12-2018 03:05:00 1.1 C 97 % 0.68 C
3494 05-12-2018 03:10:00 1.1 C 97 % 0.68 C
3495 05-12-2018 03:15:00 1.2 C 97 % 0.78 C
3496 05-12-2018 03:20:00 1.2 C 97 % 0.78 C
3497 05-12-2018 03:25:00 1.2 C 97 % 0.78 C
3498 05-12-2018 03:30:00 1.2 C 97 % 0.78 C
3499 05-12-2018 03:35:00 1.2 C 97 % 0.78 C
3500 05-12-2018 03:40:00 1.2 C 97 % 0.78 C
Sensor: Nr:Datum:Temp:Feuchte:Taupunkt:
Aussen-T/F 3501 05-12-2018 03:45:00 1.2 C 97 % 0.78 C
3502 05-12-2018 03:50:00 1.2 C 97 % 0.78 C
3503 05-12-2018 03:55:00 1.1 C 97 % 0.68 C
3504 05-12-2018 04:00:00 1.1 C 97 % 0.68 C
3505 05-12-2018 04:05:00 1.1 C 97 % 0.68 C
3506 05-12-2018 04:10:00 1.1 C 97 % 0.68 C
3507 05-12-2018 04:15:00 1.1 C 97 % 0.68 C
3508 05-12-2018 04:20:00 1.1 C 97 % 0.68 C
3509 05-12-2018 04:25:00 1.1 C 97 % 0.68 C
3510 05-12-2018 04:30:00 1.1 C 97 % 0.68 C
3511 05-12-2018 04:35:00 1.1 C 97 % 0.68 C
3512 05-12-2018 04:40:00 1.1 C 97 % 0.68 C
3513 05-12-2018 04:45:00 1.1 C 97 % 0.68 C
3514 05-12-2018 04:50:00 1.1 C 97 % 0.68 C
3515 05-12-2018 04:55:00 1.1 C 97 % 0.68 C
3516 05-12-2018 05:00:00 1.1 C 97 % 0.68 C
3517 05-12-2018 05:05:00 1.1 C 97 % 0.68 C
3518 05-12-2018 05:10:00 1.1 C 97 % 0.68 C
3519 05-12-2018 05:15:00 1.1 C 97 % 0.68 C
3520 05-12-2018 05:20:00 1.2 C 97 % 0.78 C
3521 05-12-2018 05:25:00 1.2 C 97 % 0.78 C
3522 05-12-2018 05:30:00 1.2 C 97 % 0.78 C
3523 05-12-2018 05:35:00 1.2 C 97 % 0.78 C
3524 05-12-2018 05:40:00 1.2 C 97 % 0.78 C
3525 05-12-2018 05:45:00 1.3 C 97 % 0.88 C
Sensor: Nr:Datum:Temp:Feuchte:Taupunkt:
Aussen-T/F 3526 05-12-2018 05:50:00 1.3 C 97 % 0.88 C
3527 05-12-2018 05:55:00 1.3 C 97 % 0.88 C
3528 05-12-2018 06:00:00 1.3 C 97 % 0.88 C
3529 05-12-2018 06:05:00 1.3 C 97 % 0.88 C
3530 05-12-2018 06:10:00 1.3 C 97 % 0.88 C
3531 05-12-2018 06:15:00 1.3 C 97 % 0.88 C
3532 05-12-2018 06:20:00 1.3 C 97 % 0.88 C
3533 05-12-2018 06:25:00 1.4 C 97 % 0.98 C
3534 05-12-2018 06:30:00 1.4 C 97 % 0.98 C
3535 05-12-2018 06:35:00 1.3 C 97 % 0.88 C
3536 05-12-2018 06:40:00 1.3 C 97 % 0.88 C
3537 05-12-2018 06:45:00 1.3 C 97 % 0.88 C
3538 05-12-2018 06:50:00 1.3 C 97 % 0.88 C
3539 05-12-2018 06:55:00 1.3 C 97 % 0.88 C
3540 05-12-2018 07:00:00 1.3 C 97 % 0.88 C
3541 05-12-2018 07:05:00 1.3 C 97 % 0.88 C
3542 05-12-2018 07:10:00 1.3 C 97 % 0.88 C
3543 05-12-2018 07:15:00 1.3 C 97 % 0.88 C
3544 05-12-2018 07:20:00 1.3 C 97 % 0.88 C
3545 05-12-2018 07:25:00 1.4 C 97 % 0.98 C
3546 05-12-2018 07:30:00 1.4 C 97 % 0.98 C
3547 05-12-2018 07:35:00 1.4 C 97 % 0.98 C
3548 05-12-2018 07:40:00 1.5 C 97 % 1.08 C
3549 05-12-2018 07:45:00 1.5 C 97 % 1.08 C
3550 05-12-2018 07:50:00 1.6 C 97 % 1.18 C
Sensor: Nr:Datum:Temp:Feuchte:Taupunkt:
Aussen-T/F 3551 05-12-2018 07:55:00 1.6 C 97 % 1.18 C
3552 05-12-2018 08:00:00 1.6 C 97 % 1.18 C
3553 05-12-2018 08:05:00 1.6 C 97 % 1.18 C
3554 05-12-2018 08:10:00 1.6 C 97 % 1.18 C
3555 05-12-2018 08:15:00 1.6 C 97 % 1.18 C
3556 05-12-2018 08:20:00 1.7 C 97 % 1.28 C
3557 05-12-2018 08:25:00 1.7 C 97 % 1.28 C
3558 05-12-2018 08:30:00 1.7 C 97 % 1.28 C
3559 05-12-2018 08:35:00 1.7 C 97 % 1.28 C
3560 05-12-2018 08:40:00 1.8 C 97 % 1.38 C
3561 05-12-2018 08:45:00 1.8 C 97 % 1.38 C
3562 05-12-2018 08:50:00 1.8 C 97 % 1.38 C
3563 05-12-2018 08:55:00 1.8 C 97 % 1.38 C
3564 05-12-2018 09:00:00 1.8 C 97 % 1.38 C
3565 05-12-2018 09:05:00 1.8 C 97 % 1.38 C
3566 05-12-2018 09:10:00 1.8 C 97 % 1.38 C
3567 05-12-2018 09:15:00 1.8 C 97 % 1.38 C
3568 05-12-2018 09:20:00 1.8 C 97 % 1.38 C
3569 05-12-2018 09:25:00 1.8 C 97 % 1.38 C
3570 05-12-2018 09:30:00 1.8 C 97 % 1.38 C
3571 05-12-2018 09:35:00 1.9 C 97 % 1.48 C
3572 05-12-2018 09:40:00 1.9 C 97 % 1.48 C
3573 05-12-2018 09:45:00 1.9 C 97 % 1.48 C
3574 05-12-2018 09:50:00 1.9 C 97 % 1.48 C
3575 05-12-2018 09:55:00 1.9 C 97 % 1.48 C
Sensor: Nr:Datum:Temp:Feuchte:Taupunkt:
Aussen-T/F 3576 05-12-2018 10:00:00 2 C 97 % 1.58 C
3577 05-12-2018 10:05:00 2.1 C 97 % 1.67 C
3578 05-12-2018 10:10:00 2.1 C 98 % 1.82 C
3579 05-12-2018 10:15:00 2.1 C 97 % 1.67 C
3580 05-12-2018 10:20:00 2.2 C 97 % 1.77 C
3581 05-12-2018 10:25:00 2.3 C 97 % 1.87 C
3582 05-12-2018 10:30:00 2.3 C 97 % 1.87 C
3583 05-12-2018 10:35:00 2.4 C 97 % 1.97 C
3584 05-12-2018 10:40:00 2.5 C 98 % 2.22 C
3585 05-12-2018 10:45:00 2.6 C 98 % 2.32 C
3586 05-12-2018 10:50:00 2.6 C 97 % 2.17 C
3587 05-12-2018 10:55:00 2.7 C 97 % 2.27 C
3588 05-12-2018 11:00:00 2.8 C 98 % 2.52 C
3589 05-12-2018 11:05:00 2.9 C 98 % 2.62 C
3590 05-12-2018 11:10:00 2.9 C 98 % 2.62 C
3591 05-12-2018 11:15:00 3 C 98 % 2.72 C
3592 05-12-2018 11:20:00 3.1 C 98 % 2.82 C
3593 05-12-2018 11:25:00 3.1 C 98 % 2.82 C
3594 05-12-2018 11:30:00 3.2 C 98 % 2.92 C
3595 05-12-2018 11:35:00 3.2 C 98 % 2.92 C
3596 05-12-2018 11:40:00 3.2 C 98 % 2.92 C
3597 05-12-2018 11:45:00 3.3 C 98 % 3.01 C
3598 05-12-2018 11:50:00 3.3 C 98 % 3.01 C
3599 05-12-2018 11:55:00 3.4 C 98 % 3.11 C
3600 05-12-2018 12:00:00 3.6 C 98 % 3.31 C
Sensor: Nr:Datum:Temp:Feuchte:Taupunkt:
Aussen-T/F 3601 05-12-2018 12:05:00 3.7 C 98 % 3.41 C
3602 05-12-2018 12:10:00 3.8 C 98 % 3.51 C
3603 05-12-2018 12:15:00 3.9 C 98 % 3.61 C
3604 05-12-2018 12:20:00 4 C 98 % 3.71 C
3605 05-12-2018 12:25:00 4.1 C 98 % 3.81 C
3606 05-12-2018 12:30:00 4.1 C 98 % 3.81 C
3607 05-12-2018 12:35:00 4.2 C 98 % 3.91 C
3608 05-12-2018 12:40:00 4.3 C 98 % 4.01 C
3609 05-12-2018 12:45:00 4.4 C 98 % 4.11 C
3610 05-12-2018 12:50:00 4.4 C 98 % 4.11 C
3611 05-12-2018 12:55:00 4.5 C 98 % 4.21 C
3612 05-12-2018 13:00:00 4.6 C 98 % 4.31 C
3613 05-12-2018 13:05:00 4.7 C 98 % 4.41 C
3614 05-12-2018 13:10:00 4.8 C 98 % 4.51 C
3615 05-12-2018 13:15:00 4.8 C 98 % 4.51 C
3616 05-12-2018 13:20:00 5 C 98 % 4.71 C
3617 05-12-2018 13:25:00 5.1 C 98 % 4.81 C
3618 05-12-2018 13:30:00 5.2 C 98 % 4.91 C
3619 05-12-2018 13:35:00 5.2 C 98 % 4.91 C
3620 05-12-2018 13:40:00 5.3 C 98 % 5.01 C
3621 05-12-2018 13:45:00 5.5 C 98 % 5.21 C
3622 05-12-2018 13:50:00 5.7 C 98 % 5.41 C
3623 05-12-2018 13:55:00 5.8 C 98 % 5.51 C
3624 05-12-2018 14:00:00 5.9 C 98 % 5.61 C
3625 05-12-2018 14:05:00 6 C 98 % 5.71 C
Sensor: Nr:Datum:Temp:Feuchte:Taupunkt:
Aussen-T/F 3626 05-12-2018 14:10:00 6.1 C 98 % 5.81 C
3627 05-12-2018 14:15:00 6.1 C 98 % 5.81 C
3628 05-12-2018 14:20:00 6.2 C 97 % 5.76 C
3629 05-12-2018 14:25:00 6.2 C 98 % 5.91 C
3630 05-12-2018 14:30:00 6.3 C 97 % 5.86 C
3631 05-12-2018 14:35:00 6.5 C 97 % 6.06 C
3632 05-12-2018 14:40:00 6.6 C 97 % 6.16 C
3633 05-12-2018 14:45:00 6.7 C 97 % 6.26 C
3634 05-12-2018 14:50:00 6.8 C 97 % 6.36 C
3635 05-12-2018 14:55:00 6.8 C 97 % 6.36 C
3636 05-12-2018 15:00:00 6.8 C 97 % 6.36 C
3637 05-12-2018 15:05:00 6.9 C 96 % 6.31 C
3638 05-12-2018 15:10:00 6.8 C 96 % 6.21 C
3639 05-12-2018 15:15:00 6.8 C 96 % 6.21 C
3640 05-12-2018 15:20:00 6.8 C 96 % 6.21 C
3641 05-12-2018 15:25:00 6.7 C 95 % 5.96 C
3642 05-12-2018 15:30:00 6.7 C 95 % 5.96 C
3643 05-12-2018 15:35:00 6.6 C 95 % 5.86 C
3644 05-12-2018 15:40:00 6.6 C 95 % 5.86 C
3645 05-12-2018 15:45:00 6.4 C 95 % 5.66 C
3646 05-12-2018 15:50:00 6.3 C 95 % 5.56 C
3647 05-12-2018 15:55:00 6.2 C 95 % 5.46 C
3648 05-12-2018 16:00:00 6.2 C 95 % 5.46 C
3649 05-12-2018 16:05:00 6.1 C 95 % 5.36 C
3650 05-12-2018 16:10:00 6.1 C 94 % 5.21 C
Sensor: Nr:Datum:Temp:Feuchte:Taupunkt:
Aussen-T/F 3651 05-12-2018 16:15:00 6.1 C 94 % 5.21 C
3652 05-12-2018 16:20:00 6.1 C 94 % 5.21 C
3653 05-12-2018 16:25:00 6.1 C 94 % 5.21 C
3654 05-12-2018 16:30:00 6.1 C 94 % 5.21 C
3655 05-12-2018 16:35:00 6.1 C 94 % 5.21 C
3656 05-12-2018 16:40:00 6.1 C 94 % 5.21 C
3657 05-12-2018 16:45:00 6.1 C 95 % 5.36 C
3658 05-12-2018 16:50:00 6.1 C 95 % 5.36 C
3659 05-12-2018 16:55:00 6.1 C 95 % 5.36 C
3660 05-12-2018 17:00:00 6.1 C 95 % 5.36 C
3661 05-12-2018 17:05:00 6.1 C 95 % 5.36 C
3662 05-12-2018 17:10:00 6.1 C 95 % 5.36 C
3663 05-12-2018 17:15:00 6.1 C 95 % 5.36 C
3664 05-12-2018 17:20:00 6 C 95 % 5.26 C
3665 05-12-2018 17:25:00 6 C 95 % 5.26 C
3666 05-12-2018 17:30:00 6 C 95 % 5.26 C
3667 05-12-2018 17:35:00 6 C 94 % 5.11 C
3668 05-12-2018 17:40:00 6.1 C 94 % 5.21 C
3669 05-12-2018 17:45:00 6.1 C 94 % 5.21 C
3670 05-12-2018 17:50:00 6 C 94 % 5.11 C
3671 05-12-2018 17:55:00 6.1 C 94 % 5.21 C
3672 05-12-2018 18:00:00 6.1 C 94 % 5.21 C
3673 05-12-2018 18:05:00 6.1 C 94 % 5.21 C
3674 05-12-2018 18:10:00 6.1 C 93 % 5.06 C
3675 05-12-2018 18:15:00 6.1 C 93 % 5.06 C
Sensor: Nr:Datum:Temp:Feuchte:Taupunkt:
Aussen-T/F 3676 05-12-2018 18:20:00 6.1 C 93 % 5.06 C
3677 05-12-2018 18:25:00 6.1 C 93 % 5.06 C
3678 05-12-2018 18:30:00 6.1 C 93 % 5.06 C
3679 05-12-2018 18:35:00 6.1 C 93 % 5.06 C
3680 05-12-2018 18:40:00 6.1 C 93 % 5.06 C
3681 05-12-2018 18:45:00 6.1 C 93 % 5.06 C
3682 05-12-2018 18:50:00 6.1 C 93 % 5.06 C
3683 05-12-2018 18:55:00 6 C 93 % 4.96 C
3684 05-12-2018 19:00:00 6 C 93 % 4.96 C
3685 05-12-2018 19:05:00 6 C 93 % 4.96 C
3686 05-12-2018 19:10:00 6 C 93 % 4.96 C
3687 05-12-2018 19:15:00 6 C 93 % 4.96 C
3688 05-12-2018 19:20:00 5.9 C 93 % 4.86 C
3689 05-12-2018 19:25:00 5.9 C 93 % 4.86 C
3690 05-12-2018 19:30:00 5.9 C 93 % 4.86 C
3691 05-12-2018 19:35:00 5.8 C 93 % 4.76 C
3692 05-12-2018 19:40:00 5.8 C 93 % 4.76 C
3693 05-12-2018 19:45:00 5.8 C 94 % 4.91 C
3694 05-12-2018 19:50:00 5.8 C 94 % 4.91 C
3695 05-12-2018 19:55:00 5.7 C 94 % 4.81 C
3696 05-12-2018 20:00:00 5.7 C 94 % 4.81 C
3697 05-12-2018 20:05:00 5.6 C 93 % 4.56 C
3698 05-12-2018 20:10:00 5.4 C 93 % 4.36 C
3699 05-12-2018 20:15:00 5.3 C 94 % 4.41 C
3700 05-12-2018 20:20:00 5.3 C 94 % 4.41 C
Sensor: Nr:Datum:Temp:Feuchte:Taupunkt:
Aussen-T/F 3701 05-12-2018 20:25:00 5.2 C 94 % 4.32 C
3702 05-12-2018 20:30:00 5.2 C 94 % 4.32 C
3703 05-12-2018 20:35:00 5.2 C 94 % 4.32 C
3704 05-12-2018 20:40:00 5.2 C 94 % 4.32 C
3705 05-12-2018 20:45:00 5.1 C 94 % 4.22 C
3706 05-12-2018 20:50:00 5.1 C 95 % 4.37 C
3707 05-12-2018 20:55:00 5.1 C 95 % 4.37 C
3708 05-12-2018 21:00:00 5.2 C 95 % 4.47 C
3709 05-12-2018 21:05:00 5.2 C 95 % 4.47 C
3710 05-12-2018 21:10:00 5.2 C 95 % 4.47 C
3711 05-12-2018 21:15:00 5.2 C 95 % 4.47 C
3712 05-12-2018 21:20:00 5.1 C 95 % 4.37 C
3713 05-12-2018 21:25:00 5 C 95 % 4.27 C
3714 05-12-2018 21:30:00 4.9 C 95 % 4.17 C
3715 05-12-2018 21:35:00 4.8 C 95 % 4.07 C
3716 05-12-2018 21:40:00 4.9 C 95 % 4.17 C
3717 05-12-2018 21:45:00 4.9 C 95 % 4.17 C
3718 05-12-2018 21:50:00 4.9 C 95 % 4.17 C
3719 05-12-2018 21:55:00 5 C 95 % 4.27 C
3720 05-12-2018 22:00:00 5 C 95 % 4.27 C
3721 05-12-2018 22:05:00 5 C 95 % 4.27 C
3722 05-12-2018 22:10:00 4.9 C 95 % 4.17 C
3723 05-12-2018 22:15:00 4.9 C 95 % 4.17 C
3724 05-12-2018 22:20:00 5 C 95 % 4.27 C
3725 05-12-2018 22:25:00 5 C 95 % 4.27 C
Sensor: Nr:Datum:Temp:Feuchte:Taupunkt:
Aussen-T/F 3726 05-12-2018 22:30:00 5.1 C 96 % 4.52 C
3727 05-12-2018 22:35:00 5.1 C 96 % 4.52 C
3728 05-12-2018 22:40:00 5.1 C 96 % 4.52 C
3729 05-12-2018 22:45:00 5.2 C 96 % 4.62 C
3730 05-12-2018 22:50:00 5.2 C 96 % 4.62 C
3731 05-12-2018 22:55:00 5.3 C 96 % 4.72 C
3732 05-12-2018 23:00:00 5.3 C 96 % 4.72 C
3733 05-12-2018 23:05:00 5.4 C 96 % 4.81 C
3734 05-12-2018 23:10:00 5.4 C 96 % 4.81 C
3735 05-12-2018 23:15:00 5.5 C 96 % 4.91 C
3736 05-12-2018 23:20:00 5.6 C 96 % 5.01 C
3737 05-12-2018 23:25:00 5.6 C 96 % 5.01 C
3738 05-12-2018 23:30:00 5.7 C 96 % 5.11 C
3739 05-12-2018 23:35:00 5.7 C 96 % 5.11 C
3740 05-12-2018 23:40:00 5.7 C 96 % 5.11 C
3741 05-12-2018 23:45:00 5.8 C 96 % 5.21 C
3742 05-12-2018 23:50:00 5.8 C 96 % 5.21 C
3743 05-12-2018 23:55:00 5.8 C 96 % 5.21 C
3744 06-12-2018 00:00:00 5.9 C 96 % 5.31 C
3745 06-12-2018 00:05:00 5.9 C 96 % 5.31 C
3746 06-12-2018 00:10:00 5.9 C 96 % 5.31 C
3747 06-12-2018 00:15:00 5.9 C 96 % 5.31 C
3748 06-12-2018 00:20:00 5.9 C 96 % 5.31 C
3749 06-12-2018 00:25:00 5.9 C 96 % 5.31 C
3750 06-12-2018 00:30:00 6 C 97 % 5.56 C
Sensor: Nr:Datum:Temp:Feuchte:Taupunkt:
Aussen-T/F 3751 06-12-2018 00:35:00 6.1 C 97 % 5.66 C
3752 06-12-2018 00:40:00 6.1 C 97 % 5.66 C
3753 06-12-2018 00:45:00 6.2 C 97 % 5.76 C
3754 06-12-2018 00:50:00 6.2 C 97 % 5.76 C
3755 06-12-2018 00:55:00 6.2 C 97 % 5.76 C
3756 06-12-2018 01:00:00 6.3 C 97 % 5.86 C
3757 06-12-2018 01:05:00 6.3 C 97 % 5.86 C
3758 06-12-2018 01:10:00 6.3 C 97 % 5.86 C
3759 06-12-2018 01:15:00 6.3 C 97 % 5.86 C
3760 06-12-2018 01:20:00 6.3 C 97 % 5.86 C
3761 06-12-2018 01:25:00 6.3 C 97 % 5.86 C
3762 06-12-2018 01:30:00 6.3 C 97 % 5.86 C
3763 06-12-2018 01:35:00 6.3 C 97 % 5.86 C
3764 06-12-2018 01:40:00 6.4 C 97 % 5.96 C
3765 06-12-2018 01:45:00 6.4 C 97 % 5.96 C
3766 06-12-2018 01:50:00 6.4 C 97 % 5.96 C
3767 06-12-2018 01:55:00 6.4 C 97 % 5.96 C
3768 06-12-2018 02:00:00 6.4 C 97 % 5.96 C
3769 06-12-2018 02:05:00 6.3 C 97 % 5.86 C
3770 06-12-2018 02:10:00 6.3 C 97 % 5.86 C
3771 06-12-2018 02:15:00 6.3 C 97 % 5.86 C
3772 06-12-2018 02:20:00 6.3 C 97 % 5.86 C
3773 06-12-2018 02:25:00 6.3 C 97 % 5.86 C
3774 06-12-2018 02:30:00 6.3 C 97 % 5.86 C
3775 06-12-2018 02:35:00 6.3 C 97 % 5.86 C
Sensor: Nr:Datum:Temp:Feuchte:Taupunkt:
Aussen-T/F 3776 06-12-2018 02:40:00 6.3 C 97 % 5.86 C
3777 06-12-2018 02:45:00 6.2 C 97 % 5.76 C
3778 06-12-2018 02:50:00 6.2 C 97 % 5.76 C
3779 06-12-2018 02:55:00 6.2 C 97 % 5.76 C
3780 06-12-2018 03:00:00 6.2 C 97 % 5.76 C
3781 06-12-2018 03:05:00 6.2 C 97 % 5.76 C
3782 06-12-2018 03:10:00 6.3 C 97 % 5.86 C
3783 06-12-2018 03:15:00 6.3 C 97 % 5.86 C
3784 06-12-2018 03:20:00 6.3 C 97 % 5.86 C
3785 06-12-2018 03:25:00 6.3 C 97 % 5.86 C
3786 06-12-2018 03:30:00 6.3 C 97 % 5.86 C
3787 06-12-2018 03:35:00 6.4 C 97 % 5.96 C
3788 06-12-2018 03:40:00 6.4 C 97 % 5.96 C
3789 06-12-2018 03:45:00 6.4 C 97 % 5.96 C
3790 06-12-2018 03:50:00 6.4 C 97 % 5.96 C
3791 06-12-2018 03:55:00 6.4 C 97 % 5.96 C
3792 06-12-2018 04:00:00 6.4 C 97 % 5.96 C
3793 06-12-2018 04:05:00 6.4 C 97 % 5.96 C
3794 06-12-2018 04:10:00 6.5 C 97 % 6.06 C
3795 06-12-2018 04:15:00 6.5 C 97 % 6.06 C
3796 06-12-2018 04:20:00 6.5 C 97 % 6.06 C
3797 06-12-2018 04:25:00 6.5 C 97 % 6.06 C
3798 06-12-2018 04:30:00 6.6 C 97 % 6.16 C
3799 06-12-2018 04:35:00 6.6 C 97 % 6.16 C
3800 06-12-2018 04:40:00 6.6 C 97 % 6.16 C
Sensor: Nr:Datum:Temp:Feuchte:Taupunkt:
Aussen-T/F 3801 06-12-2018 04:45:00 6.6 C 97 % 6.16 C
3802 06-12-2018 04:50:00 6.6 C 97 % 6.16 C
3803 06-12-2018 04:55:00 6.6 C 97 % 6.16 C
3804 06-12-2018 05:00:00 6.6 C 97 % 6.16 C
3805 06-12-2018 05:05:00 6.7 C 97 % 6.26 C
3806 06-12-2018 05:10:00 6.7 C 97 % 6.26 C
3807 06-12-2018 05:15:00 6.7 C 97 % 6.26 C
3808 06-12-2018 05:20:00 6.7 C 97 % 6.26 C
3809 06-12-2018 05:25:00 6.7 C 97 % 6.26 C
3810 06-12-2018 05:30:00 6.7 C 97 % 6.26 C
3811 06-12-2018 05:35:00 6.7 C 97 % 6.26 C
3812 06-12-2018 05:40:00 6.7 C 97 % 6.26 C
3813 06-12-2018 05:45:00 6.7 C 97 % 6.26 C
3814 06-12-2018 05:50:00 6.8 C 97 % 6.36 C
3815 06-12-2018 05:55:00 6.8 C 97 % 6.36 C
3816 06-12-2018 06:00:00 6.8 C 97 % 6.36 C
3817 06-12-2018 06:05:00 6.8 C 97 % 6.36 C
3818 06-12-2018 06:10:00 6.8 C 97 % 6.36 C
3819 06-12-2018 06:15:00 6.8 C 97 % 6.36 C
3820 06-12-2018 06:20:00 6.8 C 97 % 6.36 C
3821 06-12-2018 06:25:00 6.9 C 97 % 6.46 C
3822 06-12-2018 06:30:00 6.9 C 97 % 6.46 C
3823 06-12-2018 06:35:00 6.9 C 97 % 6.46 C
3824 06-12-2018 06:40:00 6.9 C 97 % 6.46 C
3825 06-12-2018 06:45:00 6.9 C 97 % 6.46 C
Sensor: Nr:Datum:Temp:Feuchte:Taupunkt:
Aussen-T/F 3826 06-12-2018 06:50:00 6.9 C 97 % 6.46 C
3827 06-12-2018 06:55:00 6.9 C 97 % 6.46 C
3828 06-12-2018 07:00:00 7 C 97 % 6.56 C
3829 06-12-2018 07:05:00 7 C 97 % 6.56 C
3830 06-12-2018 07:10:00 7.1 C 97 % 6.66 C
3831 06-12-2018 07:15:00 7.1 C 97 % 6.66 C
3832 06-12-2018 07:20:00 7.1 C 97 % 6.66 C
3833 06-12-2018 07:25:00 7.2 C 97 % 6.76 C
3834 06-12-2018 07:30:00 7.2 C 98 % 6.91 C
3835 06-12-2018 07:35:00 7.3 C 98 % 7.01 C
3836 06-12-2018 07:40:00 7.4 C 98 % 7.11 C
3837 06-12-2018 07:45:00 7.5 C 98 % 7.2 C
3838 06-12-2018 07:50:00 7.5 C 98 % 7.2 C
3839 06-12-2018 07:55:00 7.5 C 98 % 7.2 C
3840 06-12-2018 08:00:00 7.6 C 98 % 7.3 C
3841 06-12-2018 08:05:00 7.6 C 98 % 7.3 C
3842 06-12-2018 08:10:00 7.7 C 98 % 7.4 C
3843 06-12-2018 08:15:00 7.8 C 98 % 7.5 C
3844 06-12-2018 08:20:00 7.9 C 98 % 7.6 C
3845 06-12-2018 08:25:00 8 C 98 % 7.7 C
3846 06-12-2018 08:30:00 8.1 C 98 % 7.8 C
3847 06-12-2018 08:35:00 8.2 C 98 % 7.9 C
3848 06-12-2018 08:40:00 8.3 C 98 % 8 C
3849 06-12-2018 08:45:00 8.4 C 98 % 8.1 C
3850 06-12-2018 08:50:00 8.6 C 98 % 8.3 C
Sensor: Nr:Datum:Temp:Feuchte:Taupunkt:
Aussen-T/F 3851 06-12-2018 08:55:00 8.6 C 98 % 8.3 C
3852 06-12-2018 09:00:00 8.7 C 98 % 8.4 C
3853 06-12-2018 09:05:00 8.8 C 98 % 8.5 C
3854 06-12-2018 09:10:00 8.9 C 98 % 8.6 C
3855 06-12-2018 09:15:00 9.1 C 98 % 8.8 C
3856 06-12-2018 09:20:00 9.1 C 98 % 8.8 C
3857 06-12-2018 09:25:00 9.2 C 98 % 8.9 C
3858 06-12-2018 09:30:00 9.3 C 98 % 9 C
3859 06-12-2018 09:35:00 9.3 C 98 % 9 C
3860 06-12-2018 09:40:00 9.3 C 98 % 9 C
3861 06-12-2018 09:45:00 9.4 C 98 % 9.1 C
3862 06-12-2018 09:50:00 9.4 C 98 % 9.1 C
3863 06-12-2018 09:55:00 9.5 C 98 % 9.2 C
3864 06-12-2018 10:00:00 9.6 C 98 % 9.3 C
3865 06-12-2018 10:05:00 9.6 C 98 % 9.3 C
3866 06-12-2018 10:10:00 9.7 C 98 % 9.4 C
3867 06-12-2018 10:15:00 9.7 C 97 % 9.25 C
3868 06-12-2018 10:20:00 9.8 C 97 % 9.35 C
3869 06-12-2018 10:25:00 9.9 C 97 % 9.45 C
3870 06-12-2018 10:30:00 9.9 C 97 % 9.45 C
3871 06-12-2018 10:35:00 10.1 C 97 % 9.65 C
3872 06-12-2018 10:40:00 10.1 C 97 % 9.65 C
3873 06-12-2018 10:45:00 10.1 C 97 % 9.65 C
3874 06-12-2018 10:50:00 10.2 C 97 % 9.75 C
3875 06-12-2018 10:55:00 10.2 C 96 % 9.59 C
Sensor: Nr:Datum:Temp:Feuchte:Taupunkt:
Aussen-T/F 3876 06-12-2018 11:00:00 10.3 C 96 % 9.69 C
3877 06-12-2018 11:05:00 10.3 C 96 % 9.69 C
3878 06-12-2018 11:10:00 10.4 C 96 % 9.79 C
3879 06-12-2018 11:15:00 10.5 C 96 % 9.89 C
3880 06-12-2018 11:20:00 10.6 C 96 % 9.99 C
3881 06-12-2018 11:25:00 10.6 C 96 % 9.99 C
3882 06-12-2018 11:30:00 10.7 C 95 % 9.93 C
3883 06-12-2018 11:35:00 10.8 C 95 % 10.03 C
3884 06-12-2018 11:40:00 10.9 C 95 % 10.13 C
3885 06-12-2018 11:45:00 11 C 95 % 10.23 C
3886 06-12-2018 11:50:00 11.1 C 95 % 10.33 C
3887 06-12-2018 11:55:00 11.2 C 94 % 10.27 C
3888 06-12-2018 12:00:00 11.2 C 94 % 10.27 C
3889 06-12-2018 12:05:00 11.2 C 94 % 10.27 C
3890 06-12-2018 12:10:00 11.3 C 93 % 10.21 C
3891 06-12-2018 12:15:00 11.3 C 93 % 10.21 C
3892 06-12-2018 12:20:00 11.3 C 93 % 10.21 C
</